Provisional Data: Bowman Creek near Noxen, PA


Please select a monitoring station.
Please select start date.
Please select start date.

Toggle Unit: C/F Toggle Unit: C/F
Sample Time Temperature (C) Temperature (F) Specific Conductivity (mS/cm) pH   Turbidity (NTU+) DO (mg/L)
9/6/2021 12:00:00 AM 16.01 60.818 0.037 6.39 5.03 9.23
9/6/2021 12:15:00 AM 16 60.8 0.038 6.4 4.88 9.25
9/6/2021 12:30:00 AM 15.99 60.782 0.038 6.42 4.75 9.25
9/6/2021 12:45:00 AM 15.97 60.746 0.037 6.41 4.61 9.26
9/6/2021 1:00:00 AM 15.95 60.71 0.037 6.4 5.09 9.27
9/6/2021 1:15:00 AM 15.93 60.674 0.036 6.38 6 9.3
9/6/2021 1:30:00 AM 15.9 60.62 0.034 6.38 7.74 9.31
9/6/2021 1:45:00 AM 15.88 60.584 0.033 6.37 9.25 9.34
9/6/2021 2:00:00 AM 15.87 60.566 0.032 6.35 10.68 9.35
9/6/2021 2:15:00 AM 15.86 60.548 0.032 6.36 10.04 9.35
9/6/2021 2:30:00 AM 15.84 60.512 0.032 6.37 10.42 9.35
9/6/2021 2:45:00 AM 15.83 60.494 0.032 6.36 9.5 9.35
9/6/2021 3:00:00 AM 15.82 60.476 0.032 6.35 10.43 9.35
9/6/2021 3:15:00 AM 15.8 60.44 0.032 6.33 11.66 9.36
9/6/2021 3:30:00 AM 15.79 60.422 0.031 6.36 11.02 9.35
9/6/2021 3:45:00 AM 15.78 60.404 0.032 6.34 10.81 9.35
9/6/2021 4:00:00 AM 15.77 60.386 0.032 6.34 10.36 9.35
9/6/2021 4:15:00 AM 15.76 60.368 0.032 6.35 9.73 9.35
9/6/2021 4:30:00 AM 15.75 60.35 0.032 6.35 9.5 9.36
9/6/2021 4:45:00 AM 15.72 60.296 0.032 6.38 8.21 9.36
9/6/2021 5:00:00 AM 15.69 60.242 0.032 6.35 9.05 9.37
9/6/2021 5:15:00 AM 15.66 60.188 0.032 6.34 8.37 9.37
9/6/2021 5:30:00 AM 15.61 60.098 0.032 6.33 8.35 9.38
9/6/2021 5:45:00 AM 15.58 60.044 0.033 6.37 7.62 9.39
9/6/2021 6:00:00 AM 15.56 60.008 0.033 6.35 7.23 9.38
9/6/2021 6:15:00 AM 15.54 59.972 0.033 6.36 6.84 9.39
9/6/2021 6:30:00 AM 15.5 59.9 0.033 6.37 7.01 9.4
9/6/2021 6:45:00 AM 15.47 59.846 0.033 6.37 6.97 9.41
9/6/2021 7:00:00 AM 15.45 59.81 0.034 6.38 6.67 9.42
9/6/2021 7:15:00 AM 15.42 59.756 0.034 6.37 6.35 9.43
9/6/2021 7:30:00 AM 15.4 59.72 0.034 6.39 6.07 9.45
9/6/2021 7:45:00 AM 15.37 59.666 0.034 6.4 6.63 9.47
9/6/2021 8:00:00 AM 15.35 59.63 0.034 6.41 5.68 9.49
9/6/2021 8:15:00 AM 15.34 59.612 0.034 6.42 5.69 9.51
9/6/2021 8:30:00 AM 15.33 59.594 0.034 6.43 5.7 9.52
9/6/2021 8:45:00 AM 15.33 59.594 0.034 6.44 5.58 9.53
9/6/2021 9:00:00 AM 15.35 59.63 0.034 6.43 5.63 9.53
9/6/2021 9:15:00 AM 15.37 59.666 0.034 6.46 5.75 9.55
9/6/2021 9:30:00 AM 15.41 59.738 0.034 6.48 5.64 9.55
9/6/2021 9:45:00 AM 15.47 59.846 0.034 6.48 5.29 9.55
9/6/2021 10:00:00 AM 15.53 59.954 0.034 6.5 5.09 9.55
9/6/2021 10:15:00 AM 15.61 60.098 0.034 6.51 4.84 9.55
9/6/2021 10:30:00 AM 15.67 60.206 0.034 6.52 5.18 9.54
9/6/2021 10:45:00 AM 15.77 60.386 0.034 6.54 5.41 9.55
9/6/2021 11:00:00 AM 15.89 60.602 0.034 6.53 5.22 9.54
9/6/2021 11:15:00 AM 16.05 60.89 0.034 6.55 4.97 9.53
9/6/2021 11:30:00 AM 16.17 61.106 0.034 6.54 5.28 9.52
9/6/2021 11:45:00 AM 16.31 61.358 0.034 6.58 5.06 9.5
9/6/2021 12:00:00 PM 16.42 61.556 0.034 6.56 4.85 9.48
9/6/2021 12:15:00 PM 16.56 61.808 0.034 6.55 4.82 9.47
9/6/2021 12:30:00 PM 16.7 62.06 0.034 6.58 4.8 9.46
9/6/2021 12:45:00 PM 16.68 62.024 0.034 6.52 4.6 9.41
9/6/2021 1:00:00 PM 16.87 62.366 0.034 6.58 4.77 9.42
9/6/2021 1:15:00 PM 17.04 62.672 0.034 6.58 4.9 9.4
9/6/2021 1:30:00 PM 17.01 62.618 0.034 6.53 4.75 9.39
9/6/2021 1:45:00 PM 17.01 62.618 0.034 6.51 4.69 9.38
9/6/2021 2:00:00 PM 17.2 62.96 0.034 6.57 4.86 9.37
9/6/2021 2:15:00 PM 17.35 63.23 0.034 6.55 4.63 9.35
9/6/2021 2:30:00 PM 17.35 63.23 0.034 6.53 4.61 9.31
9/6/2021 2:45:00 PM 17.39 63.302 0.034 6.53 4.44 9.3
9/6/2021 3:00:00 PM 17.35 63.23 0.034 6.51 4.23 9.29
9/6/2021 3:15:00 PM 17.35 63.23 0.034 6.5 4.3 9.27
9/6/2021 3:30:00 PM 17.33 63.194 0.034 6.49 4.29 9.25
9/6/2021 3:45:00 PM 17.41 63.338 0.034 6.49 4.16 9.26
9/6/2021 4:00:00 PM 17.44 63.392 0.034 6.49 4.11 9.24
9/6/2021 4:15:00 PM 17.39 63.302 0.034 6.48 4.33 9.21
9/6/2021 4:30:00 PM 17.4 63.32 0.034 6.48 3.93 9.2
9/6/2021 4:45:00 PM 17.37 63.266 0.034 6.48 4.06 9.17
9/6/2021 5:00:00 PM 17.38 63.284 0.034 6.45 4.34 9.19
9/6/2021 5:15:00 PM 17.34 63.212 0.034 6.44 4.03 9.16
9/6/2021 5:30:00 PM 17.32 63.176 0.034 6.44 4.18 9.14
9/6/2021 5:45:00 PM 17.28 63.104 0.034 6.45 4.2 9.12
9/6/2021 6:00:00 PM 17.26 63.068 0.034 6.43 4.07 9.12
9/6/2021 6:15:00 PM 17.22 62.996 0.034 6.42 4.28 9.12
9/6/2021 6:30:00 PM 17.18 62.924 0.034 6.41 4 9.12
9/6/2021 6:45:00 PM 17.15 62.87 0.034 6.42 3.74 9.11
9/6/2021 7:00:00 PM 17.12 62.816 0.034 6.41 3.89 9.1
9/6/2021 7:15:00 PM 17.08 62.744 0.034 6.41 3.92 9.08
9/6/2021 7:30:00 PM 17.05 62.69 0.034 6.4 3.98 9.08
9/6/2021 7:45:00 PM 17 62.6 0.034 6.39 3.71 9.07
9/6/2021 8:00:00 PM 16.96 62.528 0.034 6.38 3.79 9.07
9/6/2021 8:15:00 PM 16.9 62.42 0.034 6.37 3.98 9.08
9/6/2021 8:30:00 PM 16.83 62.294 0.034 6.36 3.88 9.09
9/6/2021 8:45:00 PM 16.77 62.186 0.034 6.36 3.78 9.1
9/6/2021 9:00:00 PM 16.7 62.06 0.035 6.37 3.7 9.11
9/6/2021 9:15:00 PM 16.63 61.934 0.034 6.36 3.92 9.13
9/6/2021 9:30:00 PM 16.57 61.826 0.034 6.36 3.88 9.15
9/6/2021 9:45:00 PM 16.5 61.7 0.035 6.35 3.69 9.16
9/6/2021 10:00:00 PM 16.42 61.556 0.035 6.35 3.66 9.17
9/6/2021 10:15:00 PM 16.35 61.43 0.035 6.37 3.42 9.19
9/6/2021 10:30:00 PM 16.26 61.268 0.035 6.36 3.51 9.2
9/6/2021 10:45:00 PM 16.18 61.124 0.035 6.35 3.84 9.22
9/6/2021 11:00:00 PM 16.1 60.98 0.035 6.34 3.64 9.24
9/6/2021 11:15:00 PM 16.02 60.836 0.035 6.36 3.7 9.25
9/6/2021 11:30:00 PM 15.94 60.692 0.035 6.34 3.75 9.27
9/6/2021 11:45:00 PM 15.87 60.566 0.035 6.34 3.57 9.29
9/7/2021 12:00:00 AM 15.79 60.422 0.035 6.36 3.48 9.31
9/7/2021 12:15:00 AM 15.72 60.296 0.035 6.36 3.58 9.32
9/7/2021 12:30:00 AM 15.66 60.188 0.035 6.36 3.8 9.34
9/7/2021 12:45:00 AM 15.59 60.062 0.035 6.36 3.86 9.35
9/7/2021 1:00:00 AM 15.53 59.954 0.035 6.35 3.63 9.36
9/7/2021 1:15:00 AM 15.47 59.846 0.035 6.36 3.56 9.37
9/7/2021 1:30:00 AM 15.42 59.756 0.035 6.36 3.73 9.38
9/7/2021 1:45:00 AM 15.36 59.648 0.035 6.37 3.62 9.4
9/7/2021 2:00:00 AM 15.3 59.54 0.035 6.37 3.51 9.41
9/7/2021 2:15:00 AM 15.25 59.45 0.035 6.36 3.53 9.42
9/7/2021 2:30:00 AM 15.19 59.342 0.035 6.36 3.61 9.43
9/7/2021 2:45:00 AM 15.14 59.252 0.035 6.37 3.38 9.44
9/7/2021 3:00:00 AM 15.09 59.162 0.035 6.37 3.37 9.45
9/7/2021 3:15:00 AM 15.04 59.072 0.035 6.39 3.29 9.47
9/7/2021 3:30:00 AM 14.99 58.982 0.035 6.37 3.58 9.47
9/7/2021 3:45:00 AM 14.94 58.892 0.035 6.39 3.58 9.48
9/7/2021 4:00:00 AM 14.89 58.802 0.035 6.38 3.46 9.49
9/7/2021 4:15:00 AM 14.84 58.712 0.035 6.38 3.7 9.5
9/7/2021 4:30:00 AM 14.79 58.622 0.035 6.38 3.65 9.51
9/7/2021 4:45:00 AM 14.74 58.532 0.035 6.38 3.57 9.52
9/7/2021 5:00:00 AM 14.7 58.46 0.035 6.38 3.44 9.54
9/7/2021 5:15:00 AM 14.65 58.37 0.035 6.38 3.55 9.55
9/7/2021 5:30:00 AM 14.6 58.28 0.035 6.4 3.44 9.56
9/7/2021 5:45:00 AM 14.56 58.208 0.035 6.37 3.52 9.57
9/7/2021 6:00:00 AM 14.51 58.118 0.035 6.38 3.58 9.57
9/7/2021 6:15:00 AM 14.47 58.046 0.035 6.37 3.5 9.59
9/7/2021 6:30:00 AM 14.42 57.956 0.035 6.38 3.56 9.6
9/7/2021 6:45:00 AM 14.38 57.884 0.035 6.38 3.37 9.61
9/7/2021 7:00:00 AM 14.34 57.812 0.035 6.4 3.62 9.63
9/7/2021 7:15:00 AM 14.31 57.758 0.035 6.4 3.41 9.65
9/7/2021 7:30:00 AM 14.28 57.704 0.035 6.39 3.58 9.68
9/7/2021 7:45:00 AM 14.25 57.65 0.035 6.41 3.52 9.69
9/7/2021 8:00:00 AM 14.24 57.632 0.035 6.4 3.24 9.71
9/7/2021 8:15:00 AM 14.23 57.614 0.035 6.42 3.48 9.75
9/7/2021 8:30:00 AM 14.23 57.614 0.035 6.43 3.43 9.77
9/7/2021 8:45:00 AM 14.25 57.65 0.035 6.45 3.56 9.79
9/7/2021 9:00:00 AM 14.28 57.704 0.035 6.46 3.3 9.8
9/7/2021 9:15:00 AM 14.31 57.758 0.035 6.47 3.3 9.81
9/7/2021 9:30:00 AM 14.36 57.848 0.035 6.48 3.4 9.81
9/7/2021 9:45:00 AM 14.42 57.956 0.035 6.48 3.35 9.81
9/7/2021 10:00:00 AM 14.51 58.118 0.035 6.5 3.14 9.82
9/7/2021 10:15:00 AM 14.6 58.28 0.035 6.51 3.29 9.82
9/7/2021 10:30:00 AM 14.71 58.478 0.035 6.51 3.22 9.82
9/7/2021 10:45:00 AM 14.85 58.73 0.035 6.53 3.31 9.81
9/7/2021 11:00:00 AM 15 59 0.035 6.55 3.36 9.8
9/7/2021 11:15:00 AM 15.2 59.36 0.035 6.55 3.22 9.79
9/7/2021 11:30:00 AM 15.4 59.72 0.035 6.56 3.14 9.77
9/7/2021 11:45:00 AM 15.6 60.08 0.035 6.6 3.17 9.74
9/7/2021 12:00:00 PM 15.8 60.44 0.035 6.58 3.2 9.71
9/7/2021 12:15:00 PM 16 60.8 0.035 6.57 3.25 9.69
9/7/2021 12:30:00 PM 16.17 61.106 0.035 6.59 3.16 9.66
9/7/2021 12:45:00 PM 16.33 61.394 0.035 6.6 3.19 9.64
9/7/2021 1:00:00 PM 16.5 61.7 0.035 6.59 3.15 9.61
9/7/2021 1:15:00 PM 16.61 61.898 0.035 6.59 3.2 9.58
9/7/2021 1:30:00 PM 16.71 62.078 0.035 6.57 3.03 9.56
9/7/2021 1:45:00 PM 16.83 62.294 0.035 6.6 2.87 9.54
9/7/2021 2:00:00 PM 16.95 62.51 0.035 6.58 3.03 9.51
9/7/2021 2:15:00 PM 17.04 62.672 0.035 6.58 3.1 9.49
9/7/2021 2:30:00 PM 17.12 62.816 0.035 6.57 3.14 9.46
9/7/2021 2:45:00 PM 17.18 62.924 0.035 6.56 3.29 9.44
9/7/2021 3:00:00 PM 17.23 63.014 0.035 6.55 3.14 9.41
9/7/2021 3:15:00 PM 17.28 63.104 0.035 6.54 3.21 9.4
9/7/2021 3:30:00 PM 17.3 63.14 0.035 6.54 3.13 9.37
9/7/2021 3:45:00 PM 17.32 63.176 0.035 6.55 3.21 9.34
9/7/2021 4:00:00 PM 17.32 63.176 0.035 6.52 3.07 9.32
9/7/2021 4:15:00 PM 17.31 63.158 0.035 6.51 3.15 9.3
9/7/2021 4:30:00 PM 17.3 63.14 0.035 6.51 3.12 9.28
9/7/2021 4:45:00 PM 17.28 63.104 0.035 6.49 3.01 9.25
9/7/2021 5:00:00 PM 17.25 63.05 0.035 6.48 3.21 9.23
9/7/2021 5:15:00 PM 17.22 62.996 0.035 6.48 3.1 9.23
9/7/2021 5:30:00 PM 17.19 62.942 0.035 6.48 3.07 9.2
9/7/2021 5:45:00 PM 17.17 62.906 0.035 6.47 3.12 9.17
9/7/2021 6:00:00 PM 17.16 62.888 0.035 6.46 3.08 9.17
9/7/2021 6:15:00 PM 17.15 62.87 0.035 6.45 2.99 9.15
9/7/2021 6:30:00 PM 17.14 62.852 0.035 6.44 3.04 9.13
9/7/2021 6:45:00 PM 17.12 62.816 0.035 6.44 3.16 9.11
9/7/2021 7:00:00 PM 17.09 62.762 0.035 6.43 3.03 9.1
9/7/2021 7:15:00 PM 17.07 62.726 0.035 6.44 2.99 9.07
9/7/2021 7:30:00 PM 17.04 62.672 0.035 6.42 3.1 9.06
9/7/2021 7:45:00 PM 17.01 62.618 0.036 6.42 3.17 9.05
9/7/2021 8:00:00 PM 16.97 62.546 0.035 6.41 2.95 9.06
9/7/2021 8:15:00 PM 16.92 62.456 0.036 6.39 3.1 9.05
9/7/2021 8:30:00 PM 16.87 62.366 0.036 6.39 3.12 9.06
9/7/2021 8:45:00 PM 16.81 62.258 0.036 6.4 3.31 9.07
9/7/2021 9:00:00 PM 16.74 62.132 0.036 6.41 3.15 9.08
9/7/2021 9:15:00 PM 16.68 62.024 0.036 6.38 3.31 9.09
9/7/2021 9:30:00 PM 16.61 61.898 0.036 6.38 3.1 9.1
9/7/2021 9:45:00 PM 16.55 61.79 0.036 6.4 3.4 9.12
9/7/2021 10:00:00 PM 16.49 61.682 0.036 6.38 3.19 9.13
9/7/2021 10:15:00 PM 16.43 61.574 0.036 6.38 3.21 9.14
9/7/2021 10:30:00 PM 16.36 61.448 0.036 6.39 3.05 9.15
9/7/2021 10:45:00 PM 16.31 61.358 0.036 6.41 3.28 9.16
9/7/2021 11:00:00 PM 16.25 61.25 0.036 6.39 3.13 9.17
9/7/2021 11:15:00 PM 16.19 61.142 0.036 6.39 3.03 9.18
9/7/2021 11:30:00 PM 16.14 61.052 0.036 6.39 3.04 9.19
9/7/2021 11:45:00 PM 16.08 60.944 0.036 6.39 3.13 9.21
9/8/2021 12:00:00 AM 16.02 60.836 0.036 6.38 3.08 9.22
9/8/2021 12:15:00 AM 15.96 60.728 0.036 6.41 3.07 9.22
9/8/2021 12:30:00 AM 15.9 60.62 0.036 6.39 3.04 9.24
9/8/2021 12:45:00 AM 15.85 60.53 0.036 6.39 3.09 9.24
9/8/2021 1:00:00 AM 15.79 60.422 0.036 6.39 3.07 9.25
9/8/2021 1:15:00 AM 15.74 60.332 0.036 6.4 3.1 9.27
9/8/2021 1:30:00 AM 15.69 60.242 0.036 6.4 3.05 9.28
9/8/2021 1:45:00 AM 15.64 60.152 0.036 6.4 3.1 9.28
9/8/2021 2:00:00 AM 15.59 60.062 0.036 6.43 3.1 9.3
9/8/2021 2:15:00 AM 15.55 59.99 0.037 6.41 3.05 9.3
9/8/2021 2:30:00 AM 15.5 59.9 0.037 6.41 2.96 9.32
9/8/2021 2:45:00 AM 15.46 59.828 0.037 6.41 3.03 9.32
9/8/2021 3:00:00 AM 15.41 59.738 0.037 6.41 2.97 9.33
9/8/2021 3:15:00 AM 15.37 59.666 0.037 6.41 2.95 9.34
9/8/2021 3:30:00 AM 15.34 59.612 0.037 6.42 2.92 9.35
9/8/2021 3:45:00 AM 15.3 59.54 0.037 6.42 2.86 9.35
9/8/2021 4:00:00 AM 15.26 59.468 0.037 6.41 2.98 9.35
9/8/2021 4:15:00 AM 15.22 59.396 0.037 6.42 2.93 9.36
9/8/2021 4:30:00 AM 15.19 59.342 0.037 6.41 3.05 9.37
9/8/2021 4:45:00 AM 15.15 59.27 0.037 6.41 3.1 9.38
9/8/2021 5:00:00 AM 15.12 59.216 0.037 6.41 3.15 9.38
9/8/2021 5:15:00 AM 15.08 59.144 0.037 6.44 3.01 9.39
9/8/2021 5:30:00 AM 15.06 59.108 0.037 6.43 2.8 9.4
9/8/2021 5:45:00 AM 15.03 59.054 0.037 6.41 2.89 9.4
9/8/2021 6:00:00 AM 15 59 0.037 6.42 2.97 9.41
9/8/2021 6:15:00 AM 14.97 58.946 0.037 6.41 2.99 9.41
9/8/2021 6:30:00 AM 14.94 58.892 0.037 6.44 3.13 9.42
9/8/2021 6:45:00 AM 14.92 58.856 0.037 6.42 2.99 9.43
9/8/2021 7:00:00 AM 14.89 58.802 0.037 6.42 2.82 9.45
9/8/2021 7:15:00 AM 14.87 58.766 0.037 6.43 2.97 9.48
9/8/2021 7:30:00 AM 14.87 58.766 0.037 6.44 2.76 9.51
9/8/2021 7:45:00 AM 14.87 58.766 0.037 6.47 2.85 9.55
9/8/2021 8:00:00 AM 14.88 58.784 0.036 6.47 2.99 9.59
9/8/2021 8:15:00 AM 14.9 58.82 0.037 6.49 2.95 9.59
9/8/2021 8:30:00 AM 14.92 58.856 0.036 6.5 2.91 9.62
9/8/2021 8:45:00 AM 14.97 58.946 0.036 6.51 2.86 9.67
9/8/2021 9:00:00 AM 15.02 59.036 0.036 6.53 2.81 9.7
9/8/2021 9:15:00 AM 15.07 59.126 0.036 6.54 2.98 9.7
9/8/2021 9:30:00 AM 15.15 59.27 0.036 6.55 2.79 9.69
9/8/2021 9:45:00 AM 15.22 59.396 0.036 6.56 2.81 9.7
9/8/2021 10:00:00 AM 15.3 59.54 0.036 6.58 2.88 9.69
9/8/2021 10:15:00 AM 15.41 59.738 0.036 6.58 2.75 9.68
9/8/2021 10:30:00 AM 15.51 59.918 0.036 6.57 2.77 9.67
9/8/2021 10:45:00 AM 15.62 60.116 0.036 6.6 2.81 9.66
9/8/2021 11:00:00 AM 15.76 60.368 0.036 6.64 2.72 9.66
9/8/2021 11:15:00 AM 15.94 60.692 0.036 6.62 2.89 9.64
9/8/2021 11:30:00 AM 16.15 61.07 0.036 6.63 2.81 9.61
9/8/2021 11:45:00 AM 16.37 61.466 0.036 6.66 2.7 9.59
9/8/2021 12:00:00 PM 16.55 61.79 0.036 6.64 2.64 9.56
9/8/2021 12:15:00 PM 16.75 62.15 0.036 6.65 2.66 9.53
9/8/2021 12:30:00 PM 16.84 62.312 0.036 6.63 2.65 9.5
9/8/2021 12:45:00 PM 17.03 62.654 0.036 6.65 2.81 9.48
9/8/2021 1:00:00 PM 17.09 62.762 0.036 6.63 2.77 9.45
9/8/2021 1:15:00 PM 17.29 63.122 0.036 6.64 2.6 9.46
9/8/2021 1:30:00 PM 17.41 63.338 0.036 6.66 2.64 9.43
9/8/2021 1:45:00 PM 17.52 63.536 0.036 6.64 2.58 9.43
9/8/2021 2:00:00 PM 17.68 63.824 0.036 6.66 2.7 9.41
9/8/2021 2:15:00 PM 17.74 63.932 0.036 6.64 2.69 9.37
9/8/2021 2:30:00 PM 17.85 64.13 0.036 6.66 2.73 9.32
9/8/2021 2:45:00 PM 17.91 64.238 0.036 6.63 2.77 9.29
9/8/2021 3:00:00 PM 18.03 64.454 0.036 6.64 2.74 9.3
9/8/2021 3:15:00 PM 18.06 64.508 0.036 6.63 2.67 9.26
9/8/2021 3:30:00 PM 18.09 64.562 0.036 6.62 2.62 9.25
9/8/2021 3:45:00 PM 18.06 64.508 0.036 6.58 2.74 9.19
9/8/2021 4:00:00 PM 18.06 64.508 0.036 6.6 2.77 9.17
9/8/2021 4:15:00 PM 18.03 64.454 0.036 6.55 2.7 9.13
9/8/2021 4:30:00 PM 17.98 64.364 0.036 6.53 2.65 9.09
9/8/2021 4:45:00 PM 17.93 64.274 0.037 6.51 2.67 9.04
9/8/2021 5:00:00 PM 17.91 64.238 0.037 6.51 2.68 9.02
9/8/2021 5:15:00 PM 17.9 64.22 0.036 6.49 2.7 9.02
9/8/2021 5:30:00 PM 17.87 64.166 0.037 6.5 2.5 8.96
9/8/2021 5:45:00 PM 17.84 64.112 0.037 6.49 2.52 8.92
9/8/2021 6:00:00 PM 17.82 64.076 0.037 6.46 2.79 8.89
9/8/2021 6:15:00 PM 17.81 64.058 0.037 6.47 2.72 8.86
9/8/2021 6:30:00 PM 17.8 64.04 0.037 6.47 2.81 8.85
9/8/2021 6:45:00 PM 17.79 64.022 0.036 6.46 2.93 8.86
9/8/2021 7:00:00 PM 17.78 64.004 0.037 6.47 2.99 8.85
9/8/2021 7:15:00 PM 17.75 63.95 0.036 6.46 3.49 8.87
9/8/2021 7:30:00 PM 17.72 63.896 0.036 6.46 3.41 8.86
9/8/2021 7:45:00 PM 17.69 63.842 0.037 6.47 3.6 8.87
9/8/2021 8:00:00 PM 17.66 63.788 0.037 6.45 3.83 8.87
9/8/2021 8:15:00 PM 17.63 63.734 0.038 6.51 4.62 8.89
9/8/2021 8:30:00 PM 17.59 63.662 0.041 6.53 7.75 8.9
9/8/2021 8:45:00 PM 17.55 63.59 0.042 6.56 11.81 8.91
9/8/2021 9:00:00 PM 17.5 63.5 0.042 6.54 18.4 8.91
9/8/2021 9:15:00 PM 17.44 63.392 0.042 6.54 18.34 8.92
9/8/2021 9:30:00 PM 17.37 63.266 0.042 6.52 18.11 8.94
9/8/2021 9:45:00 PM 17.3 63.14 0.042 6.51 17 8.95
9/8/2021 10:00:00 PM 17.24 63.032 0.042 6.53 17.62 8.97
9/8/2021 10:15:00 PM 17.18 62.924 0.042 6.51 17.23 8.98
9/8/2021 10:30:00 PM 17.14 62.852 0.042 6.52 16.56 8.99
9/8/2021 10:45:00 PM 17.09 62.762 0.042 6.53 15.65 9
9/8/2021 11:00:00 PM 17.05 62.69 0.042 6.53 13.92 9
9/8/2021 11:15:00 PM 17.01 62.618 0.042 6.54 12.93 9.02
9/8/2021 11:30:00 PM 16.97 62.546 0.042 6.52 11.8 9.03
9/8/2021 11:45:00 PM 16.93 62.474 0.042 6.53 11.11 9.04
9/9/2021 12:00:00 AM 16.89 62.402 0.042 6.55 10.03 9.05
9/9/2021 12:15:00 AM 16.86 62.348 0.042 6.54 8.75 9.06
9/9/2021 12:30:00 AM 16.83 62.294 0.041 6.54 7.68 9.07
9/9/2021 12:45:00 AM 16.79 62.222 0.041 6.53 7.21 9.08
9/9/2021 1:00:00 AM 16.76 62.168 0.041 6.52 6.57 9.09
9/9/2021 1:15:00 AM 16.72 62.096 0.041 6.52 6.16 9.1
9/9/2021 1:30:00 AM 16.69 62.042 0.04 6.51 5.68 9.1
9/9/2021 1:45:00 AM 16.67 62.006 0.04 6.52 5.18 9.11
9/9/2021 2:00:00 AM 16.64 61.952 0.04 6.53 5.29 9.12
9/9/2021 2:15:00 AM 16.61 61.898 0.04 6.51 4.83 9.12
9/9/2021 2:30:00 AM 16.58 61.844 0.04 6.53 4.59 9.13
9/9/2021 2:45:00 AM 16.55 61.79 0.04 6.52 4.57 9.13
9/9/2021 3:00:00 AM 16.51 61.718 0.039 6.51 4.64 9.14
9/9/2021 3:15:00 AM 16.47 61.646 0.039 6.52 4.34 9.15
9/9/2021 3:30:00 AM 16.44 61.592 0.039 6.52 4.25 9.16
9/9/2021 3:45:00 AM 16.4 61.52 0.039 6.53 4.31 9.17
9/9/2021 4:00:00 AM 16.38 61.484 0.039 6.52 4.25 9.17
9/9/2021 4:15:00 AM 16.35 61.43 0.039 6.52 4.21 9.18
9/9/2021 4:30:00 AM 16.33 61.394 0.039 6.54 4.06 9.18
9/9/2021 4:45:00 AM 16.3 61.34 0.039 6.53 3.9 9.19
9/9/2021 5:00:00 AM 16.28 61.304 0.039 6.54 3.89 9.19
9/9/2021 5:15:00 AM 16.26 61.268 0.039 6.53 3.84 9.19
9/9/2021 5:30:00 AM 16.24 61.232 0.039 6.52 3.9 9.19
9/9/2021 5:45:00 AM 16.22 61.196 0.039 6.55 3.62 9.2
9/9/2021 6:00:00 AM 16.2 61.16 0.039 6.54 3.74 9.2
9/9/2021 6:15:00 AM 16.18 61.124 0.039 6.54 3.6 9.2
9/9/2021 6:30:00 AM 16.16 61.088 0.039 6.53 3.77 9.2
9/9/2021 6:45:00 AM 16.14 61.052 0.039 6.53 3.5 9.21
9/9/2021 7:00:00 AM 16.12 61.016 0.039 6.53 3.55 9.22
9/9/2021 7:15:00 AM 16.1 60.98 0.039 6.53 3.52 9.22
9/9/2021 7:30:00 AM 16.08 60.944 0.039 6.53 3.59 9.23
9/9/2021 7:45:00 AM 16.07 60.926 0.039 6.55 3.57 9.25
9/9/2021 8:00:00 AM 16.06 60.908 0.039 6.55 3.34 9.28
9/9/2021 8:15:00 AM 16.06 60.908 0.039 6.55 3.42 9.32
9/9/2021 8:30:00 AM 16.07 60.926 0.039 6.57 3.4 9.37
9/9/2021 8:45:00 AM 16.08 60.944 0.039 6.57 3.24 9.41
9/9/2021 9:00:00 AM 16.08 60.944 0.039 6.58 3.33 9.41
9/9/2021 9:15:00 AM 16.09 60.962 0.039 6.58 3.37 9.43
9/9/2021 9:30:00 AM 16.11 60.998 0.039 6.59 3.27 9.45
9/9/2021 9:45:00 AM 16.13 61.034 0.039 6.62 3.18 9.46
9/9/2021 10:00:00 AM 16.15 61.07 0.039 6.62 3.25 9.47
9/9/2021 10:15:00 AM 16.18 61.124 0.038 6.62 3.18 9.5
9/9/2021 10:30:00 AM 16.21 61.178 0.038 6.63 3.15 9.51
9/9/2021 10:45:00 AM 16.25 61.25 0.038 6.64 3.03 9.53
9/9/2021 11:00:00 AM 16.31 61.358 0.038 6.68 3.18 9.56
9/9/2021 11:15:00 AM 16.39 61.502 0.038 6.67 2.86 9.58
9/9/2021 11:30:00 AM 16.44 61.592 0.038 6.67 2.98 9.56
9/9/2021 11:45:00 AM 16.45 61.61 0.038 6.65 2.92 9.53
9/9/2021 12:00:00 PM 16.47 61.646 0.038 6.66 2.94 9.51
9/9/2021 12:15:00 PM 16.5 61.7 0.038 6.66 2.86 9.5
9/9/2021 12:30:00 PM 16.54 61.772 0.038 6.64 3 9.5
9/9/2021 12:45:00 PM 16.6 61.88 0.038 6.69 3.04 9.52
9/9/2021 1:00:00 PM 16.67 62.006 0.038 6.68 2.87 9.53
9/9/2021 1:15:00 PM 16.75 62.15 0.038 6.7 2.85 9.55
9/9/2021 1:30:00 PM 16.81 62.258 0.038 6.67 2.99 9.52
9/9/2021 1:45:00 PM 16.85 62.33 0.038 6.69 3.06 9.52
9/9/2021 2:00:00 PM 16.95 62.51 0.038 6.72 2.71 9.52
9/9/2021 2:15:00 PM 17.03 62.654 0.038 6.71 2.75 9.5
9/9/2021 2:30:00 PM 17.08 62.744 0.038 6.69 2.87 9.45
9/9/2021 2:45:00 PM 17.1 62.78 0.038 6.68 2.95 9.42
9/9/2021 3:00:00 PM 17.1 62.78 0.038 6.68 2.78 9.39
9/9/2021 3:15:00 PM 17.1 62.78 0.038 6.65 2.64 9.37
9/9/2021 3:30:00 PM 17.13 62.834 0.038 6.66 2.8 9.39
9/9/2021 3:45:00 PM 17.17 62.906 0.038 6.66 2.85 9.39
9/9/2021 4:00:00 PM 17.24 63.032 0.038 6.68 2.75 9.41
9/9/2021 4:15:00 PM 17.26 63.068 0.038 6.68 2.73 9.39
9/9/2021 4:30:00 PM 17.29 63.122 0.038 6.68 2.89 9.36
9/9/2021 4:45:00 PM 17.32 63.176 0.038 6.67 2.74 9.33
9/9/2021 5:00:00 PM 17.33 63.194 0.038 6.65 2.77 9.33
9/9/2021 5:15:00 PM 17.34 63.212 0.038 6.66 2.72 9.32
9/9/2021 5:30:00 PM 17.32 63.176 0.038 6.63 2.7 9.27
9/9/2021 5:45:00 PM 17.26 63.068 0.038 6.61 2.88 9.19
9/9/2021 6:00:00 PM 17.19 62.942 0.038 6.6 2.86 9.13
9/9/2021 6:15:00 PM 17.13 62.834 0.038 6.56 2.68 9.12
9/9/2021 6:30:00 PM 17.07 62.726 0.038 6.54 2.79 9.1
9/9/2021 6:45:00 PM 17.01 62.618 0.038 6.55 2.76 9.12
9/9/2021 7:00:00 PM 16.95 62.51 0.038 6.53 2.81 9.11
9/9/2021 7:15:00 PM 16.9 62.42 0.038 6.53 2.88 9.09
9/9/2021 7:30:00 PM 16.85 62.33 0.039 6.55 2.82 9.09
9/9/2021 7:45:00 PM 16.82 62.276 0.041 6.57 3.12 9.08
9/9/2021 8:00:00 PM 16.79 62.222 0.047 6.67 5.42 9.09
9/9/2021 8:15:00 PM 16.75 62.15 0.048 6.67 7.03 9.09
9/9/2021 8:30:00 PM 16.71 62.078 0.048 6.69 9.98 9.1
9/9/2021 8:45:00 PM 16.66 61.988 0.048 6.67 14.43 9.1
9/9/2021 9:00:00 PM 16.62 61.916 0.047 6.66 13.3 9.11
9/9/2021 9:15:00 PM 16.57 61.826 0.046 6.65 10.09 9.12
9/9/2021 9:30:00 PM 16.54 61.772 0.046 6.66 9 9.13
9/9/2021 9:45:00 PM 16.51 61.718 0.047 6.68 8.46 9.14
9/9/2021 10:00:00 PM 16.49 61.682 0.048 6.7 7.52 9.14
9/9/2021 10:15:00 PM 16.46 61.628 0.048 6.68 6.97 9.15
9/9/2021 10:30:00 PM 16.43 61.574 0.048 6.69 6.97 9.16
9/9/2021 10:45:00 PM 16.4 61.52 0.049 6.7 6.53 9.17
9/9/2021 11:00:00 PM 16.37 61.466 0.051 6.72 7.79 9.18
9/9/2021 11:15:00 PM 16.33 61.394 0.052 6.75 8.28 9.19
9/9/2021 11:30:00 PM 16.29 61.322 0.052 6.75 8.7 9.21
9/9/2021 11:45:00 PM 16.24 61.232 0.051 6.74 9.09 9.21
9/10/2021 12:00:00 AM 16.21 61.178 0.051 6.75 10.13 9.22
9/10/2021 12:15:00 AM 16.18 61.124 0.051 6.73 8.6 9.22
9/10/2021 12:30:00 AM 16.14 61.052 0.051 6.74 8.01 9.23
9/10/2021 12:45:00 AM 16.1 60.98 0.05 6.75 7.38 9.25
9/10/2021 1:00:00 AM 16.06 60.908 0.05 6.73 6.43 9.25
9/10/2021 1:15:00 AM 16.01 60.818 0.05 6.72 6.21 9.27
9/10/2021 1:30:00 AM 15.96 60.728 0.05 6.73 6.02 9.27
9/10/2021 1:45:00 AM 15.92 60.656 0.049 6.71 6.04 9.27
9/10/2021 2:00:00 AM 15.88 60.584 0.049 6.7 5.92 9.28
9/10/2021 2:15:00 AM 15.83 60.494 0.048 6.7 6.2 9.29
9/10/2021 2:30:00 AM 15.79 60.422 0.048 6.69 5.59 9.29
9/10/2021 2:45:00 AM 15.74 60.332 0.048 6.69 5.28 9.3
9/10/2021 3:00:00 AM 15.71 60.278 0.047 6.68 4.85 9.32
9/10/2021 3:15:00 AM 15.68 60.224 0.047 6.68 4.88 9.32
9/10/2021 3:30:00 AM 15.65 60.17 0.047 6.68 4.44 9.33
9/10/2021 3:45:00 AM 15.62 60.116 0.047 6.69 4.49 9.34
9/10/2021 4:00:00 AM 15.59 60.062 0.046 6.68 4.18 9.34
9/10/2021 4:15:00 AM 15.57 60.026 0.046 6.69 4.09 9.34
9/10/2021 4:30:00 AM 15.54 59.972 0.046 6.68 4.13 9.35
9/10/2021 4:45:00 AM 15.51 59.918 0.046 6.67 4.03 9.35
9/10/2021 5:00:00 AM 15.48 59.864 0.046 6.67 3.91 9.36
9/10/2021 5:15:00 AM 15.45 59.81 0.046 6.69 3.75 9.37
9/10/2021 5:30:00 AM 15.42 59.756 0.046 6.68 3.75 9.37
9/10/2021 5:45:00 AM 15.39 59.702 0.046 6.67 3.74 9.37
9/10/2021 6:00:00 AM 15.37 59.666 0.046 6.68 3.67 9.38
9/10/2021 6:15:00 AM 15.34 59.612 0.046 6.7 3.77 9.39
9/10/2021 6:30:00 AM 15.31 59.558 0.046 6.69 3.63 9.4
9/10/2021 6:45:00 AM 15.28 59.504 0.046 6.69 3.78 9.41
9/10/2021 7:00:00 AM 15.26 59.468 0.046 6.69 3.5 9.42
9/10/2021 7:15:00 AM 15.24 59.432 0.045 6.7 3.18 9.44
9/10/2021 7:30:00 AM 15.23 59.414 0.045 6.7 3.54 9.46
9/10/2021 7:45:00 AM 15.23 59.414 0.045 6.71 3.22 9.5
9/10/2021 8:00:00 AM 15.23 59.414 0.045 6.73 3.48 9.54
9/10/2021 8:15:00 AM 15.22 59.396 0.045 6.72 3.43 9.55
9/10/2021 8:30:00 AM 15.22 59.396 0.045 6.74 3.26 9.59
9/10/2021 8:45:00 AM 15.23 59.414 0.045 6.73 3.28 9.61
9/10/2021 9:00:00 AM 15.23 59.414 0.045 6.74 3.36 9.62
9/10/2021 9:15:00 AM 15.26 59.468 0.045 6.75 3.2 9.64
9/10/2021 9:30:00 AM 15.29 59.522 0.045 6.75 3.24 9.66
9/10/2021 9:45:00 AM 15.33 59.594 0.045 6.77 3.14 9.68
9/10/2021 10:00:00 AM 15.38 59.684 0.044 6.78 3.05 9.69
9/10/2021 10:15:00 AM 15.46 59.828 0.044 6.79 3.14 9.73
9/10/2021 10:30:00 AM 15.54 59.972 0.044 6.8 3.07 9.73
9/10/2021 10:45:00 AM 15.62 60.116 0.044 6.81 3.01 9.75
9/10/2021 11:00:00 AM 15.71 60.278 0.044 6.83 3.01 9.74
9/10/2021 11:15:00 AM 15.81 60.458 0.044 6.83 3.05 9.73
9/10/2021 11:30:00 AM 15.92 60.656 0.044 6.84 2.96 9.7
9/10/2021 11:45:00 AM 16.07 60.926 0.044 6.85 2.9 9.72
9/10/2021 12:00:00 PM 16.17 61.106 0.044 6.85 2.9 9.72
9/10/2021 12:15:00 PM 16.25 61.25 0.043 6.83 3 9.7
9/10/2021 12:30:00 PM 16.35 61.43 0.043 6.85 2.89 9.71
9/10/2021 12:45:00 PM 16.45 61.61 0.043 6.85 2.82 9.7
9/10/2021 1:00:00 PM 16.55 61.79 0.043 6.84 2.89 9.67
9/10/2021 1:15:00 PM 16.72 62.096 0.043 6.87 2.87 9.7
9/10/2021 1:30:00 PM 16.8 62.24 0.043 6.86 2.72 9.67
9/10/2021 1:45:00 PM 16.87 62.366 0.043 6.85 2.81 9.66
9/10/2021 2:00:00 PM 16.85 62.33 0.043 6.84 2.8 9.63
9/10/2021 2:15:00 PM 16.94 62.492 0.043 6.83 2.77 9.63
9/10/2021 2:30:00 PM 16.9 62.42 0.043 6.8 2.7 9.57
9/10/2021 2:45:00 PM 16.96 62.528 0.043 6.81 2.73 9.61
9/10/2021 3:00:00 PM 16.98 62.564 0.043 6.82 2.78 9.57
9/10/2021 3:15:00 PM 16.89 62.402 0.043 6.77 2.61 9.5
9/10/2021 3:30:00 PM 16.88 62.384 0.043 6.76 2.64 9.48
9/10/2021 3:45:00 PM 16.99 62.582 0.042 6.78 2.71 9.5
9/10/2021 4:00:00 PM 17.04 62.672 0.042 6.78 2.7 9.47
9/10/2021 4:15:00 PM 17.06 62.708 0.042 6.78 2.59 9.44
9/10/2021 4:30:00 PM 17.07 62.726 0.042 6.78 2.59 9.43
9/10/2021 4:45:00 PM 17.05 62.69 0.042 6.76 2.58 9.42
9/10/2021 5:00:00 PM 16.99 62.582 0.042 6.72 2.56 9.4
9/10/2021 5:15:00 PM 16.92 62.456 0.042 6.73 2.6 9.39
9/10/2021 5:30:00 PM 16.87 62.366 0.042 6.69 2.61 9.34
9/10/2021 5:45:00 PM 16.84 62.312 0.042 6.68 2.49 9.32
9/10/2021 6:00:00 PM 16.83 62.294 0.042 6.67 2.74 9.32
9/10/2021 6:15:00 PM 16.78 62.204 0.042 6.67 2.6 9.27
9/10/2021 6:30:00 PM 16.72 62.096 0.042 6.64 2.6 9.24
9/10/2021 6:45:00 PM 16.67 62.006 0.042 6.63 2.6 9.22
9/10/2021 7:00:00 PM 16.63 61.934 0.042 6.64 2.5 9.21
9/10/2021 7:15:00 PM 16.58 61.844 0.042 6.63 2.59 9.19
9/10/2021 7:30:00 PM 16.52 61.736 0.042 6.61 2.57 9.18
9/10/2021 7:45:00 PM 16.46 61.628 0.042 6.6 2.59 9.17
9/10/2021 8:00:00 PM 16.4 61.52 0.042 6.61 2.57 9.17
9/10/2021 8:15:00 PM 16.33 61.394 0.042 6.58 2.5 9.18
9/10/2021 8:30:00 PM 16.27 61.286 0.042 6.6 2.57 9.18
9/10/2021 8:45:00 PM 16.21 61.178 0.042 6.58 2.58 9.19
9/10/2021 9:00:00 PM 16.14 61.052 0.042 6.57 2.59 9.2
9/10/2021 9:15:00 PM 16.07 60.926 0.042 6.57 2.71 9.22
9/10/2021 9:30:00 PM 15.99 60.782 0.042 6.57 2.62 9.24
9/10/2021 9:45:00 PM 15.92 60.656 0.042 6.57 2.62 9.25
9/10/2021 10:00:00 PM 15.85 60.53 0.042 6.57 2.6 9.26
9/10/2021 10:15:00 PM 15.79 60.422 0.042 6.56 2.63 9.28
9/10/2021 10:30:00 PM 15.72 60.296 0.042 6.56 2.63 9.3
9/10/2021 10:45:00 PM 15.65 60.17 0.042 6.57 2.54 9.3
9/10/2021 11:00:00 PM 15.58 60.044 0.042 6.57 2.66 9.32
9/10/2021 11:15:00 PM 15.52 59.936 0.042 6.56 2.89 9.33
9/10/2021 11:30:00 PM 15.46 59.828 0.042 6.56 2.6 9.35
9/10/2021 11:45:00 PM 15.39 59.702 0.042 6.58 2.66 9.37
9/11/2021 12:00:00 AM 15.32 59.576 0.042 6.56 2.74 9.38
9/11/2021 12:15:00 AM 15.26 59.468 0.042 6.57 2.71 9.4
9/11/2021 12:30:00 AM 15.19 59.342 0.042 6.56 2.81 9.41
9/11/2021 12:45:00 AM 15.12 59.216 0.042 6.56 2.67 9.42
9/11/2021 1:00:00 AM 15.05 59.09 0.042 6.56 2.95 9.44
9/11/2021 1:15:00 AM 14.98 58.964 0.042 6.58 2.68 9.46
9/11/2021 1:30:00 AM 14.92 58.856 0.042 6.56 2.92 9.48
9/11/2021 1:45:00 AM 14.85 58.73 0.042 6.56 2.7 9.48
9/11/2021 2:00:00 AM 14.78 58.604 0.042 6.56 2.75 9.5
9/11/2021 2:15:00 AM 14.71 58.478 0.042 6.56 2.74 9.52
9/11/2021 2:30:00 AM 14.65 58.37 0.042 6.56 2.61 9.53
9/11/2021 2:45:00 AM 14.59 58.262 0.042 6.56 2.63 9.55
9/11/2021 3:00:00 AM 14.52 58.136 0.042 6.56 2.61 9.56
9/11/2021 3:15:00 AM 14.46 58.028 0.042 6.57 2.68 9.58
9/11/2021 3:30:00 AM 14.4 57.92 0.042 6.56 2.63 9.59
9/11/2021 3:45:00 AM 14.34 57.812 0.042 6.57 2.63 9.6
9/11/2021 4:00:00 AM 14.28 57.704 0.042 6.56 2.61 9.62
9/11/2021 4:15:00 AM 14.22 57.596 0.042 6.56 2.57 9.64
9/11/2021 4:30:00 AM 14.16 57.488 0.042 6.57 2.75 9.64
9/11/2021 4:45:00 AM 14.11 57.398 0.042 6.56 2.65 9.66
9/11/2021 5:00:00 AM 14.06 57.308 0.042 6.56 2.6 9.67
9/11/2021 5:15:00 AM 14 57.2 0.042 6.58 2.66 9.68
9/11/2021 5:30:00 AM 13.94 57.092 0.042 6.57 2.7 9.69
9/11/2021 5:45:00 AM 13.89 57.002 0.042 6.57 2.6 9.7
9/11/2021 6:00:00 AM 13.84 56.912 0.042 6.56 2.61 9.72
9/11/2021 6:15:00 AM 13.79 56.822 0.042 6.57 2.57 9.73
9/11/2021 6:30:00 AM 13.74 56.732 0.042 6.56 2.53 9.74
9/11/2021 6:45:00 AM 13.7 56.66 0.042 6.57 2.57 9.77
9/11/2021 7:00:00 AM 13.66 56.588 0.042 6.58 2.57 9.79
9/11/2021 7:15:00 AM 13.62 56.516 0.042 6.58 2.53 9.83
9/11/2021 7:30:00 AM 13.6 56.48 0.042 6.59 2.63 9.89
9/11/2021 7:45:00 AM 13.59 56.462 0.042 6.61 2.46 9.94
9/11/2021 8:00:00 AM 13.57 56.426 0.042 6.62 2.49 9.97
9/11/2021 8:15:00 AM 13.56 56.408 0.042 6.62 2.38 10.01
9/11/2021 8:30:00 AM 13.57 56.426 0.042 6.64 2.41 10.05
9/11/2021 8:45:00 AM 13.59 56.462 0.042 6.66 2.46 10.08
9/11/2021 9:00:00 AM 13.64 56.552 0.042 6.68 2.37 10.11
9/11/2021 9:15:00 AM 13.69 56.642 0.042 6.71 2.45 10.15
9/11/2021 9:30:00 AM 13.75 56.75 0.042 6.71 2.42 10.16
9/11/2021 9:45:00 AM 13.83 56.894 0.042 6.74 2.38 10.17
9/11/2021 10:00:00 AM 13.9 57.02 0.042 6.74 2.35 10.18
9/11/2021 10:15:00 AM 14 57.2 0.042 6.76 2.39 10.19
9/11/2021 10:30:00 AM 14.13 57.434 0.042 6.78 2.29 10.21
9/11/2021 10:45:00 AM 14.24 57.632 0.042 6.81 2.42 10.22
9/11/2021 11:00:00 AM 14.38 57.884 0.041 6.81 2.4 10.21
9/11/2021 11:15:00 AM 14.52 58.136 0.042 6.82 2.35 10.19
9/11/2021 11:30:00 AM 14.72 58.496 0.041 6.83 2.33 10.18
9/11/2021 11:45:00 AM 14.96 58.928 0.041 6.84 2.4 10.14
9/11/2021 12:00:00 PM 15.18 59.324 0.041 6.84 2.38 10.11
9/11/2021 12:15:00 PM 15.41 59.738 0.041 6.85 2.35 10.08
9/11/2021 12:30:00 PM 15.58 60.044 0.041 6.84 2.26 10.05
9/11/2021 12:45:00 PM 15.77 60.386 0.041 6.86 2.26 10.02
9/11/2021 1:00:00 PM 15.9 60.62 0.041 6.86 2.24 9.96
9/11/2021 1:15:00 PM 16.06 60.908 0.041 6.85 2.24 9.94
9/11/2021 1:30:00 PM 16.19 61.142 0.041 6.85 2.21 9.9
9/11/2021 1:45:00 PM 16.39 61.502 0.041 6.87 2.29 9.89
9/11/2021 2:00:00 PM 16.53 61.754 0.041 6.87 2.22 9.86
9/11/2021 2:15:00 PM 16.63 61.934 0.041 6.86 2.24 9.84
9/11/2021 2:30:00 PM 16.78 62.204 0.041 6.87 2.3 9.85
9/11/2021 2:45:00 PM 16.82 62.276 0.041 6.84 2.2 9.82
9/11/2021 3:00:00 PM 16.9 62.42 0.041 6.83 2.23 9.8
9/11/2021 3:15:00 PM 16.92 62.456 0.041 6.82 2.19 9.76
9/11/2021 3:30:00 PM 16.9 62.42 0.041 6.8 2.26 9.74
9/11/2021 3:45:00 PM 16.88 62.384 0.041 6.79 2.29 9.71
9/11/2021 4:00:00 PM 16.85 62.33 0.041 6.77 2.15 9.68
9/11/2021 4:15:00 PM 16.79 62.222 0.041 6.75 2.34 9.63
9/11/2021 4:30:00 PM 16.79 62.222 0.042 6.74 2.25 9.63
9/11/2021 4:45:00 PM 16.75 62.15 0.042 6.73 2.21 9.61
9/11/2021 5:00:00 PM 16.71 62.078 0.042 6.72 2.21 9.59
9/11/2021 5:15:00 PM 16.63 61.934 0.042 6.71 2.1 9.55
9/11/2021 5:30:00 PM 16.58 61.844 0.042 6.68 2.23 9.52
9/11/2021 5:45:00 PM 16.52 61.736 0.042 6.68 2.2 9.49
9/11/2021 6:00:00 PM 16.46 61.628 0.042 6.66 2.2 9.46
9/11/2021 6:15:00 PM 16.42 61.556 0.042 6.65 2.26 9.44
9/11/2021 6:30:00 PM 16.38 61.484 0.042 6.64 2.19 9.41
9/11/2021 6:45:00 PM 16.35 61.43 0.042 6.63 2.24 9.36
9/11/2021 7:00:00 PM 16.33 61.394 0.042 6.65 2.21 9.33
9/11/2021 7:15:00 PM 16.31 61.358 0.042 6.62 2.23 9.28
9/11/2021 7:30:00 PM 16.29 61.322 0.042 6.6 2.25 9.25
9/11/2021 7:45:00 PM 16.26 61.268 0.042 6.6 2.17 9.22
9/11/2021 8:00:00 PM 16.24 61.232 0.042 6.61 2.16 9.2
9/11/2021 8:15:00 PM 16.22 61.196 0.042 6.6 2.19 9.19
9/11/2021 8:30:00 PM 16.19 61.142 0.043 6.59 2.15 9.18
9/11/2021 8:45:00 PM 16.16 61.088 0.043 6.58 2.26 9.19
9/11/2021 9:00:00 PM 16.12 61.016 0.043 6.58 2.26 9.19
9/11/2021 9:15:00 PM 16.08 60.944 0.043 6.58 2.25 9.2
9/11/2021 9:30:00 PM 16.04 60.872 0.043 6.59 2.24 9.2
9/11/2021 9:45:00 PM 15.99 60.782 0.043 6.58 2.23 9.22
9/11/2021 10:00:00 PM 15.93 60.674 0.043 6.57 2.24 9.23
9/11/2021 10:15:00 PM 15.88 60.584 0.043 6.57 2.24 9.24
9/11/2021 10:30:00 PM 15.82 60.476 0.043 6.56 2.23 9.25
9/11/2021 10:45:00 PM 15.77 60.386 0.043 6.57 2.3 9.25
9/11/2021 11:00:00 PM 15.72 60.296 0.043 6.56 2.25 9.27
9/11/2021 11:15:00 PM 15.67 60.206 0.043 6.58 2.26 9.27
9/11/2021 11:30:00 PM 15.61 60.098 0.043 6.58 2.27 9.29
9/11/2021 11:45:00 PM 15.56 60.008 0.043 6.57 2.39 9.3
9/12/2021 12:00:00 AM 15.51 59.918 0.043 6.57 2.23 9.32
9/12/2021 12:15:00 AM 15.46 59.828 0.043 6.55 2.3 9.33
9/12/2021 12:30:00 AM 15.4 59.72 0.043 6.59 2.28 9.33
9/12/2021 12:45:00 AM 15.35 59.63 0.043 6.58 2.32 9.35
9/12/2021 1:00:00 AM 15.3 59.54 0.043 6.56 2.2 9.36
9/12/2021 1:15:00 AM 15.25 59.45 0.044 6.57 2.23 9.37
9/12/2021 1:30:00 AM 15.19 59.342 0.043 6.57 2.26 9.38
9/12/2021 1:45:00 AM 15.14 59.252 0.043 6.57 2.21 9.4
9/12/2021 2:00:00 AM 15.09 59.162 0.044 6.57 2.27 9.4
9/12/2021 2:15:00 AM 15.04 59.072 0.044 6.56 2.19 9.42
9/12/2021 2:30:00 AM 15 59 0.044 6.59 2.23 9.43
9/12/2021 2:45:00 AM 14.95 58.91 0.044 6.58 2.32 9.44
9/12/2021 3:00:00 AM 14.91 58.838 0.044 6.58 2.24 9.45
9/12/2021 3:15:00 AM 14.87 58.766 0.044 6.56 2.25 9.45
9/12/2021 3:30:00 AM 14.83 58.694 0.044 6.59 2.33 9.46
9/12/2021 3:45:00 AM 14.79 58.622 0.044 6.57 2.16 9.47
9/12/2021 4:00:00 AM 14.76 58.568 0.044 6.57 2.15 9.47
9/12/2021 4:15:00 AM 14.73 58.514 0.044 6.59 2.3 9.48
9/12/2021 4:30:00 AM 14.7 58.46 0.044 6.58 2.21 9.49
9/12/2021 4:45:00 AM 14.67 58.406 0.044 6.58 2.3 9.5
9/12/2021 5:00:00 AM 14.63 58.334 0.044 6.59 2.29 9.51
9/12/2021 5:15:00 AM 14.6 58.28 0.044 6.58 2.15 9.5
9/12/2021 5:30:00 AM 14.57 58.226 0.044 6.59 2.22 9.52
9/12/2021 5:45:00 AM 14.54 58.172 0.044 6.58 2.28 9.53
9/12/2021 6:00:00 AM 14.51 58.118 0.044 6.57 2.25 9.53
9/12/2021 6:15:00 AM 14.49 58.082 0.044 6.6 2.25 9.53
9/12/2021 6:30:00 AM 14.46 58.028 0.044 6.59 2.19 9.54
9/12/2021 6:45:00 AM 14.44 57.992 0.044 6.57 2.17 9.55
9/12/2021 7:00:00 AM 14.42 57.956 0.044 6.59 2.11 9.56
9/12/2021 7:15:00 AM 14.42 57.956 0.044 6.61 2.22 9.59
9/12/2021 7:30:00 AM 14.41 57.938 0.044 6.6 2.21 9.61
9/12/2021 7:45:00 AM 14.41 57.938 0.044 6.61 2.19 9.63
9/12/2021 8:00:00 AM 14.42 57.956 0.044 6.62 2.13 9.67
9/12/2021 8:15:00 AM 14.44 57.992 0.044 6.62 2.15 9.71
9/12/2021 8:30:00 AM 14.46 58.028 0.044 6.64 2.1 9.74
9/12/2021 8:45:00 AM 14.49 58.082 0.043 6.66 2.2 9.8
9/12/2021 9:00:00 AM 14.52 58.136 0.043 6.69 2.21 9.85
9/12/2021 9:15:00 AM 14.57 58.226 0.043 6.7 2.14 9.95
9/12/2021 9:30:00 AM 14.63 58.334 0.043 6.74 2.17 10.03
9/12/2021 9:45:00 AM 14.69 58.442 0.043 6.77 2.16 10.06
9/12/2021 10:00:00 AM 14.78 58.604 0.043 6.79 2.16 10.08
9/12/2021 10:15:00 AM 14.87 58.766 0.043 6.8 2.07 10.11
9/12/2021 10:30:00 AM 14.96 58.928 0.043 6.82 2.02 10.12
9/12/2021 10:45:00 AM 15.1 59.18 0.043 6.83 2.09 10.14
9/12/2021 11:00:00 AM 15.23 59.414 0.043 6.86 2.12 10.12
9/12/2021 11:15:00 AM 15.4 59.72 0.043 6.88 2.03 10.13
9/12/2021 11:30:00 AM 15.53 59.954 0.043 6.88 2.08 10.1
9/12/2021 11:45:00 AM 15.61 60.098 0.043 6.86 2.17 10.05
9/12/2021 12:00:00 PM 15.73 60.314 0.043 6.88 2.08 10.03
9/12/2021 12:15:00 PM 15.93 60.674 0.043 6.91 2.06 10.06
9/12/2021 12:30:00 PM 16.17 61.106 0.043 6.94 2.05 10.04
9/12/2021 12:45:00 PM 16.42 61.556 0.043 6.95 2.04 10.02
9/12/2021 1:00:00 PM 16.62 61.916 0.043 6.93 2.13 9.99
9/12/2021 1:15:00 PM 16.78 62.204 0.043 6.93 2.06 9.98
9/12/2021 1:30:00 PM 16.92 62.456 0.043 6.94 1.96 9.95
9/12/2021 1:45:00 PM 16.97 62.546 0.043 6.91 2.08 9.89
9/12/2021 2:00:00 PM 16.97 62.546 0.043 6.87 2.01 9.81
9/12/2021 2:15:00 PM 17 62.6 0.043 6.86 2.01 9.76
9/12/2021 2:30:00 PM 17.02 62.636 0.043 6.84 2 9.71
9/12/2021 2:45:00 PM 17.07 62.726 0.043 6.86 2 9.75
9/12/2021 3:00:00 PM 17.1 62.78 0.043 6.86 1.98 9.71
9/12/2021 3:15:00 PM 17.15 62.87 0.043 6.84 1.95 9.7
9/12/2021 3:30:00 PM 17.22 62.996 0.042 6.87 1.98 9.74
9/12/2021 3:45:00 PM 17.26 63.068 0.043 6.86 1.94 9.72
9/12/2021 4:00:00 PM 17.28 63.104 0.043 6.84 2 9.68
9/12/2021 4:15:00 PM 17.35 63.23 0.043 6.86 2.01 9.71
9/12/2021 4:30:00 PM 17.39 63.302 0.043 6.85 2.02 9.67
9/12/2021 4:45:00 PM 17.42 63.356 0.043 6.86 1.95 9.61
9/12/2021 5:00:00 PM 17.45 63.41 0.043 6.83 1.95 9.55
9/12/2021 5:15:00 PM 17.48 63.464 0.043 6.82 1.99 9.51
9/12/2021 5:30:00 PM 17.5 63.5 0.043 6.79 1.92 9.47
9/12/2021 5:45:00 PM 17.49 63.482 0.043 6.79 2.01 9.43
9/12/2021 6:00:00 PM 17.44 63.392 0.043 6.74 2.06 9.36
9/12/2021 6:15:00 PM 17.41 63.338 0.043 6.71 2 9.3
9/12/2021 6:30:00 PM 17.38 63.284 0.043 6.7 1.94 9.25
9/12/2021 6:45:00 PM 17.35 63.23 0.043 6.67 1.99 9.19
9/12/2021 7:00:00 PM 17.32 63.176 0.043 6.66 2.04 9.13
9/12/2021 7:15:00 PM 17.28 63.104 0.043 6.64 1.93 9.07
9/12/2021 7:30:00 PM 17.23 63.014 0.043 6.6 2.02 9.03
9/12/2021 7:45:00 PM 17.18 62.924 0.044 6.6 1.98 9
9/12/2021 8:00:00 PM 17.13 62.834 0.044 6.58 1.96 8.98
9/12/2021 8:15:00 PM 17.08 62.744 0.044 6.56 2 8.97
9/12/2021 8:30:00 PM 17.04 62.672 0.044 6.55 1.94 8.97
9/12/2021 8:45:00 PM 17.01 62.618 0.044 6.56 1.99 8.97
9/12/2021 9:00:00 PM 16.98 62.564 0.044 6.54 1.92 8.97
9/12/2021 9:15:00 PM 16.96 62.528 0.044 6.55 1.96 8.98
9/12/2021 9:30:00 PM 16.94 62.492 0.044 6.55 1.99 8.99
9/12/2021 9:45:00 PM 16.92 62.456 0.044 6.55 1.99 8.99
9/12/2021 10:00:00 PM 16.9 62.42 0.044 6.57 1.95 8.99
9/12/2021 10:15:00 PM 16.87 62.366 0.044 6.55 1.97 8.99
9/12/2021 10:30:00 PM 16.85 62.33 0.044 6.54 1.96 8.99
9/12/2021 10:45:00 PM 16.83 62.294 0.044 6.54 1.96 9
9/12/2021 11:00:00 PM 16.81 62.258 0.044 6.54 1.89 9
9/12/2021 11:15:00 PM 16.79 62.222 0.044 6.55 1.97 9
9/12/2021 11:30:00 PM 16.76 62.168 0.044 6.54 1.91 9.01
9/12/2021 11:45:00 PM 16.73 62.114 0.045 6.53 1.98 9.01
9/13/2021 12:00:00 AM 16.7 62.06 0.045 6.54 2.1 9.02
9/13/2021 12:15:00 AM 16.67 62.006 0.045 6.53 1.97 9.01
9/13/2021 12:30:00 AM 16.64 61.952 0.045 6.52 1.97 9.03
9/13/2021 12:45:00 AM 16.61 61.898 0.045 6.55 1.99 9.03
9/13/2021 1:00:00 AM 16.58 61.844 0.045 6.54 1.99 9.03
9/13/2021 1:15:00 AM 16.56 61.808 0.045 6.53 1.94 9.04
9/13/2021 1:30:00 AM 16.53 61.754 0.045 6.55 1.96 9.05
9/13/2021 1:45:00 AM 16.51 61.718 0.045 6.54 1.96 9.06
9/13/2021 2:00:00 AM 16.49 61.682 0.045 6.54 1.95 9.06
9/13/2021 2:15:00 AM 16.47 61.646 0.045 6.57 1.97 9.07
9/13/2021 2:30:00 AM 16.45 61.61 0.045 6.56 1.97 9.07
9/13/2021 2:45:00 AM 16.42 61.556 0.045 6.54 1.93 9.07
9/13/2021 3:00:00 AM 16.4 61.52 0.045 6.56 1.98 9.08
9/13/2021 3:15:00 AM 16.38 61.484 0.045 6.57 1.92 9.08
9/13/2021 3:30:00 AM 16.36 61.448 0.045 6.56 1.96 9.09
9/13/2021 3:45:00 AM 16.33 61.394 0.045 6.57 2.02 9.09
9/13/2021 4:00:00 AM 16.3 61.34 0.045 6.55 1.99 9.1
9/13/2021 4:15:00 AM 16.28 61.304 0.045 6.56 1.88 9.11
9/13/2021 4:30:00 AM 16.26 61.268 0.045 6.56 1.97 9.11
9/13/2021 4:45:00 AM 16.24 61.232 0.045 6.57 2.28 9.1
9/13/2021 5:00:00 AM 16.21 61.178 0.045 6.56 2.09 9.1
9/13/2021 5:15:00 AM 16.19 61.142 0.045 6.58 1.93 9.12
9/13/2021 5:30:00 AM 16.16 61.088 0.045 6.57 1.82 9.13
9/13/2021 5:45:00 AM 16.14 61.052 0.045 6.57 1.83 9.14
9/13/2021 6:00:00 AM 16.12 61.016 0.045 6.56 1.85 9.14
9/13/2021 6:15:00 AM 16.09 60.962 0.045 6.56 1.88 9.14
9/13/2021 6:30:00 AM 16.07 60.926 0.045 6.57 1.8 9.16
9/13/2021 6:45:00 AM 16.05 60.89 0.045 6.56 1.84 9.16
9/13/2021 7:00:00 AM 16.04 60.872 0.045 6.57 1.86 9.18
9/13/2021 7:15:00 AM 16.02 60.836 0.045 6.57 1.89 9.21
9/13/2021 7:30:00 AM 16.02 60.836 0.045 6.59 1.9 9.27
9/13/2021 7:45:00 AM 16.01 60.818 0.045 6.61 1.91 9.33
9/13/2021 8:00:00 AM 16.01 60.818 0.045 6.61 1.78 9.38
9/13/2021 8:15:00 AM 16.02 60.836 0.045 6.65 1.81 9.44
9/13/2021 8:30:00 AM 16.04 60.872 0.044 6.66 1.83 9.52
9/13/2021 8:45:00 AM 16.05 60.89 0.044 6.65 1.82 9.54
9/13/2021 9:00:00 AM 16.07 60.926 0.044 6.67 1.86 9.57
9/13/2021 9:15:00 AM 16.11 60.998 0.044 6.68 1.79 9.65
9/13/2021 9:30:00 AM 16.14 61.052 0.044 6.72 1.72 9.7
9/13/2021 9:45:00 AM 16.2 61.16 0.044 6.75 1.81 9.77
9/13/2021 10:00:00 AM 16.25 61.25 0.044 6.76 1.76 9.79
9/13/2021 10:15:00 AM 16.32 61.376 0.044 6.77 1.79 9.83
9/13/2021 10:30:00 AM 16.41 61.538 0.044 6.82 1.73 9.86
9/13/2021 10:45:00 AM 16.43 61.574 0.044 6.81 1.81 9.84
9/13/2021 11:00:00 AM 16.52 61.736 0.044 6.85 1.74 9.86
9/13/2021 11:15:00 AM 16.63 61.934 0.044 6.87 1.69 9.89
9/13/2021 11:30:00 AM 16.66 61.988 0.044 6.85 1.83 9.81
9/13/2021 11:45:00 AM 16.74 62.132 0.044 6.87 1.72 9.82
9/13/2021 12:00:00 PM 16.82 62.276 0.044 6.87 1.69 9.82
9/13/2021 12:15:00 PM 16.96 62.528 0.044 6.91 1.75 9.85
9/13/2021 12:30:00 PM 17.11 62.798 0.044 6.93 1.72 9.86
9/13/2021 12:45:00 PM 17.23 63.014 0.044 6.93 1.75 9.86
9/13/2021 1:00:00 PM 17.37 63.266 0.044 6.96 1.73 9.88
9/13/2021 1:15:00 PM 17.44 63.392 0.044 6.95 1.8 9.85
9/13/2021 1:30:00 PM 17.46 63.428 0.044 6.92 1.71 9.82
9/13/2021 1:45:00 PM 17.52 63.536 0.044 6.92 1.82 9.76
9/13/2021 2:00:00 PM 17.6 63.68 0.044 6.92 1.68 9.76
9/13/2021 2:15:00 PM 17.78 64.004 0.044 6.95 1.78 9.79
9/13/2021 2:30:00 PM 18.03 64.454 0.044 7 1.69 9.79
9/13/2021 2:45:00 PM 18.23 64.814 0.044 6.99 1.65 9.76
9/13/2021 3:00:00 PM 18.37 65.066 0.044 6.99 1.68 9.72
9/13/2021 3:15:00 PM 18.46 65.228 0.044 6.98 1.72 9.64
9/13/2021 3:30:00 PM 18.56 65.408 0.044 6.96 1.7 9.63
9/13/2021 3:45:00 PM 18.64 65.552 0.044 6.94 1.64 9.55
9/13/2021 4:00:00 PM 18.7 65.66 0.044 6.94 1.67 9.55
9/13/2021 4:15:00 PM 18.66 65.588 0.044 6.89 1.65 9.46
9/13/2021 4:30:00 PM 18.6 65.48 0.044 6.85 1.72 9.38
9/13/2021 4:45:00 PM 18.55 65.39 0.044 6.8 1.69 9.32
9/13/2021 5:00:00 PM 18.52 65.336 0.044 6.81 1.69 9.36
9/13/2021 5:15:00 PM 18.45 65.21 0.044 6.78 1.66 9.31
9/13/2021 5:30:00 PM 18.41 65.138 0.044 6.76 1.7 9.29
9/13/2021 5:45:00 PM 18.39 65.102 0.044 6.76 1.64 9.25
9/13/2021 6:00:00 PM 18.37 65.066 0.044 6.73 1.64 9.21
9/13/2021 6:15:00 PM 18.35 65.03 0.044 6.74 1.68 9.17
9/13/2021 6:30:00 PM 18.33 64.994 0.044 6.7 1.59 9.1
9/13/2021 6:45:00 PM 18.29 64.922 0.045 6.68 1.68 9.02
9/13/2021 7:00:00 PM 18.25 64.85 0.045 6.66 1.68 8.93
9/13/2021 7:15:00 PM 18.21 64.778 0.045 6.62 1.68 8.86
9/13/2021 7:30:00 PM 18.18 64.724 0.045 6.61 1.66 8.82
9/13/2021 7:45:00 PM 18.15 64.67 0.045 6.59 1.7 8.78
9/13/2021 8:00:00 PM 18.13 64.634 0.045 6.59 1.67 8.76
9/13/2021 8:15:00 PM 18.11 64.598 0.045 6.59 1.74 8.76
9/13/2021 8:30:00 PM 18.08 64.544 0.045 6.6 1.65 8.75
9/13/2021 8:45:00 PM 18.05 64.49 0.045 6.58 1.81 8.75
9/13/2021 9:00:00 PM 18.01 64.418 0.046 6.59 1.73 8.75
9/13/2021 9:15:00 PM 17.98 64.364 0.046 6.58 1.7 8.75
9/13/2021 9:30:00 PM 17.94 64.292 0.046 6.57 1.68 8.75
9/13/2021 9:45:00 PM 17.9 64.22 0.046 6.58 1.65 8.75
9/13/2021 10:00:00 PM 17.86 64.148 0.046 6.57 1.68 8.76
9/13/2021 10:15:00 PM 17.82 64.076 0.046 6.57 1.76 8.76
9/13/2021 10:30:00 PM 17.78 64.004 0.046 6.56 1.76 8.77
9/13/2021 10:45:00 PM 17.75 63.95 0.046 6.57 1.72 8.78
9/13/2021 11:00:00 PM 17.71 63.878 0.046 6.59 1.72 8.79
9/13/2021 11:15:00 PM 17.67 63.806 0.046 6.58 1.69 8.8
9/13/2021 11:30:00 PM 17.63 63.734 0.046 6.58 1.73 8.81
9/13/2021 11:45:00 PM 17.59 63.662 0.046 6.56 1.72 8.81
9/14/2021 12:00:00 AM 17.55 63.59 0.046 6.56 1.78 8.82
9/14/2021 12:15:00 AM 17.51 63.518 0.046 6.56 1.73 8.83
9/14/2021 12:30:00 AM 17.47 63.446 0.046 6.56 1.68 8.84
9/14/2021 12:45:00 AM 17.43 63.374 0.046 6.56 1.69 8.85
9/14/2021 1:00:00 AM 17.4 63.32 0.046 6.56 1.75 8.86
9/14/2021 1:15:00 AM 17.38 63.284 0.046 6.56 1.74 8.86
9/14/2021 1:30:00 AM 17.34 63.212 0.046 6.57 1.71 8.88
9/14/2021 1:45:00 AM 17.31 63.158 0.046 6.57 1.73 8.88
9/14/2021 2:00:00 AM 17.28 63.104 0.046 6.56 1.67 8.89
9/14/2021 2:15:00 AM 17.25 63.05 0.046 6.6 1.77 8.9
9/14/2021 2:30:00 AM 17.22 62.996 0.046 6.58 1.74 8.9
9/14/2021 2:45:00 AM 17.19 62.942 0.046 6.58 1.75 8.9
9/14/2021 3:00:00 AM 17.17 62.906 0.046 6.6 1.69 8.92
9/14/2021 3:15:00 AM 17.14 62.852 0.046 6.58 1.65 8.93
9/14/2021 3:30:00 AM 17.11 62.798 0.046 6.58 1.75 8.93
9/14/2021 3:45:00 AM 17.08 62.744 0.046 6.6 1.7 8.92
9/14/2021 4:00:00 AM 17.05 62.69 0.046 6.58 1.69 8.94
9/14/2021 4:15:00 AM 17.02 62.636 0.046 6.58 1.68 8.95
9/14/2021 4:30:00 AM 16.99 62.582 0.046 6.59 1.75 8.95
9/14/2021 4:45:00 AM 16.95 62.51 0.046 6.58 1.76 8.96
9/14/2021 5:00:00 AM 16.92 62.456 0.046 6.57 1.66 8.96
9/14/2021 5:15:00 AM 16.9 62.42 0.046 6.57 1.67 8.98
9/14/2021 5:30:00 AM 16.88 62.384 0.046 6.58 1.74 8.98
9/14/2021 5:45:00 AM 16.85 62.33 0.046 6.58 1.76 8.98
9/14/2021 6:00:00 AM 16.83 62.294 0.046 6.58 1.73 8.99
9/14/2021 6:15:00 AM 16.81 62.258 0.046 6.61 1.76 9
9/14/2021 6:30:00 AM 16.78 62.204 0.046 6.59 1.74 9
9/14/2021 6:45:00 AM 16.75 62.15 0.045 6.59 1.75 9.02
9/14/2021 7:00:00 AM 16.71 62.078 0.045 6.6 1.77 9.04
9/14/2021 7:15:00 AM 16.69 62.042 0.045 6.61 1.77 9.08
9/14/2021 7:30:00 AM 16.67 62.006 0.045 6.63 1.76 9.15
9/14/2021 7:45:00 AM 16.65 61.97 0.045 6.63 1.75 9.21
9/14/2021 8:00:00 AM 16.64 61.952 0.045 6.65 1.81 9.22
9/14/2021 8:15:00 AM 16.63 61.934 0.045 6.64 1.79 9.25
9/14/2021 8:30:00 AM 16.64 61.952 0.044 6.67 1.73 9.34
9/14/2021 8:45:00 AM 16.65 61.97 0.044 6.68 1.73 9.45
9/14/2021 9:00:00 AM 16.67 62.006 0.044 6.71 1.74 9.54
9/14/2021 9:15:00 AM 16.7 62.06 0.044 6.74 1.71 9.61
9/14/2021 9:30:00 AM 16.74 62.132 0.044 6.8 1.7 9.71
9/14/2021 9:45:00 AM 16.78 62.204 0.044 6.81 1.8 9.76
9/14/2021 10:00:00 AM 16.83 62.294 0.044 6.82 1.72 9.8
9/14/2021 10:15:00 AM 16.88 62.384 0.043 6.86 1.73 9.81
9/14/2021 10:30:00 AM 16.93 62.474 0.043 6.87 1.78 9.84
9/14/2021 10:45:00 AM 17 62.6 0.043 6.88 1.73 9.89
9/14/2021 11:00:00 AM 17.08 62.744 0.043 6.92 1.78 9.92
9/14/2021 11:15:00 AM 17.12 62.816 0.043 6.89 1.76 9.87
9/14/2021 11:30:00 AM 17.23 63.014 0.043 6.96 1.72 9.94
9/14/2021 11:45:00 AM 17.38 63.284 0.043 6.99 1.66 9.96
9/14/2021 12:00:00 PM 17.55 63.59 0.043 7.01 1.7 9.96
9/14/2021 12:15:00 PM 17.75 63.95 0.043 7.02 1.72 9.96
9/14/2021 12:30:00 PM 17.96 64.328 0.043 7.04 1.74 9.92
9/14/2021 12:45:00 PM 18.11 64.598 0.043 7.05 1.76 9.91
9/14/2021 1:00:00 PM 18.23 64.814 0.043 7.04 1.62 9.89
9/14/2021 1:15:00 PM 18.48 65.264 0.043 7.08 1.62 9.86
9/14/2021 1:30:00 PM 18.76 65.768 0.043 7.1 1.64 9.84
9/14/2021 1:45:00 PM 18.96 66.128 0.043 7.1 1.68 9.8
9/14/2021 2:00:00 PM 19.14 66.452 0.043 7.11 1.63 9.76
9/14/2021 2:15:00 PM 19.26 66.668 0.043 7.1 1.58 9.73
9/14/2021 2:30:00 PM 19.33 66.794 0.043 7.08 1.55 9.71
9/14/2021 2:45:00 PM 19.41 66.938 0.043 7.08 1.62 9.68
9/14/2021 3:00:00 PM 19.4 66.92 0.043 7.05 1.6 9.64
9/14/2021 3:15:00 PM 19.37 66.866 0.043 7.02 1.62 9.62
9/14/2021 3:30:00 PM 19.38 66.884 0.043 7.03 1.67 9.61
9/14/2021 3:45:00 PM 19.3 66.74 0.043 6.99 1.61 9.56
9/14/2021 4:00:00 PM 19.27 66.686 0.043 6.98 1.7 9.55
9/14/2021 4:15:00 PM 19.24 66.632 0.043 6.94 1.64 9.5
9/14/2021 4:30:00 PM 19.21 66.578 0.043 6.92 1.61 9.45
9/14/2021 4:45:00 PM 19.18 66.524 0.043 6.92 1.59 9.41
9/14/2021 5:00:00 PM 19.15 66.47 0.044 6.87 1.64 9.36
9/14/2021 5:15:00 PM 19.09 66.362 0.044 6.84 1.64 9.3
9/14/2021 5:30:00 PM 19.03 66.254 0.044 6.82 1.61 9.24
9/14/2021 5:45:00 PM 18.96 66.128 0.044 6.78 1.63 9.17
9/14/2021 6:00:00 PM 18.9 66.02 0.044 6.75 1.64 9.09
9/14/2021 6:15:00 PM 18.84 65.912 0.044 6.72 1.61 9.04
9/14/2021 6:30:00 PM 18.79 65.82201 0.044 6.69 1.62 8.97
9/14/2021 6:45:00 PM 18.76 65.768 0.044 6.66 1.6 8.92
9/14/2021 7:00:00 PM 18.73 65.714 0.044 6.66 1.62 8.84
9/14/2021 7:15:00 PM 18.7 65.66 0.044 6.62 1.63 8.78
9/14/2021 7:30:00 PM 18.67 65.606 0.044 6.61 1.63 8.71
9/14/2021 7:45:00 PM 18.64 65.552 0.045 6.6 1.64 8.67
9/14/2021 8:00:00 PM 18.61 65.498 0.045 6.59 1.64 8.64
9/14/2021 8:15:00 PM 18.57 65.426 0.045 6.57 1.6 8.61
9/14/2021 8:30:00 PM 18.53 65.354 0.045 6.56 1.64 8.62
9/14/2021 8:45:00 PM 18.49 65.282 0.045 6.57 1.59 8.6
9/14/2021 9:00:00 PM 18.45 65.21 0.045 6.56 1.63 8.61
9/14/2021 9:15:00 PM 18.41 65.138 0.045 6.55 1.62 8.61
9/14/2021 9:30:00 PM 18.36 65.048 0.045 6.55 1.7 8.61
9/14/2021 9:45:00 PM 18.31 64.958 0.045 6.57 1.67 8.64
9/14/2021 10:00:00 PM 18.27 64.886 0.045 6.55 1.64 8.64
9/14/2021 10:15:00 PM 18.22 64.796 0.045 6.55 1.64 8.66
9/14/2021 10:30:00 PM 18.17 64.706 0.045 6.55 1.65 8.65
9/14/2021 10:45:00 PM 18.13 64.634 0.045 6.55 1.57 8.67
9/14/2021 11:00:00 PM 18.08 64.544 0.045 6.55 1.6 8.67
9/14/2021 11:15:00 PM 18.04 64.472 0.045 6.54 1.67 8.68
9/14/2021 11:30:00 PM 17.99 64.382 0.045 6.56 1.69 8.68
9/14/2021 11:45:00 PM 17.96 64.328 0.045 6.55 1.57 8.69
9/15/2021 12:00:00 AM 17.92 64.256 0.046 6.56 1.5 8.7
9/15/2021 12:15:00 AM 17.88 64.184 0.046 6.56 1.56 8.71
9/15/2021 12:30:00 AM 17.85 64.13 0.046 6.55 1.57 8.72
9/15/2021 12:45:00 AM 17.82 64.076 0.046 6.56 1.6 8.73
9/15/2021 1:00:00 AM 17.78 64.004 0.046 6.57 1.57 8.73
9/15/2021 1:15:00 AM 17.74 63.932 0.046 6.55 1.57 8.73
9/15/2021 1:30:00 AM 17.71 63.878 0.046 6.57 1.58 8.74
9/15/2021 1:45:00 AM 17.68 63.824 0.046 6.56 1.53 8.74
9/15/2021 2:00:00 AM 17.65 63.77 0.046 6.55 1.65 8.75
9/15/2021 2:15:00 AM 17.62 63.716 0.046 6.56 1.58 8.76
9/15/2021 2:30:00 AM 17.6 63.68 0.046 6.58 1.56 8.77
9/15/2021 2:45:00 AM 17.58 63.644 0.046 6.56 1.57 8.77
9/15/2021 3:00:00 AM 17.56 63.608 0.046 6.57 1.6 8.76
9/15/2021 3:15:00 AM 17.53 63.554 0.046 6.57 1.59 8.78
9/15/2021 3:30:00 AM 17.51 63.518 0.046 6.58 1.58 8.78
9/15/2021 3:45:00 AM 17.48 63.464 0.046 6.56 1.53 8.78
9/15/2021 4:00:00 AM 17.45 63.41 0.046 6.55 1.58 8.79
9/15/2021 4:15:00 AM 17.43 63.374 0.046 6.55 1.58 8.79
9/15/2021 4:30:00 AM 17.4 63.32 0.046 6.57 1.54 8.79
9/15/2021 4:45:00 AM 17.37 63.266 0.046 6.55 1.55 8.79
9/15/2021 5:00:00 AM 17.34 63.212 0.046 6.54 1.63 8.81
9/15/2021 5:15:00 AM 17.3 63.14 0.046 6.54 1.52 8.82
9/15/2021 5:30:00 AM 17.28 63.104 0.046 6.55 1.54 8.82
9/15/2021 5:45:00 AM 17.27 63.086 0.046 6.57 1.53 8.82
9/15/2021 6:00:00 AM 17.25 63.05 0.046 6.55 1.59 8.82
9/15/2021 6:15:00 AM 17.23 63.014 0.046 6.56 1.56 8.82
9/15/2021 6:30:00 AM 17.21 62.978 0.046 6.57 1.61 8.83
9/15/2021 6:45:00 AM 17.19 62.942 0.046 6.56 1.56 8.84
9/15/2021 7:00:00 AM 17.16 62.888 0.046 6.56 1.55 8.87
9/15/2021 7:15:00 AM 17.14 62.852 0.046 6.58 1.56 8.92
9/15/2021 7:30:00 AM 17.12 62.816 0.046 6.6 1.56 8.97
9/15/2021 7:45:00 AM 17.11 62.798 0.046 6.59 1.55 9.06
9/15/2021 8:00:00 AM 17.11 62.798 0.046 6.61 1.56 9.19
9/15/2021 8:15:00 AM 17.12 62.816 0.046 6.64 1.53 9.29
9/15/2021 8:30:00 AM 17.12 62.816 0.046 6.67 1.56 9.35
9/15/2021 8:45:00 AM 17.14 62.852 0.046 6.68 1.55 9.37
9/15/2021 9:00:00 AM 17.19 62.942 0.046 6.71 1.6 9.47
9/15/2021 9:15:00 AM 17.26 63.068 0.046 6.77 1.53 9.59
9/15/2021 9:30:00 AM 17.31 63.158 0.046 6.82 1.54 9.65
9/15/2021 9:45:00 AM 17.39 63.302 0.045 6.86 1.53 9.7
9/15/2021 10:00:00 AM 17.45 63.41 0.045 6.87 1.53 9.73
9/15/2021 10:15:00 AM 17.55 63.59 0.045 6.91 1.53 9.76
9/15/2021 10:30:00 AM 17.67 63.806 0.045 6.95 1.5 9.78
9/15/2021 10:45:00 AM 17.78 64.004 0.045 6.96 1.48 9.79
9/15/2021 11:00:00 AM 17.89 64.202 0.045 6.98 1.56 9.8
9/15/2021 11:15:00 AM 18.04 64.472 0.045 7.01 1.51 9.84
9/15/2021 11:30:00 AM 18.22 64.796 0.045 7.05 1.49 9.82
9/15/2021 11:45:00 AM 18.39 65.102 0.045 7.05 1.5 9.81
9/15/2021 12:00:00 PM 18.6 65.48 0.045 7.11 1.51 9.83
9/15/2021 12:15:00 PM 18.83 65.894 0.045 7.12 1.51 9.83
9/15/2021 12:30:00 PM 19.05 66.29 0.045 7.15 1.44 9.83
9/15/2021 12:45:00 PM 19.24 66.632 0.045 7.15 1.5 9.78
9/15/2021 1:00:00 PM 19.35 66.83 0.045 7.14 1.46 9.74
9/15/2021 1:15:00 PM 19.47 67.046 0.045 7.14 1.51 9.71
9/15/2021 1:30:00 PM 19.53 67.154 0.045 7.11 1.47 9.66
9/15/2021 1:45:00 PM 19.67 67.406 0.045 7.13 1.45 9.65
9/15/2021 2:00:00 PM 19.78 67.604 0.045 7.13 1.45 9.62
9/15/2021 2:15:00 PM 19.98 67.964 0.045 7.17 1.41 9.67
9/15/2021 2:30:00 PM 20.08 68.144 0.045 7.18 1.45 9.64
9/15/2021 2:45:00 PM 20.02 68.036 0.045 7.11 1.42 9.5
9/15/2021 3:00:00 PM 20.19 68.342 0.045 7.15 1.47 9.57
9/15/2021 3:15:00 PM 20.16 68.288 0.045 7.11 1.43 9.47
9/15/2021 3:30:00 PM 20.06 68.108 0.045 7.03 1.63 9.38
9/15/2021 3:45:00 PM 19.98 67.964 0.045 7 1.42 9.3
9/15/2021 4:00:00 PM 19.89 67.802 0.045 6.89 1.4 9.14
9/15/2021 4:15:00 PM 19.77 67.586 0.045 6.82 1.43 9.01
9/15/2021 4:30:00 PM 19.63 67.334 0.045 6.76 1.43 8.86
9/15/2021 4:45:00 PM 19.48 67.064 0.045 6.68 1.4 8.72
9/15/2021 5:00:00 PM 19.37 66.866 0.045 6.66 1.47 8.64
9/15/2021 5:15:00 PM 19.28 66.704 0.045 6.63 1.48 8.59
9/15/2021 5:30:00 PM 19.2 66.56 0.045 6.62 1.48 8.57
9/15/2021 5:45:00 PM 19.12 66.416 0.046 6.6 1.53 8.56
9/15/2021 6:00:00 PM 19.05 66.29 0.045 6.59 1.5 8.56
9/15/2021 6:15:00 PM 18.98 66.164 0.045 6.59 1.52 8.56
9/15/2021 6:30:00 PM 18.93 66.074 0.045 6.6 1.57 8.57
9/15/2021 6:45:00 PM 18.9 66.02 0.045 6.6 1.52 8.59
9/15/2021 7:00:00 PM 18.87 65.966 0.045 6.62 1.56 8.58
9/15/2021 7:15:00 PM 18.84 65.912 0.046 6.6 1.61 8.56
9/15/2021 7:30:00 PM 18.81 65.858 0.046 6.62 1.55 8.55
9/15/2021 7:45:00 PM 18.78 65.804 0.046 6.61 1.56 8.55
9/15/2021 8:00:00 PM 18.76 65.768 0.046 6.61 1.54 8.55
9/15/2021 8:15:00 PM 18.73 65.714 0.046 6.62 1.55 8.55
9/15/2021 8:30:00 PM 18.7 65.66 0.046 6.62 1.65 8.56
9/15/2021 8:45:00 PM 18.67 65.606 0.047 6.61 1.59 8.57
9/15/2021 9:00:00 PM 18.63 65.534 0.047 6.62 1.6 8.59
9/15/2021 9:15:00 PM 18.59 65.462 0.047 6.62 1.74 8.6
9/15/2021 9:30:00 PM 18.54 65.372 0.047 6.64 1.91 8.61
9/15/2021 9:45:00 PM 18.5 65.3 0.047 6.62 2.08 8.63
9/15/2021 10:00:00 PM 18.46 65.228 0.048 6.62 2.2 8.64
9/15/2021 10:15:00 PM 18.41 65.138 0.048 6.62 2.14 8.66
9/15/2021 10:30:00 PM 18.36 65.048 0.048 6.64 2.02 8.67
9/15/2021 10:45:00 PM 18.32 64.976 0.047 6.62 1.92 8.69
9/15/2021 11:00:00 PM 18.28 64.904 0.047 6.62 1.93 8.71
9/15/2021 11:15:00 PM 18.24 64.832 0.047 6.63 1.99 8.72
9/15/2021 11:30:00 PM 18.2 64.76 0.046 6.63 2 8.73
9/15/2021 11:45:00 PM 18.16 64.688 0.046 6.64 2.23 8.74
9/16/2021 12:00:00 AM 18.12 64.616 0.046 6.63 2.3 8.76
9/16/2021 12:15:00 AM 18.08 64.544 0.046 6.64 2.41 8.77
9/16/2021 12:30:00 AM 18.05 64.49 0.046 6.65 2.44 8.79
9/16/2021 12:45:00 AM 18 64.4 0.047 6.65 2.57 8.81
9/16/2021 1:00:00 AM 17.96 64.328 0.048 6.68 2.95 8.83
9/16/2021 1:15:00 AM 17.92 64.256 0.05 6.7 3.36 8.85
9/16/2021 1:30:00 AM 17.88 64.184 0.054 6.74 4.59 8.88
9/16/2021 1:45:00 AM 17.85 64.13 0.056 6.78 6.52 8.9
9/16/2021 2:00:00 AM 17.81 64.058 0.057 6.81 7.37 8.91
9/16/2021 2:15:00 AM 17.78 64.004 0.058 6.82 9.12 8.94
9/16/2021 2:30:00 AM 17.75 63.95 0.058 6.86 11.58 8.95
9/16/2021 2:45:00 AM 17.73 63.914 0.058 6.84 13.48 8.96
9/16/2021 3:00:00 AM 17.69 63.842 0.058 6.83 12.38 8.97
9/16/2021 3:15:00 AM 17.67 63.806 0.057 6.84 12.96 8.99
9/16/2021 3:30:00 AM 17.65 63.77 0.055 6.82 11.79 8.99
9/16/2021 3:45:00 AM 17.63 63.734 0.054 6.82 10.4 9
9/16/2021 4:00:00 AM 17.6 63.68 0.053 6.82 9.49 9.01
9/16/2021 4:15:00 AM 17.57 63.626 0.052 6.8 9.18 9.02
9/16/2021 4:30:00 AM 17.55 63.59 0.051 6.8 8.48 9.03
9/16/2021 4:45:00 AM 17.52 63.536 0.051 6.8 8.16 9.04
9/16/2021 5:00:00 AM 17.5 63.5 0.05 6.78 7.64 9.05
9/16/2021 5:15:00 AM 17.48 63.464 0.049 6.78 7.31 9.06
9/16/2021 5:30:00 AM 17.45 63.41 0.049 6.77 7.41 9.07
9/16/2021 5:45:00 AM 17.42 63.356 0.048 6.77 7.15 9.08
9/16/2021 6:00:00 AM 17.39 63.302 0.048 6.76 7.21 9.09
9/16/2021 6:15:00 AM 17.36 63.248 0.047 6.76 7.06 9.1
9/16/2021 6:30:00 AM 17.33 63.194 0.047 6.76 7 9.11
9/16/2021 6:45:00 AM 17.3 63.14 0.046 6.75 6.66 9.12
9/16/2021 7:00:00 AM 17.27 63.086 0.046 6.75 6.41 9.12
9/16/2021 7:15:00 AM 17.24 63.032 0.046 6.75 6.57 9.14
9/16/2021 7:30:00 AM 17.22 62.996 0.045 6.73 6.52 9.16
9/16/2021 7:45:00 AM 17.2 62.96 0.045 6.73 6.56 9.18
9/16/2021 8:00:00 AM 17.19 62.942 0.044 6.74 6.47 9.22
9/16/2021 8:15:00 AM 17.18 62.924 0.044 6.75 6.21 9.24
9/16/2021 8:30:00 AM 17.17 62.906 0.044 6.74 5.93 9.26
9/16/2021 8:45:00 AM 17.17 62.906 0.043 6.76 5.89 9.28
9/16/2021 9:00:00 AM 17.18 62.924 0.043 6.75 5.62 9.33
9/16/2021 9:15:00 AM 17.19 62.942 0.043 6.77 5.44 9.37
9/16/2021 9:30:00 AM 17.22 62.996 0.043 6.79 5.17 9.41
9/16/2021 9:45:00 AM 17.23 63.014 0.042 6.79 4.85 9.45
9/16/2021 10:00:00 AM 17.27 63.086 0.042 6.84 4.97 9.47
9/16/2021 10:15:00 AM 17.31 63.158 0.042 6.83 4.86 9.47
9/16/2021 10:30:00 AM 17.35 63.23 0.042 6.83 4.71 9.45
9/16/2021 10:45:00 AM 17.37 63.266 0.042 6.82 4.36 9.45
9/16/2021 11:00:00 AM 17.38 63.284 0.042 6.82 4.29 9.47
9/16/2021 11:15:00 AM 17.42 63.356 0.041 6.85 4.32 9.52
9/16/2021 11:30:00 AM 17.44 63.392 0.041 6.87 4.19 9.55
9/16/2021 11:45:00 AM 17.5 63.5 0.041 6.88 3.86 9.62
9/16/2021 12:00:00 PM 17.59 63.662 0.041 6.93 3.82 9.65
9/16/2021 12:15:00 PM 17.65 63.77 0.041 6.94 3.88 9.66
9/16/2021 12:30:00 PM 17.68 63.824 0.041 6.92 3.71 9.63
9/16/2021 12:45:00 PM 17.77 63.986 0.041 6.96 3.69 9.66
9/16/2021 1:00:00 PM 17.9 64.22 0.041 6.98 3.31 9.66
9/16/2021 1:15:00 PM 17.99 64.382 0.041 6.98 3.49 9.65
9/16/2021 1:30:00 PM 18.05 64.49 0.041 6.98 3.44 9.66
9/16/2021 1:45:00 PM 18.19 64.742 0.041 7.01 3.36 9.65
9/16/2021 2:00:00 PM 18.16 64.688 0.041 6.96 3.3 9.58
9/16/2021 2:15:00 PM 18.16 64.688 0.041 6.94 3.18 9.53
9/16/2021 2:30:00 PM 18.18 64.724 0.041 6.92 2.98 9.51
9/16/2021 2:45:00 PM 18.2 64.76 0.041 6.91 3.15 9.49
9/16/2021 3:00:00 PM 18.21 64.778 0.041 6.89 2.98 9.42
9/16/2021 3:15:00 PM 18.2 64.76 0.04 6.85 3.12 9.39
9/16/2021 3:30:00 PM 18.17 64.706 0.04 6.84 3.08 9.39
9/16/2021 3:45:00 PM 18.16 64.688 0.04 6.84 2.82 9.37
9/16/2021 4:00:00 PM 18.13 64.634 0.04 6.79 2.87 9.28
9/16/2021 4:15:00 PM 18.1 64.58 0.04 6.78 2.85 9.24
9/16/2021 4:30:00 PM 18.09 64.562 0.04 6.75 2.97 9.25
9/16/2021 4:45:00 PM 18.11 64.598 0.04 6.78 2.76 9.31
9/16/2021 5:00:00 PM 18.13 64.634 0.04 6.79 2.93 9.34
9/16/2021 5:15:00 PM 18.13 64.634 0.04 6.78 2.82 9.3
9/16/2021 5:30:00 PM 18.12 64.616 0.04 6.77 2.71 9.27
9/16/2021 5:45:00 PM 18.11 64.598 0.04 6.75 2.71 9.25
9/16/2021 6:00:00 PM 18.09 64.562 0.04 6.73 2.68 9.21
9/16/2021 6:15:00 PM 18.06 64.508 0.04 6.71 2.79 9.17
9/16/2021 6:30:00 PM 18.02 64.436 0.04 6.68 2.62 9.13
9/16/2021 6:45:00 PM 17.99 64.382 0.04 6.66 2.59 9.07
9/16/2021 7:00:00 PM 17.95 64.31 0.04 6.65 2.67 9.03
9/16/2021 7:15:00 PM 17.92 64.256 0.04 6.63 2.56 9
9/16/2021 7:30:00 PM 17.89 64.202 0.041 6.62 2.57 8.98
9/16/2021 7:45:00 PM 17.85 64.13 0.041 6.6 2.63 8.97
9/16/2021 8:00:00 PM 17.82 64.076 0.041 6.62 2.64 8.96
9/16/2021 8:15:00 PM 17.78 64.004 0.041 6.58 2.65 8.97
9/16/2021 8:30:00 PM 17.75 63.95 0.041 6.59 2.52 8.97
9/16/2021 8:45:00 PM 17.72 63.896 0.041 6.57 2.63 8.97
9/16/2021 9:00:00 PM 17.68 63.824 0.041 6.57 2.63 8.98
9/16/2021 9:15:00 PM 17.65 63.77 0.041 6.57 2.48 8.99
9/16/2021 9:30:00 PM 17.63 63.734 0.041 6.56 2.53 8.99
9/16/2021 9:45:00 PM 17.6 63.68 0.041 6.57 2.65 8.99
9/16/2021 10:00:00 PM 17.57 63.626 0.041 6.56 2.57 9
9/16/2021 10:15:00 PM 17.54 63.572 0.041 6.55 2.53 9
9/16/2021 10:30:00 PM 17.52 63.536 0.041 6.55 2.48 9
9/16/2021 10:45:00 PM 17.49 63.482 0.041 6.57 2.39 9.01
9/16/2021 11:00:00 PM 17.47 63.446 0.041 6.55 2.59 9.01
9/16/2021 11:15:00 PM 17.44 63.392 0.041 6.56 2.41 9.01
9/16/2021 11:30:00 PM 17.42 63.356 0.041 6.54 2.41 9.02
9/16/2021 11:45:00 PM 17.39 63.302 0.041 6.54 2.46 9.02
9/17/2021 12:00:00 AM 17.37 63.266 0.041 6.54 2.41 9.03
9/17/2021 12:15:00 AM 17.35 63.23 0.041 6.54 2.34 9.03
9/17/2021 12:30:00 AM 17.32 63.176 0.041 6.56 2.48 9.03
9/17/2021 12:45:00 AM 17.3 63.14 0.041 6.54 2.38 9.04
9/17/2021 1:00:00 AM 17.28 63.104 0.041 6.54 2.29 9.04
9/17/2021 1:15:00 AM 17.25 63.05 0.041 6.56 2.28 9.05
9/17/2021 1:30:00 AM 17.23 63.014 0.041 6.52 2.34 9.04
9/17/2021 1:45:00 AM 17.21 62.978 0.041 6.55 2.42 9.05
9/17/2021 2:00:00 AM 17.19 62.942 0.041 6.54 2.37 9.05
9/17/2021 2:15:00 AM 17.17 62.906 0.041 6.54 2.3 9.05
9/17/2021 2:30:00 AM 17.15 62.87 0.041 6.54 2.67 9.06
9/17/2021 2:45:00 AM 17.13 62.834 0.041 6.53 2.45 9.06
9/17/2021 3:00:00 AM 17.12 62.816 0.041 6.54 2.28 9.07
9/17/2021 3:15:00 AM 17.1 62.78 0.041 6.56 2.32 9.07
9/17/2021 3:30:00 AM 17.09 62.762 0.041 6.54 2.28 9.06
9/17/2021 3:45:00 AM 17.07 62.726 0.041 6.53 2.26 9.07
9/17/2021 4:00:00 AM 17.06 62.708 0.041 6.56 2.28 9.07
9/17/2021 4:15:00 AM 17.05 62.69 0.041 6.53 2.35 9.07
9/17/2021 4:30:00 AM 17.03 62.654 0.041 6.55 2.38 9.07
9/17/2021 4:45:00 AM 17.02 62.636 0.041 6.53 2.26 9.07
9/17/2021 5:00:00 AM 17.01 62.618 0.041 6.53 2.16 9.08
9/17/2021 5:15:00 AM 17 62.6 0.041 6.55 2.26 9.08
9/17/2021 5:30:00 AM 16.99 62.582 0.041 6.54 2.25 9.08
9/17/2021 5:45:00 AM 16.98 62.564 0.041 6.53 2.24 9.08
9/17/2021 6:00:00 AM 16.97 62.546 0.041 6.53 2.13 9.08
9/17/2021 6:15:00 AM 16.96 62.528 0.041 6.53 2.3 9.08
9/17/2021 6:30:00 AM 16.95 62.51 0.041 6.53 2.12 9.09
9/17/2021 6:45:00 AM 16.94 62.492 0.041 6.52 2.25 9.09
9/17/2021 7:00:00 AM 16.94 62.492 0.041 6.55 2.2 9.1
9/17/2021 7:15:00 AM 16.93 62.474 0.041 6.54 2.27 9.11
9/17/2021 7:30:00 AM 16.93 62.474 0.041 6.54 2.08 9.13
9/17/2021 7:45:00 AM 16.93 62.474 0.041 6.57 2.14 9.16
9/17/2021 8:00:00 AM 16.92 62.456 0.041 6.55 2.16 9.17
9/17/2021 8:15:00 AM 16.93 62.474 0.041 6.55 2.11 9.21
9/17/2021 8:30:00 AM 16.93 62.474 0.041 6.55 2.02 9.23
9/17/2021 8:45:00 AM 16.93 62.474 0.041 6.56 2.03 9.27
9/17/2021 9:00:00 AM 16.94 62.492 0.041 6.6 2.1 9.31
9/17/2021 9:15:00 AM 16.96 62.528 0.041 6.59 1.98 9.36
9/17/2021 9:30:00 AM 16.98 62.564 0.04 6.6 2.02 9.42
9/17/2021 9:45:00 AM 17 62.6 0.04 6.62 2 9.47
9/17/2021 10:00:00 AM 17.04 62.672 0.04 6.65 2.02 9.56
9/17/2021 10:15:00 AM 17.08 62.744 0.04 6.68 1.95 9.61
9/17/2021 10:30:00 AM 17.13 62.834 0.04 6.72 1.99 9.64
9/17/2021 10:45:00 AM 17.16 62.888 0.04 6.74 2.02 9.63
9/17/2021 11:00:00 AM 17.2 62.96 0.04 6.75 1.93 9.67
9/17/2021 11:15:00 AM 17.25 63.05 0.04 6.77 1.91 9.67
9/17/2021 11:30:00 AM 17.27 63.086 0.04 6.75 1.86 9.61
9/17/2021 11:45:00 AM 17.3 63.14 0.04 6.78 1.91 9.63
9/17/2021 12:00:00 PM 17.32 63.176 0.04 6.78 1.96 9.6
9/17/2021 12:15:00 PM 17.35 63.23 0.04 6.78 1.94 9.62
9/17/2021 12:30:00 PM 17.46 63.428 0.04 6.83 1.89 9.76
9/17/2021 12:45:00 PM 17.54 63.572 0.04 6.88 1.92 9.79
9/17/2021 1:00:00 PM 17.75 63.95 0.04 6.94 1.85 9.85
9/17/2021 1:15:00 PM 17.88 64.184 0.04 6.94 1.89 9.8
9/17/2021 1:30:00 PM 17.85 64.13 0.04 6.9 1.83 9.76
9/17/2021 1:45:00 PM 17.85 64.13 0.04 6.93 1.8 9.77
9/17/2021 2:00:00 PM 17.9 64.22 0.04 6.91 1.88 9.74
9/17/2021 2:15:00 PM 17.93 64.274 0.04 6.89 1.87 9.71
9/17/2021 2:30:00 PM 18.04 64.472 0.04 6.93 1.85 9.76
9/17/2021 2:45:00 PM 18.06 64.508 0.04 6.93 1.88 9.74
9/17/2021 3:00:00 PM 18.11 64.598 0.04 6.94 1.95 9.73
9/17/2021 3:15:00 PM 18.22 64.796 0.04 6.99 1.79 9.76
9/17/2021 3:30:00 PM 18.27 64.886 0.04 6.97 1.83 9.7
9/17/2021 3:45:00 PM 18.34 65.012 0.04 6.95 1.74 9.68
9/17/2021 4:00:00 PM 18.39 65.102 0.04 6.93 1.78 9.62
9/17/2021 4:15:00 PM 18.44 65.192 0.04 6.92 1.8 9.56
9/17/2021 4:30:00 PM 18.4 65.12 0.04 6.86 1.88 9.47
9/17/2021 4:45:00 PM 18.38 65.084 0.04 6.83 1.79 9.39
9/17/2021 5:00:00 PM 18.36 65.048 0.04 6.79 1.74 9.34
9/17/2021 5:15:00 PM 18.38 65.084 0.04 6.78 1.73 9.29
9/17/2021 5:30:00 PM 18.41 65.138 0.04 6.78 1.85 9.28
9/17/2021 5:45:00 PM 18.4 65.12 0.04 6.76 1.74 9.24
9/17/2021 6:00:00 PM 18.38 65.084 0.04 6.73 1.76 9.15
9/17/2021 6:15:00 PM 18.4 65.12 0.04 6.7 1.75 9.07
9/17/2021 6:30:00 PM 18.37 65.066 0.041 6.67 1.8 9
9/17/2021 6:45:00 PM 18.34 65.012 0.041 6.65 1.71 8.94
9/17/2021 7:00:00 PM 18.32 64.976 0.041 6.63 1.77 8.91
9/17/2021 7:15:00 PM 18.31 64.958 0.041 6.63 1.72 8.87
9/17/2021 7:30:00 PM 18.29 64.922 0.041 6.6 1.86 8.83
9/17/2021 7:45:00 PM 18.27 64.886 0.041 6.57 1.75 8.82
9/17/2021 8:00:00 PM 18.24 64.832 0.041 6.58 1.82 8.8
9/17/2021 8:15:00 PM 18.22 64.796 0.041 6.56 1.8 8.79
9/17/2021 8:30:00 PM 18.2 64.76 0.041 6.55 1.81 8.79
9/17/2021 8:45:00 PM 18.18 64.724 0.041 6.55 1.77 8.79
9/17/2021 9:00:00 PM 18.15 64.67 0.041 6.55 1.78 8.79
9/17/2021 9:15:00 PM 18.12 64.616 0.041 6.55 1.76 8.79
9/17/2021 9:30:00 PM 18.07 64.526 0.042 6.54 1.81 8.81
9/17/2021 9:45:00 PM 18.02 64.436 0.042 6.53 1.87 8.81
9/17/2021 10:00:00 PM 17.97 64.346 0.042 6.57 1.77 8.83
9/17/2021 10:15:00 PM 17.91 64.238 0.042 6.53 1.82 8.83
9/17/2021 10:30:00 PM 17.86 64.148 0.042 6.56 1.74 8.84
9/17/2021 10:45:00 PM 17.81 64.058 0.042 6.54 1.75 8.86
9/17/2021 11:00:00 PM 17.76 63.968 0.042 6.54 1.76 8.86
9/17/2021 11:15:00 PM 17.72 63.896 0.042 6.54 1.83 8.88
9/17/2021 11:30:00 PM 17.68 63.824 0.042 6.55 1.77 8.88
9/17/2021 11:45:00 PM 17.63 63.734 0.042 6.54 1.77 8.89
9/18/2021 12:00:00 AM 17.59 63.662 0.042 6.55 1.79 8.89
9/18/2021 12:15:00 AM 17.55 63.59 0.042 6.55 1.79 8.9
9/18/2021 12:30:00 AM 17.51 63.518 0.042 6.56 1.77 8.91
9/18/2021 12:45:00 AM 17.49 63.482 0.042 6.55 1.75 8.92
9/18/2021 1:00:00 AM 17.46 63.428 0.042 6.59 1.75 8.92
9/18/2021 1:15:00 AM 17.44 63.392 0.042 6.57 1.72 8.93
9/18/2021 1:30:00 AM 17.42 63.356 0.042 6.57 1.73 8.93
9/18/2021 1:45:00 AM 17.39 63.302 0.042 6.56 1.7 8.94
9/18/2021 2:00:00 AM 17.37 63.266 0.042 6.57 1.71 8.94
9/18/2021 2:15:00 AM 17.35 63.23 0.042 6.58 1.8 8.95
9/18/2021 2:30:00 AM 17.33 63.194 0.042 6.57 1.73 8.95
9/18/2021 2:45:00 AM 17.31 63.158 0.042 6.57 1.83 8.96
9/18/2021 3:00:00 AM 17.29 63.122 0.042 6.56 1.81 8.95
9/18/2021 3:15:00 AM 17.28 63.104 0.042 6.57 1.76 8.95
9/18/2021 3:30:00 AM 17.26 63.068 0.042 6.57 1.73 8.96
9/18/2021 3:45:00 AM 17.24 63.032 0.042 6.57 1.77 8.96
9/18/2021 4:00:00 AM 17.23 63.014 0.043 6.57 1.72 8.97
9/18/2021 4:15:00 AM 17.21 62.978 0.043 6.56 1.72 8.97
9/18/2021 4:30:00 AM 17.19 62.942 0.043 6.57 1.81 8.96
9/18/2021 4:45:00 AM 17.17 62.906 0.043 6.57 1.88 8.97
9/18/2021 5:00:00 AM 17.15 62.87 0.043 6.55 1.93 8.97
9/18/2021 5:15:00 AM 17.14 62.852 0.043 6.56 1.79 8.98
9/18/2021 5:30:00 AM 17.14 62.852 0.042 6.56 1.89 8.99
9/18/2021 5:45:00 AM 17.13 62.834 0.042 6.6 1.92 8.98
9/18/2021 6:00:00 AM 17.11 62.798 0.043 6.57 2.03 8.99
9/18/2021 6:15:00 AM 17.09 62.762 0.043 6.57 1.89 8.98
9/18/2021 6:30:00 AM 17.07 62.726 0.043 6.57 1.88 8.99
9/18/2021 6:45:00 AM 17.06 62.708 0.043 6.56 1.79 9
9/18/2021 7:00:00 AM 17.05 62.69 0.043 6.56 1.82 9.01
9/18/2021 7:15:00 AM 17.04 62.672 0.043 6.6 1.88 9.02
9/18/2021 7:30:00 AM 17.03 62.654 0.043 6.58 1.8 9.04
9/18/2021 7:45:00 AM 17.02 62.636 0.043 6.58 1.76 9.06
9/18/2021 8:00:00 AM 17.03 62.654 0.043 6.62 1.79 9.14
9/18/2021 8:15:00 AM 17.03 62.654 0.043 6.62 1.76 9.23
9/18/2021 8:30:00 AM 17.05 62.69 0.043 6.65 1.81 9.34
9/18/2021 8:45:00 AM 17.06 62.708 0.043 6.68 1.83 9.39
9/18/2021 9:00:00 AM 17.08 62.744 0.043 6.68 1.76 9.4
9/18/2021 9:15:00 AM 17.12 62.816 0.043 6.72 1.71 9.5
9/18/2021 9:30:00 AM 17.14 62.852 0.043 6.75 1.68 9.56
9/18/2021 9:45:00 AM 17.18 62.924 0.043 6.8 1.73 9.61
9/18/2021 10:00:00 AM 17.27 63.086 0.043 6.82 1.72 9.67
9/18/2021 10:15:00 AM 17.36 63.248 0.043 6.86 1.66 9.72
9/18/2021 10:30:00 AM 17.44 63.392 0.043 6.89 1.66 9.78
9/18/2021 10:45:00 AM 17.55 63.59 0.043 6.93 1.64 9.79
9/18/2021 11:00:00 AM 17.65 63.77 0.043 6.94 1.68 9.8
9/18/2021 11:15:00 AM 17.7 63.86 0.043 6.95 1.67 9.76
9/18/2021 11:30:00 AM 17.77 63.986 0.043 6.94 1.73 9.68
9/18/2021 11:45:00 AM 17.96 64.328 0.043 6.98 1.6 9.75
9/18/2021 12:00:00 PM 18.16 64.688 0.043 7.01 1.65 9.74
9/18/2021 12:15:00 PM 18.41 65.138 0.043 7.03 1.77 9.72
9/18/2021 12:30:00 PM 18.67 65.606 0.043 7.07 1.67 9.75
9/18/2021 12:45:00 PM 18.81 65.858 0.043 7.05 1.73 9.72
9/18/2021 1:00:00 PM 18.95 66.11 0.043 7.06 1.68 9.72
9/18/2021 1:15:00 PM 19.01 66.218 0.043 7.04 1.63 9.67
9/18/2021 1:30:00 PM 19.09 66.362 0.043 7.04 1.55 9.65
9/18/2021 1:45:00 PM 19.19 66.542 0.043 7.08 1.62 9.65
9/18/2021 2:00:00 PM 19.3 66.74 0.043 7.05 1.59 9.61
9/18/2021 2:15:00 PM 19.39 66.902 0.043 7.05 1.56 9.58
9/18/2021 2:30:00 PM 19.54 67.172 0.043 7.07 1.54 9.58
9/18/2021 2:45:00 PM 19.59 67.262 0.043 7.04 1.53 9.53
9/18/2021 3:00:00 PM 19.66 67.388 0.043 7.04 1.5 9.51
9/18/2021 3:15:00 PM 19.65 67.37 0.043 7.01 1.54 9.42
9/18/2021 3:30:00 PM 19.62 67.316 0.043 6.98 1.58 9.43
9/18/2021 3:45:00 PM 19.52 67.136 0.043 6.94 1.57 9.4
9/18/2021 4:00:00 PM 19.5 67.1 0.043 6.94 1.56 9.42
9/18/2021 4:15:00 PM 19.48 67.064 0.043 6.97 1.48 9.41
9/18/2021 4:30:00 PM 19.43 66.974 0.043 6.93 1.55 9.42
9/18/2021 4:45:00 PM 19.37 66.866 0.043 6.91 1.59 9.37
9/18/2021 5:00:00 PM 19.33 66.794 0.043 6.87 1.54 9.27
9/18/2021 5:15:00 PM 19.33 66.794 0.043 6.84 1.57 9.2
9/18/2021 5:30:00 PM 19.32 66.776 0.043 6.85 1.61 9.14
9/18/2021 5:45:00 PM 19.28 66.704 0.043 6.79 1.57 9.05
9/18/2021 6:00:00 PM 19.24 66.632 0.043 6.76 1.56 9.02
9/18/2021 6:15:00 PM 19.19 66.542 0.043 6.73 1.57 8.95
9/18/2021 6:30:00 PM 19.17 66.506 0.043 6.72 1.55 8.9
9/18/2021 6:45:00 PM 19.17 66.506 0.043 6.69 1.5 8.83
9/18/2021 7:00:00 PM 19.15 66.47 0.043 6.69 1.63 8.76
9/18/2021 7:15:00 PM 19.13 66.434 0.044 6.66 1.51 8.69
9/18/2021 7:30:00 PM 19.09 66.362 0.044 6.66 1.61 8.64
9/18/2021 7:45:00 PM 19.05 66.29 0.044 6.62 1.57 8.6
9/18/2021 8:00:00 PM 19 66.2 0.044 6.6 1.53 8.59
9/18/2021 8:15:00 PM 18.95 66.11 0.044 6.59 1.58 8.59
9/18/2021 8:30:00 PM 18.9 66.02 0.044 6.58 1.61 8.58
9/18/2021 8:45:00 PM 18.84 65.912 0.044 6.58 1.56 8.59
9/18/2021 9:00:00 PM 18.79 65.82201 0.044 6.57 1.5 8.6
9/18/2021 9:15:00 PM 18.73 65.714 0.044 6.56 1.62 8.61
9/18/2021 9:30:00 PM 18.68 65.624 0.044 6.6 1.48 8.62
9/18/2021 9:45:00 PM 18.62 65.516 0.044 6.58 1.53 8.63
9/18/2021 10:00:00 PM 18.56 65.408 0.044 6.57 1.54 8.64
9/18/2021 10:15:00 PM 18.5 65.3 0.044 6.58 1.62 8.65
9/18/2021 10:30:00 PM 18.44 65.192 0.044 6.57 1.58 8.66
9/18/2021 10:45:00 PM 18.38 65.084 0.044 6.57 1.52 8.68
9/18/2021 11:00:00 PM 18.32 64.976 0.044 6.59 1.62 8.69
9/18/2021 11:15:00 PM 18.27 64.886 0.044 6.59 1.5 8.7
9/18/2021 11:30:00 PM 18.21 64.778 0.045 6.58 1.49 8.7
9/18/2021 11:45:00 PM 18.15 64.67 0.045 6.59 1.54 8.72
9/19/2021 12:00:00 AM 18.09 64.562 0.045 6.58 1.57 8.73
9/19/2021 12:15:00 AM 18.03 64.454 0.045 6.57 1.5 8.74
9/19/2021 12:30:00 AM 17.97 64.346 0.045 6.57 1.59 8.75
9/19/2021 12:45:00 AM 17.91 64.238 0.045 6.59 1.57 8.77
9/19/2021 1:00:00 AM 17.84 64.112 0.045 6.57 1.58 8.78
9/19/2021 1:15:00 AM 17.77 63.986 0.045 6.58 1.57 8.78
9/19/2021 1:30:00 AM 17.69 63.842 0.045 6.56 1.56 8.81
9/19/2021 1:45:00 AM 17.62 63.716 0.045 6.56 1.56 8.82
9/19/2021 2:00:00 AM 17.54 63.572 0.045 6.56 1.62 8.84
9/19/2021 2:15:00 AM 17.47 63.446 0.045 6.56 1.69 8.85
9/19/2021 2:30:00 AM 17.39 63.302 0.045 6.55 1.56 8.86
9/19/2021 2:45:00 AM 17.32 63.176 0.045 6.56 1.55 8.88
9/19/2021 3:00:00 AM 17.25 63.05 0.045 6.59 1.59 8.9
9/19/2021 3:15:00 AM 17.18 62.924 0.045 6.57 1.57 8.9
9/19/2021 3:30:00 AM 17.11 62.798 0.045 6.56 1.59 8.92
9/19/2021 3:45:00 AM 17.04 62.672 0.045 6.56 1.54 8.94
9/19/2021 4:00:00 AM 16.97 62.546 0.045 6.56 1.56 8.95
9/19/2021 4:15:00 AM 16.89 62.402 0.045 6.57 1.58 8.96
9/19/2021 4:30:00 AM 16.83 62.294 0.045 6.56 1.59 8.97
9/19/2021 4:45:00 AM 16.76 62.168 0.045 6.59 1.59 8.99
9/19/2021 5:00:00 AM 16.69 62.042 0.045 6.57 1.62 9
9/19/2021 5:15:00 AM 16.62 61.916 0.045 6.57 1.58 9.01
9/19/2021 5:30:00 AM 16.55 61.79 0.045 6.57 1.58 9.03
9/19/2021 5:45:00 AM 16.49 61.682 0.045 6.57 1.6 9.05
9/19/2021 6:00:00 AM 16.42 61.556 0.045 6.58 1.6 9.06
9/19/2021 6:15:00 AM 16.36 61.448 0.045 6.57 1.61 9.08
9/19/2021 6:30:00 AM 16.3 61.34 0.045 6.58 1.61 9.09
9/19/2021 6:45:00 AM 16.23 61.214 0.045 6.6 1.54 9.11
9/19/2021 7:00:00 AM 16.17 61.106 0.045 6.59 1.6 9.14
9/19/2021 7:15:00 AM 16.11 60.998 0.045 6.59 1.6 9.18
9/19/2021 7:30:00 AM 16.07 60.926 0.045 6.6 1.52 9.22
9/19/2021 7:45:00 AM 16.03 60.854 0.045 6.64 1.55 9.31
9/19/2021 8:00:00 AM 16 60.8 0.045 6.64 1.54 9.4
9/19/2021 8:15:00 AM 15.96 60.728 0.045 6.66 1.57 9.46
9/19/2021 8:30:00 AM 15.94 60.692 0.045 6.7 1.55 9.54
9/19/2021 8:45:00 AM 15.91 60.638 0.045 6.7 1.55 9.57
9/19/2021 9:00:00 AM 15.89 60.602 0.044 6.69 1.53 9.61
9/19/2021 9:15:00 AM 15.91 60.638 0.044 6.72 1.59 9.65
9/19/2021 9:30:00 AM 15.92 60.656 0.044 6.73 1.59 9.68
9/19/2021 9:45:00 AM 15.94 60.692 0.044 6.76 1.53 9.7
9/19/2021 10:00:00 AM 15.97 60.746 0.044 6.78 1.51 9.73
9/19/2021 10:15:00 AM 16.02 60.836 0.044 6.79 1.53 9.76
9/19/2021 10:30:00 AM 16.08 60.944 0.044 6.81 1.54 9.78
9/19/2021 10:45:00 AM 16.16 61.088 0.044 6.83 1.53 9.82
9/19/2021 11:00:00 AM 16.26 61.268 0.044 6.85 1.54 9.86
9/19/2021 11:15:00 AM 16.38 61.484 0.044 6.88 1.44 9.88
9/19/2021 11:30:00 AM 16.53 61.754 0.044 6.91 1.46 9.9
9/19/2021 11:45:00 AM 16.7 62.06 0.044 6.93 1.48 9.92
9/19/2021 12:00:00 PM 16.91 62.438 0.043 6.99 1.47 9.94
9/19/2021 12:15:00 PM 17.11 62.798 0.043 6.99 1.48 9.95
9/19/2021 12:30:00 PM 17.33 63.194 0.043 7 1.51 9.95
9/19/2021 12:45:00 PM 17.53 63.554 0.043 7.02 1.46 9.94
9/19/2021 1:00:00 PM 17.73 63.914 0.043 7.03 1.43 9.92
9/19/2021 1:15:00 PM 17.9 64.22 0.043 7.05 1.43 9.91
9/19/2021 1:30:00 PM 18.07 64.526 0.043 7.05 1.46 9.9
9/19/2021 1:45:00 PM 18.19 64.742 0.043 7.05 1.46 9.87
9/19/2021 2:00:00 PM 18.3 64.94 0.043 7.06 1.45 9.85
9/19/2021 2:15:00 PM 18.39 65.102 0.043 7.06 1.45 9.84
9/19/2021 2:30:00 PM 18.44 65.192 0.043 7.04 1.44 9.82
9/19/2021 2:45:00 PM 18.48 65.264 0.043 7.03 1.39 9.81
9/19/2021 3:00:00 PM 18.48 65.264 0.043 7.04 1.4 9.77
9/19/2021 3:15:00 PM 18.45 65.21 0.043 7 1.41 9.75
9/19/2021 3:30:00 PM 18.41 65.138 0.043 6.98 1.4 9.71
9/19/2021 3:45:00 PM 18.36 65.048 0.043 6.95 1.43 9.67
9/19/2021 4:00:00 PM 18.28 64.904 0.043 6.92 1.38 9.63
9/19/2021 4:15:00 PM 18.19 64.742 0.043 6.87 1.44 9.57
9/19/2021 4:30:00 PM 18.09 64.562 0.043 6.83 1.49 9.53
9/19/2021 4:45:00 PM 17.99 64.382 0.043 6.81 1.43 9.48
9/19/2021 5:00:00 PM 17.89 64.202 0.044 6.78 1.51 9.43
9/19/2021 5:15:00 PM 17.78 64.004 0.044 6.73 1.47 9.37
9/19/2021 5:30:00 PM 17.67 63.806 0.044 6.71 1.45 9.31
9/19/2021 5:45:00 PM 17.58 63.644 0.044 6.69 1.45 9.26
9/19/2021 6:00:00 PM 17.49 63.482 0.044 6.67 1.43 9.22
9/19/2021 6:15:00 PM 17.42 63.356 0.044 6.69 1.54 9.19
9/19/2021 6:30:00 PM 17.35 63.23 0.044 6.65 1.43 9.16
9/19/2021 6:45:00 PM 17.29 63.122 0.044 6.65 1.4 9.11
9/19/2021 7:00:00 PM 17.24 63.032 0.044 6.66 1.47 9.07
9/19/2021 7:15:00 PM 17.2 62.96 0.044 6.62 1.43 9.01
9/19/2021 7:30:00 PM 17.16 62.888 0.044 6.61 1.48 8.98
9/19/2021 7:45:00 PM 17.12 62.816 0.044 6.61 1.48 8.96
9/19/2021 8:00:00 PM 17.07 62.726 0.044 6.63 1.49 8.95
9/19/2021 8:15:00 PM 17.01 62.618 0.044 6.6 1.41 8.94
9/19/2021 8:30:00 PM 16.96 62.528 0.044 6.59 1.48 8.95
9/19/2021 8:45:00 PM 16.9 62.42 0.044 6.58 1.42 8.96
9/19/2021 9:00:00 PM 16.85 62.33 0.044 6.58 1.44 8.96
9/19/2021 9:15:00 PM 16.78 62.204 0.044 6.61 1.44 8.98
9/19/2021 9:30:00 PM 16.73 62.114 0.045 6.58 1.46 8.99
9/19/2021 9:45:00 PM 16.66 61.988 0.045 6.58 1.45 9
9/19/2021 10:00:00 PM 16.59 61.862 0.045 6.58 1.39 9.02
9/19/2021 10:15:00 PM 16.53 61.754 0.045 6.6 1.48 9.03
9/19/2021 10:30:00 PM 16.45 61.61 0.045 6.57 1.44 9.05
9/19/2021 10:45:00 PM 16.38 61.484 0.045 6.57 1.46 9.07
9/19/2021 11:00:00 PM 16.31 61.358 0.045 6.57 1.46 9.08
9/19/2021 11:15:00 PM 16.24 61.232 0.045 6.56 1.42 9.1
9/19/2021 11:30:00 PM 16.17 61.106 0.045 6.57 1.5 9.1
9/19/2021 11:45:00 PM 16.1 60.98 0.045 6.57 1.42 9.13
9/20/2021 12:00:00 AM 16.02 60.836 0.045 6.57 1.5 9.15
9/20/2021 12:15:00 AM 15.95 60.71 0.045 6.57 1.49 9.16
9/20/2021 12:30:00 AM 15.88 60.584 0.045 6.57 1.45 9.18
9/20/2021 12:45:00 AM 15.8 60.44 0.045 6.57 1.45 9.19
9/20/2021 1:00:00 AM 15.74 60.332 0.045 6.58 1.44 9.19
9/20/2021 1:15:00 AM 15.66 60.188 0.045 6.58 1.48 9.22
9/20/2021 1:30:00 AM 15.59 60.062 0.045 6.58 1.47 9.24
9/20/2021 1:45:00 AM 15.53 59.954 0.045 6.59 1.44 9.25
9/20/2021 2:00:00 AM 15.46 59.828 0.045 6.58 1.45 9.26
9/20/2021 2:15:00 AM 15.38 59.684 0.045 6.58 1.49 9.28
9/20/2021 2:30:00 AM 15.32 59.576 0.045 6.58 1.45 9.3
9/20/2021 2:45:00 AM 15.24 59.432 0.045 6.58 1.49 9.32
9/20/2021 3:00:00 AM 15.18 59.324 0.045 6.58 1.39 9.32
9/20/2021 3:15:00 AM 15.11 59.198 0.045 6.59 1.43 9.34
9/20/2021 3:30:00 AM 15.04 59.072 0.046 6.59 1.44 9.36
9/20/2021 3:45:00 AM 14.97 58.946 0.046 6.58 1.44 9.38
9/20/2021 4:00:00 AM 14.91 58.838 0.046 6.59 1.47 9.39
9/20/2021 4:15:00 AM 14.84 58.712 0.046 6.6 1.47 9.41
9/20/2021 4:30:00 AM 14.78 58.604 0.046 6.59 1.45 9.42
9/20/2021 4:45:00 AM 14.72 58.496 0.046 6.59 1.46 9.43
9/20/2021 5:00:00 AM 14.66 58.388 0.046 6.59 1.51 9.45
9/20/2021 5:15:00 AM 14.59 58.262 0.046 6.59 1.43 9.47
9/20/2021 5:30:00 AM 14.53 58.154 0.046 6.59 1.46 9.48
9/20/2021 5:45:00 AM 14.47 58.046 0.046 6.59 1.47 9.5
9/20/2021 6:00:00 AM 14.41 57.938 0.046 6.6 1.46 9.51
9/20/2021 6:15:00 AM 14.35 57.83 0.046 6.59 1.5 9.52
9/20/2021 6:30:00 AM 14.3 57.74 0.046 6.62 1.44 9.54
9/20/2021 6:45:00 AM 14.24 57.632 0.046 6.61 1.52 9.56
9/20/2021 7:00:00 AM 14.19 57.542 0.046 6.62 1.47 9.58
9/20/2021 7:15:00 AM 14.14 57.452 0.046 6.6 1.45 9.62
9/20/2021 7:30:00 AM 14.09 57.362 0.046 6.64 1.48 9.67
9/20/2021 7:45:00 AM 14.06 57.308 0.046 6.64 1.43 9.74
9/20/2021 8:00:00 AM 14.03 57.254 0.046 6.65 1.52 9.81
9/20/2021 8:15:00 AM 14.04 57.272 0.045 6.67 1.37 9.85
9/20/2021 8:30:00 AM 14.02 57.236 0.045 6.68 1.44 9.9
9/20/2021 8:45:00 AM 14.01 57.218 0.045 6.69 1.62 9.94
9/20/2021 9:00:00 AM 14.02 57.236 0.045 6.71 1.44 10
9/20/2021 9:15:00 AM 14.05 57.29 0.045 6.75 1.44 10.05
9/20/2021 9:30:00 AM 14.08 57.344 0.045 6.76 1.46 10.09
9/20/2021 9:45:00 AM 14.14 57.452 0.045 6.77 1.42 10.12
9/20/2021 10:00:00 AM 14.21 57.578 0.045 6.79 1.46 10.16
9/20/2021 10:15:00 AM 14.29 57.722 0.045 6.81 1.39 10.18
9/20/2021 10:30:00 AM 14.39 57.902 0.045 6.84 1.41 10.22
9/20/2021 10:45:00 AM 14.51 58.118 0.045 6.86 1.45 10.24
9/20/2021 11:00:00 AM 14.65 58.37 0.045 6.91 1.44 10.28
9/20/2021 11:15:00 AM 14.81 58.658 0.045 6.92 1.47 10.3
9/20/2021 11:30:00 AM 15 59 0.045 6.94 1.43 10.31
9/20/2021 11:45:00 AM 15.22 59.396 0.045 6.96 1.34 10.31
9/20/2021 12:00:00 PM 15.47 59.846 0.045 6.99 1.34 10.32
9/20/2021 12:15:00 PM 15.74 60.332 0.044 7.01 1.43 10.32
9/20/2021 12:30:00 PM 16.01 60.818 0.044 7.03 1.42 10.31
9/20/2021 12:45:00 PM 16.27 61.286 0.044 7.05 1.37 10.29
9/20/2021 1:00:00 PM 16.5 61.7 0.044 7.06 1.37 10.25
9/20/2021 1:15:00 PM 16.74 62.132 0.044 7.08 1.36 10.24
9/20/2021 1:30:00 PM 16.94 62.492 0.044 7.08 1.35 10.21
9/20/2021 1:45:00 PM 17.13 62.834 0.044 7.09 1.41 10.18
9/20/2021 2:00:00 PM 17.28 63.104 0.044 7.11 1.41 10.15
9/20/2021 2:15:00 PM 17.4 63.32 0.044 7.1 1.38 10.13
9/20/2021 2:30:00 PM 17.51 63.518 0.044 7.09 1.34 10.1
9/20/2021 2:45:00 PM 17.56 63.608 0.044 7.08 1.37 10.08
9/20/2021 3:00:00 PM 17.61 63.698 0.045 7.06 1.36 10.05
9/20/2021 3:15:00 PM 17.63 63.734 0.044 7.07 1.35 10
9/20/2021 3:30:00 PM 17.64 63.752 0.045 7.02 1.35 9.95
9/20/2021 3:45:00 PM 17.61 63.698 0.045 7 1.4 9.92
9/20/2021 4:00:00 PM 17.56 63.608 0.045 6.97 1.32 9.88
9/20/2021 4:15:00 PM 17.51 63.518 0.045 6.95 1.35 9.84
9/20/2021 4:30:00 PM 17.44 63.392 0.045 6.92 1.34 9.8
9/20/2021 4:45:00 PM 17.36 63.248 0.045 6.89 1.32 9.77
9/20/2021 5:00:00 PM 17.28 63.104 0.045 6.86 1.39 9.73
9/20/2021 5:15:00 PM 17.16 62.888 0.045 6.83 1.4 9.66
9/20/2021 5:30:00 PM 17.06 62.708 0.045 6.78 1.37 9.58
9/20/2021 5:45:00 PM 16.94 62.492 0.045 6.74 1.4 9.5
9/20/2021 6:00:00 PM 16.84 62.312 0.045 6.71 1.36 9.45
9/20/2021 6:15:00 PM 16.76 62.168 0.045 6.69 1.33 9.41
9/20/2021 6:30:00 PM 16.71 62.078 0.045 6.68 1.39 9.36
9/20/2021 6:45:00 PM 16.68 62.024 0.045 6.67 1.39 9.3
9/20/2021 7:00:00 PM 16.66 61.988 0.045 6.67 1.36 9.24
9/20/2021 7:15:00 PM 16.63 61.934 0.045 6.68 1.36 9.17
9/20/2021 7:30:00 PM 16.6 61.88 0.045 6.64 1.41 9.12
9/20/2021 7:45:00 PM 16.58 61.844 0.046 6.63 1.4 9.09
9/20/2021 8:00:00 PM 16.55 61.79 0.046 6.63 1.4 9.06
9/20/2021 8:15:00 PM 16.52 61.736 0.046 6.62 1.43 9.05
9/20/2021 8:30:00 PM 16.5 61.7 0.046 6.63 1.38 9.05
9/20/2021 8:45:00 PM 16.47 61.646 0.046 6.62 1.4 9.05
9/20/2021 9:00:00 PM 16.44 61.592 0.046 6.64 1.4 9.05
9/20/2021 9:15:00 PM 16.41 61.538 0.046 6.62 1.37 9.05
9/20/2021 9:30:00 PM 16.38 61.484 0.046 6.62 1.4 9.05
9/20/2021 9:45:00 PM 16.35 61.43 0.046 6.61 1.42 9.06
9/20/2021 10:00:00 PM 16.31 61.358 0.046 6.63 1.37 9.07
9/20/2021 10:15:00 PM 16.27 61.286 0.046 6.61 1.36 9.08
9/20/2021 10:30:00 PM 16.23 61.214 0.046 6.62 1.38 9.09
9/20/2021 10:45:00 PM 16.18 61.124 0.046 6.61 1.4 9.09
9/20/2021 11:00:00 PM 16.14 61.052 0.046 6.61 1.39 9.1
9/20/2021 11:15:00 PM 16.1 60.98 0.046 6.6 1.43 9.1
9/20/2021 11:30:00 PM 16.05 60.89 0.046 6.6 1.38 9.12
9/20/2021 11:45:00 PM 16.01 60.818 0.046 6.6 1.37 9.13
9/21/2021 12:00:00 AM 15.97 60.746 0.046 6.62 1.41 9.14
9/21/2021 12:15:00 AM 15.92 60.656 0.046 6.6 1.41 9.15
9/21/2021 12:30:00 AM 15.89 60.602 0.047 6.6 1.45 9.16
9/21/2021 12:45:00 AM 15.86 60.548 0.047 6.6 1.39 9.18
9/21/2021 1:00:00 AM 15.83 60.494 0.047 6.61 1.41 9.17
9/21/2021 1:15:00 AM 15.8 60.44 0.047 6.61 1.33 9.18
9/21/2021 1:30:00 AM 15.76 60.368 0.047 6.61 1.34 9.19
9/21/2021 1:45:00 AM 15.72 60.296 0.047 6.61 1.37 9.2
9/21/2021 2:00:00 AM 15.68 60.224 0.047 6.61 1.37 9.21
9/21/2021 2:15:00 AM 15.63 60.134 0.047 6.61 1.34 9.22
9/21/2021 2:30:00 AM 15.58 60.044 0.047 6.63 1.34 9.23
9/21/2021 2:45:00 AM 15.54 59.972 0.047 6.61 1.48 9.23
9/21/2021 3:00:00 AM 15.5 59.9 0.047 6.61 1.35 9.25
9/21/2021 3:15:00 AM 15.48 59.864 0.047 6.62 1.41 9.26
9/21/2021 3:30:00 AM 15.45 59.81 0.047 6.62 1.38 9.26
9/21/2021 3:45:00 AM 15.43 59.774 0.047 6.65 1.42 9.27
9/21/2021 4:00:00 AM 15.4 59.72 0.047 6.63 1.46 9.28
9/21/2021 4:15:00 AM 15.38 59.684 0.047 6.63 1.39 9.28
9/21/2021 4:30:00 AM 15.35 59.63 0.047 6.64 1.37 9.3
9/21/2021 4:45:00 AM 15.32 59.576 0.047 6.62 1.39 9.3
9/21/2021 5:00:00 AM 15.29 59.522 0.047 6.62 1.44 9.3
9/21/2021 5:15:00 AM 15.26 59.468 0.047 6.65 1.38 9.31
9/21/2021 5:30:00 AM 15.23 59.414 0.047 6.63 1.41 9.32
9/21/2021 5:45:00 AM 15.2 59.36 0.047 6.63 1.39 9.33
9/21/2021 6:00:00 AM 15.16 59.288 0.047 6.62 1.46 9.33
9/21/2021 6:15:00 AM 15.12 59.216 0.047 6.63 1.49 9.34
9/21/2021 6:30:00 AM 15.1 59.18 0.047 6.62 1.36 9.34
9/21/2021 6:45:00 AM 15.08 59.144 0.047 6.63 1.41 9.36
9/21/2021 7:00:00 AM 15.05 59.09 0.047 6.63 1.45 9.38
9/21/2021 7:15:00 AM 15.03 59.054 0.047 6.66 1.36 9.43
9/21/2021 7:30:00 AM 15.02 59.036 0.047 6.67 1.4 9.56
9/21/2021 7:45:00 AM 15.01 59.018 0.047 6.69 1.41 9.68
9/21/2021 8:00:00 AM 15 59 0.047 6.73 1.34 9.77
9/21/2021 8:15:00 AM 14.99 58.982 0.047 6.73 1.36 9.76
9/21/2021 8:30:00 AM 15 59 0.047 6.74 1.33 9.82
9/21/2021 8:45:00 AM 15.02 59.036 0.047 6.75 1.36 9.87
9/21/2021 9:00:00 AM 15.03 59.054 0.047 6.76 1.36 9.88
9/21/2021 9:15:00 AM 15.07 59.126 0.046 6.79 1.36 9.99
9/21/2021 9:30:00 AM 15.13 59.234 0.046 6.84 1.34 10.17
9/21/2021 9:45:00 AM 15.15 59.27 0.046 6.87 1.37 10.1
9/21/2021 10:00:00 AM 15.18 59.324 0.046 6.85 1.52 10.08
9/21/2021 10:15:00 AM 15.23 59.414 0.046 6.86 1.36 10.07
9/21/2021 10:30:00 AM 15.31 59.558 0.046 6.9 1.36 10.21
9/21/2021 10:45:00 AM 15.39 59.702 0.046 6.94 1.34 10.31
9/21/2021 11:00:00 AM 15.44 59.792 0.046 6.96 1.39 10.3
9/21/2021 11:15:00 AM 15.54 59.972 0.046 7 1.29 10.3
9/21/2021 11:30:00 AM 15.64 60.152 0.046 7.02 1.33 10.37
9/21/2021 11:45:00 AM 15.77 60.386 0.046 7.05 1.38 10.42
9/21/2021 12:00:00 PM 15.91 60.638 0.046 7.1 1.31 10.44
9/21/2021 12:15:00 PM 16.05 60.89 0.046 7.11 1.37 10.44
9/21/2021 12:30:00 PM 16.18 61.124 0.046 7.14 1.35 10.42
9/21/2021 12:45:00 PM 16.31 61.358 0.045 7.15 1.38 10.39
9/21/2021 1:00:00 PM 16.43 61.574 0.045 7.16 1.35 10.4
9/21/2021 1:15:00 PM 16.62 61.916 0.045 7.19 1.34 10.42
9/21/2021 1:30:00 PM 16.67 62.006 0.045 7.16 1.32 10.31
9/21/2021 1:45:00 PM 16.66 61.988 0.046 7.12 1.35 10.26
9/21/2021 2:00:00 PM 16.67 62.006 0.046 7.09 1.33 10.21
9/21/2021 2:15:00 PM 16.67 62.006 0.046 7.06 1.34 10.11
9/21/2021 2:30:00 PM 16.65 61.97 0.046 7.01 1.29 10.01
9/21/2021 2:45:00 PM 16.67 62.006 0.046 6.98 1.3 10.02
9/21/2021 3:00:00 PM 16.75 62.15 0.046 7.04 1.32 10.12
9/21/2021 3:15:00 PM 16.76 62.168 0.046 7.05 1.34 10.08
9/21/2021 3:30:00 PM 16.76 62.168 0.046 7.02 1.4 10.02
9/21/2021 3:45:00 PM 16.78 62.204 0.046 7 1.34 10
9/21/2021 4:00:00 PM 16.79 62.222 0.046 6.99 1.37 9.98
9/21/2021 4:15:00 PM 16.78 62.204 0.046 6.99 1.32 9.93
9/21/2021 4:30:00 PM 16.77 62.186 0.046 6.96 1.4 9.89
9/21/2021 4:45:00 PM 16.77 62.186 0.046 6.94 1.3 9.92
9/21/2021 5:00:00 PM 16.78 62.204 0.046 6.95 1.3 9.93
9/21/2021 5:15:00 PM 16.77 62.186 0.046 6.93 1.33 9.81
9/21/2021 5:30:00 PM 16.76 62.168 0.046 6.88 1.3 9.68
9/21/2021 5:45:00 PM 16.76 62.168 0.046 6.84 1.34 9.62
9/21/2021 6:00:00 PM 16.75 62.15 0.046 6.82 1.41 9.54
9/21/2021 6:15:00 PM 16.72 62.096 0.046 6.77 1.32 9.39
9/21/2021 6:30:00 PM 16.7 62.06 0.046 6.74 1.34 9.28
9/21/2021 6:45:00 PM 16.68 62.024 0.046 6.72 1.3 9.21
9/21/2021 7:00:00 PM 16.66 61.988 0.046 6.69 1.29 9.16
9/21/2021 7:15:00 PM 16.64 61.952 0.047 6.67 1.41 9.1
9/21/2021 7:30:00 PM 16.62 61.916 0.047 6.65 1.31 9.06
9/21/2021 7:45:00 PM 16.59 61.862 0.047 6.64 1.32 9.04
9/21/2021 8:00:00 PM 16.56 61.808 0.047 6.63 1.32 9.02
9/21/2021 8:15:00 PM 16.53 61.754 0.047 6.63 1.34 9.03
9/21/2021 8:30:00 PM 16.51 61.718 0.047 6.62 1.33 9.02
9/21/2021 8:45:00 PM 16.48 61.664 0.047 6.64 1.4 9.02
9/21/2021 9:00:00 PM 16.45 61.61 0.047 6.61 1.36 9.02
9/21/2021 9:15:00 PM 16.43 61.574 0.047 6.61 1.33 9.03
9/21/2021 9:30:00 PM 16.4 61.52 0.047 6.61 1.3 9.02
9/21/2021 9:45:00 PM 16.38 61.484 0.047 6.61 1.34 9.03
9/21/2021 10:00:00 PM 16.35 61.43 0.047 6.61 1.33 9.03
9/21/2021 10:15:00 PM 16.33 61.394 0.047 6.61 1.31 9.03
9/21/2021 10:30:00 PM 16.31 61.358 0.047 6.62 1.31 9.04
9/21/2021 10:45:00 PM 16.29 61.322 0.047 6.61 1.33 9.05
9/21/2021 11:00:00 PM 16.28 61.304 0.047 6.61 1.3 9.06
9/21/2021 11:15:00 PM 16.27 61.286 0.047 6.61 1.36 9.05
9/21/2021 11:30:00 PM 16.26 61.268 0.047 6.62 1.26 9.05
9/21/2021 11:45:00 PM 16.25 61.25 0.048 6.62 1.33 9.05
9/22/2021 12:00:00 AM 16.24 61.232 0.048 6.62 1.34 9.06
9/22/2021 12:15:00 AM 16.22 61.196 0.048 6.62 1.35 9.07
9/22/2021 12:30:00 AM 16.22 61.196 0.048 6.63 1.33 9.07
9/22/2021 12:45:00 AM 16.21 61.178 0.048 6.63 1.27 9.06
9/22/2021 1:00:00 AM 16.21 61.178 0.048 6.62 1.29 9.05
9/22/2021 1:15:00 AM 16.2 61.16 0.048 6.62 1.26 9.06
9/22/2021 1:30:00 AM 16.19 61.142 0.048 6.63 1.32 9.06
9/22/2021 1:45:00 AM 16.18 61.124 0.048 6.62 1.3 9.07
9/22/2021 2:00:00 AM 16.17 61.106 0.048 6.62 1.28 9.06
9/22/2021 2:15:00 AM 16.17 61.106 0.048 6.61 1.33 9.06
9/22/2021 2:30:00 AM 16.16 61.088 0.048 6.61 1.41 9.07
9/22/2021 2:45:00 AM 16.15 61.07 0.048 6.6 1.32 9.06
9/22/2021 3:00:00 AM 16.14 61.052 0.048 6.6 1.29 9.06
9/22/2021 3:15:00 AM 16.13 61.034 0.048 6.6 1.28 9.07
9/22/2021 3:30:00 AM 16.12 61.016 0.048 6.59 1.34 9.06
9/22/2021 3:45:00 AM 16.1 60.98 0.048 6.6 1.31 9.06
9/22/2021 4:00:00 AM 16.08 60.944 0.048 6.6 1.35 9.06
9/22/2021 4:15:00 AM 16.07 60.926 0.048 6.63 1.33 9.06
9/22/2021 4:30:00 AM 16.05 60.89 0.048 6.61 1.33 9.07
9/22/2021 4:45:00 AM 16.04 60.872 0.048 6.6 1.38 9.07
9/22/2021 5:00:00 AM 16.02 60.836 0.048 6.61 1.33 9.07
9/22/2021 5:15:00 AM 16.01 60.818 0.048 6.61 1.33 9.07
9/22/2021 5:30:00 AM 16 60.8 0.048 6.61 1.31 9.08
9/22/2021 5:45:00 AM 15.99 60.782 0.048 6.61 1.97 9.08
9/22/2021 6:00:00 AM 15.98 60.764 0.048 6.63 1.34 9.09
9/22/2021 6:15:00 AM 15.97 60.746 0.048 6.62 1.31 9.09
9/22/2021 6:30:00 AM 15.95 60.71 0.048 6.62 1.26 9.09
9/22/2021 6:45:00 AM 15.94 60.692 0.048 6.62 1.31 9.1
9/22/2021 7:00:00 AM 15.93 60.674 0.048 6.62 1.35 9.11
9/22/2021 7:15:00 AM 15.92 60.656 0.048 6.61 1.28 9.13
9/22/2021 7:30:00 AM 15.92 60.656 0.048 6.62 1.31 9.17
9/22/2021 7:45:00 AM 15.92 60.656 0.048 6.63 1.28 9.23
9/22/2021 8:00:00 AM 15.93 60.674 0.048 6.67 1.31 9.31
9/22/2021 8:15:00 AM 15.94 60.692 0.048 6.67 1.31 9.39
9/22/2021 8:30:00 AM 15.95 60.71 0.047 6.68 1.3 9.41
9/22/2021 8:45:00 AM 15.97 60.746 0.047 6.72 1.3 9.53
9/22/2021 9:00:00 AM 16.01 60.818 0.047 6.73 1.36 9.65
9/22/2021 9:15:00 AM 16.05 60.89 0.047 6.78 1.31 9.74
9/22/2021 9:30:00 AM 16.1 60.98 0.047 6.8 1.3 9.83
9/22/2021 9:45:00 AM 16.15 61.07 0.047 6.82 1.32 9.87
9/22/2021 10:00:00 AM 16.22 61.196 0.047 6.86 1.34 9.93
9/22/2021 10:15:00 AM 16.24 61.232 0.047 6.85 1.34 9.85
9/22/2021 10:30:00 AM 16.28 61.304 0.047 6.86 1.4 9.77
9/22/2021 10:45:00 AM 16.38 61.484 0.047 6.91 1.34 9.95
9/22/2021 11:00:00 AM 16.42 61.556 0.047 6.91 1.28 9.93
9/22/2021 11:15:00 AM 16.47 61.646 0.047 6.9 1.31 9.9
9/22/2021 11:30:00 AM 16.55 61.79 0.047 6.94 1.27 9.99
9/22/2021 11:45:00 AM 16.68 62.024 0.046 7.01 1.27 10.13
9/22/2021 12:00:00 PM 16.84 62.312 0.046 7.07 1.31 10.19
9/22/2021 12:15:00 PM 16.93 62.474 0.046 7.09 1.26 10.2
9/22/2021 12:30:00 PM 17.05 62.69 0.046 7.13 1.23 10.21
9/22/2021 12:45:00 PM 17.15 62.87 0.046 7.13 1.35 10.15
9/22/2021 1:00:00 PM 17.21 62.978 0.046 7.15 1.24 10.12
9/22/2021 1:15:00 PM 17.27 63.086 0.046 7.11 1.26 10.06
9/22/2021 1:30:00 PM 17.32 63.176 0.046 7.1 1.28 10.03
9/22/2021 1:45:00 PM 17.41 63.338 0.046 7.13 1.27 10.06
9/22/2021 2:00:00 PM 17.45 63.41 0.046 7.09 1.26 9.93
9/22/2021 2:15:00 PM 17.49 63.482 0.046 7.05 1.24 9.83
9/22/2021 2:30:00 PM 17.6 63.68 0.046 7.09 1.24 9.96
9/22/2021 2:45:00 PM 17.66 63.788 0.046 7.1 1.25 9.91
9/22/2021 3:00:00 PM 17.71 63.878 0.046 7.12 1.2 9.94
9/22/2021 3:15:00 PM 17.79 64.022 0.046 7.13 1.23 9.96
9/22/2021 3:30:00 PM 17.83 64.094 0.046 7.16 1.22 9.93
9/22/2021 3:45:00 PM 17.86 64.148 0.046 7.12 1.16 9.92
9/22/2021 4:00:00 PM 17.89 64.202 0.046 7.11 1.26 9.87
9/22/2021 4:15:00 PM 17.86 64.148 0.046 7.03 1.28 9.68
9/22/2021 4:30:00 PM 17.85 64.13 0.046 6.95 1.21 9.52
9/22/2021 4:45:00 PM 17.83 64.094 0.046 6.93 1.23 9.43
9/22/2021 5:00:00 PM 17.81 64.058 0.046 6.85 1.24 9.28
9/22/2021 5:15:00 PM 17.77 63.986 0.047 6.8 1.25 9.13
9/22/2021 5:30:00 PM 17.74 63.932 0.047 6.77 1.26 9.11
9/22/2021 5:45:00 PM 17.71 63.878 0.047 6.77 1.29 9.09
9/22/2021 6:00:00 PM 17.68 63.824 0.047 6.73 1.24 9.07
9/22/2021 6:15:00 PM 17.65 63.77 0.047 6.72 1.31 9.05
9/22/2021 6:30:00 PM 17.61 63.698 0.047 6.7 1.26 8.99
9/22/2021 6:45:00 PM 17.58 63.644 0.047 6.67 1.83 8.93
9/22/2021 7:00:00 PM 17.54 63.572 0.047 6.65 1.24 8.88
9/22/2021 7:15:00 PM 17.51 63.518 0.047 6.65 1.28 8.82
9/22/2021 7:30:00 PM 17.49 63.482 0.047 6.62 1.28 8.78
9/22/2021 7:45:00 PM 17.47 63.446 0.047 6.64 1.26 8.74
9/22/2021 8:00:00 PM 17.45 63.41 0.047 6.62 1.23 8.74
9/22/2021 8:15:00 PM 17.44 63.392 0.047 6.63 1.54 8.74
9/22/2021 8:30:00 PM 17.42 63.356 0.048 6.62 1.38 8.74
9/22/2021 8:45:00 PM 17.41 63.338 0.048 6.62 1.27 8.74
9/22/2021 9:00:00 PM 17.39 63.302 0.048 6.61 1.32 8.71
9/22/2021 9:15:00 PM 17.38 63.284 0.048 6.62 1.31 8.74
9/22/2021 9:30:00 PM 17.37 63.266 0.048 6.62 1.36 8.74
9/22/2021 9:45:00 PM 17.36 63.248 0.048 6.62 1.36 8.74
9/22/2021 10:00:00 PM 17.36 63.248 0.048 6.62 1.35 8.74
9/22/2021 10:15:00 PM 17.35 63.23 0.048 6.65 1.39 8.74
9/22/2021 10:30:00 PM 17.34 63.212 0.048 6.64 1.38 8.73
9/22/2021 10:45:00 PM 17.33 63.194 0.048 6.64 1.35 8.74
9/22/2021 11:00:00 PM 17.32 63.176 0.048 6.63 1.32 8.75
9/22/2021 11:15:00 PM 17.31 63.158 0.048 6.62 1.31 8.74
9/22/2021 11:30:00 PM 17.3 63.14 0.048 6.63 1.32 8.75
9/22/2021 11:45:00 PM 17.3 63.14 0.048 6.63 1.29 8.74
9/23/2021 12:00:00 AM 17.3 63.14 0.048 6.63 1.32 8.76
9/23/2021 12:15:00 AM 17.3 63.14 0.048 6.63 1.31 8.75
9/23/2021 12:30:00 AM 17.29 63.122 0.048 6.63 1.32 8.76
9/23/2021 12:45:00 AM 17.28 63.104 0.048 6.63 1.34 8.75
9/23/2021 1:00:00 AM 17.28 63.104 0.048 6.63 1.32 8.76
9/23/2021 1:15:00 AM 17.27 63.086 0.048 6.66 1.3 8.77
9/23/2021 1:30:00 AM 17.27 63.086 0.048 6.63 1.32 8.76
9/23/2021 1:45:00 AM 17.27 63.086 0.048 6.63 1.32 8.76
9/23/2021 2:00:00 AM 17.27 63.086 0.048 6.64 1.29 8.76
9/23/2021 2:15:00 AM 17.26 63.068 0.048 6.63 1.37 8.76
9/23/2021 2:30:00 AM 17.26 63.068 0.048 6.64 1.3 8.76
9/23/2021 2:45:00 AM 17.26 63.068 0.048 6.65 1.38 8.76
9/23/2021 3:00:00 AM 17.25 63.05 0.048 6.63 1.32 8.76
9/23/2021 3:15:00 AM 17.26 63.068 0.048 6.66 1.34 8.76
9/23/2021 3:30:00 AM 17.25 63.05 0.048 6.63 1.31 8.76
9/23/2021 3:45:00 AM 17.24 63.032 0.048 6.63 1.38 8.77
9/23/2021 4:00:00 AM 17.24 63.032 0.048 6.63 1.3 8.76
9/23/2021 4:15:00 AM 17.23 63.014 0.048 6.62 1.29 8.77
9/23/2021 4:30:00 AM 17.22 62.996 0.048 6.62 1.4 8.76
9/23/2021 4:45:00 AM 17.21 62.978 0.048 6.65 1.34 8.77
9/23/2021 5:00:00 AM 17.2 62.96 0.048 6.63 1.36 8.76
9/23/2021 5:15:00 AM 17.2 62.96 0.048 6.64 1.36 8.77
9/23/2021 5:30:00 AM 17.19 62.942 0.048 6.64 1.29 8.78
9/23/2021 5:45:00 AM 17.17 62.906 0.048 6.63 1.36 8.76
9/23/2021 6:00:00 AM 17.17 62.906 0.047 6.63 1.36 8.77
9/23/2021 6:15:00 AM 17.17 62.906 0.047 6.66 1.37 8.78
9/23/2021 6:30:00 AM 17.16 62.888 0.048 6.64 1.36 8.78
9/23/2021 6:45:00 AM 17.15 62.87 0.047 6.63 1.34 8.78
9/23/2021 7:00:00 AM 17.15 62.87 0.047 6.63 1.38 8.79
9/23/2021 7:15:00 AM 17.14 62.852 0.047 6.63 1.33 8.81
9/23/2021 7:30:00 AM 17.14 62.852 0.047 6.66 1.4 8.84
9/23/2021 7:45:00 AM 17.15 62.87 0.047 6.66 1.4 8.95
9/23/2021 8:00:00 AM 17.16 62.888 0.047 6.67 1.35 9.04
9/23/2021 8:15:00 AM 17.17 62.906 0.047 6.7 1.36 9.09
9/23/2021 8:30:00 AM 17.18 62.924 0.047 6.72 1.34 9.1
9/23/2021 8:45:00 AM 17.18 62.924 0.047 6.71 1.36 9.06
9/23/2021 9:00:00 AM 17.19 62.942 0.047 6.72 1.36 9.06
9/23/2021 9:15:00 AM 17.2 62.96 0.047 6.72 1.32 9.1
9/23/2021 9:30:00 AM 17.21 62.978 0.047 6.73 1.31 9.09
9/23/2021 9:45:00 AM 17.23 63.014 0.047 6.74 1.4 9.09
9/23/2021 10:00:00 AM 17.25 63.05 0.047 6.75 1.29 9.1
9/23/2021 10:15:00 AM 17.27 63.086 0.047 6.75 1.39 9.1
9/23/2021 10:30:00 AM 17.31 63.158 0.047 6.74 1.53 9.05
9/23/2021 10:45:00 AM 17.31 63.158 0.047 6.73 1.41 9.04
9/23/2021 11:00:00 AM 17.31 63.158 0.047 6.73 1.48 9.04
9/23/2021 11:15:00 AM 17.29 63.122 0.047 6.72 1.6 9.01
9/23/2021 11:30:00 AM 17.27 63.086 0.046 6.72 1.67 8.99
9/23/2021 11:45:00 AM 17.26 63.068 0.046 6.72 2.02 8.99
9/23/2021 12:00:00 PM 17.25 63.05 0.047 6.72 3.15 9.01
9/23/2021 12:15:00 PM 17.25 63.05 0.051 6.78 9.59 9
9/23/2021 12:30:00 PM 17.32 63.176 0.061 6.87 27.01 9.01
9/23/2021 12:45:00 PM 17.41 63.338 0.045 6.93 89.02 9.01
9/23/2021 1:00:00 PM 17.43 63.374 0.055 6.95 92.68 9.03
9/23/2021 1:15:00 PM 17.45 63.41 0.06 6.92 85.8 9.04
9/23/2021 1:30:00 PM 17.43 63.374 0.059 6.9 79.47 9.05
9/23/2021 1:45:00 PM 17.41 63.338 0.056 6.86 65.07 9.06
9/23/2021 2:00:00 PM 17.38 63.284 0.055 6.85 52.85 9.07
9/23/2021 2:15:00 PM 17.35 63.23 0.054 6.82 43.77 9.08
9/23/2021 2:30:00 PM 17.32 63.176 0.053 6.84 37.32 9.09
9/23/2021 2:45:00 PM 17.27 63.086 0.053 6.8 34.97 9.1
9/23/2021 3:00:00 PM 17.22 62.996 0.051 6.8 34.9 9.12
9/23/2021 3:15:00 PM 17.16 62.888 0.049 6.76 38.53 9.16
9/23/2021 3:30:00 PM 17.09 62.762 0.045 6.72 41.03 9.19
9/23/2021 3:45:00 PM 17.07 62.726 0.042 6.67 40.56 9.21
9/23/2021 4:00:00 PM 17.06 62.708 0.04 6.66 40.44 9.22
9/23/2021 4:15:00 PM 17.04 62.672 0.039 6.63 45.24 9.22
9/23/2021 4:30:00 PM 17 62.6 0.037 6.59 48.24 9.22
9/23/2021 4:45:00 PM 16.95 62.51 0.036 6.58 51.03 9.22
9/23/2021 5:00:00 PM 16.93 62.474 0.035 6.52 50.57 9.23
9/23/2021 5:15:00 PM 16.91 62.438 0.035 6.54 48.55 9.24
9/23/2021 5:30:00 PM 16.9 62.42 0.034 6.5 34.4 9.24
9/23/2021 5:45:00 PM 16.9 62.42 0.023 6.49 35.07 9.24
9/23/2021 6:00:00 PM 16.89 62.402 0.033 6.47 35.96 9.24
9/23/2021 6:15:00 PM 16.88 62.384 0.033 6.51 29.4 9.24
9/23/2021 6:30:00 PM 16.86 62.348 0.032 6.45 28.82 9.25
9/23/2021 6:45:00 PM 16.83 62.294 0.032 6.46 27.26 9.25
9/23/2021 7:00:00 PM 16.8 62.24 0.032 6.45 28.66 9.25
9/23/2021 7:15:00 PM 16.76 62.168 0.032 6.48 26.81 9.26
9/23/2021 7:30:00 PM 16.72 62.096 0.032 6.43 25.88 9.27
9/23/2021 7:45:00 PM 16.69 62.042 0.032 6.45 25.55 9.27
9/23/2021 8:00:00 PM 16.65 61.97 0.031 6.43 25.07 9.28
9/23/2021 8:15:00 PM 16.6 61.88 0.031 6.42 24.06 9.29
9/23/2021 8:30:00 PM 16.55 61.79 0.031 6.43 23.1 9.3
9/23/2021 8:45:00 PM 16.5 61.7 0.031 6.41 23.31 9.31
9/23/2021 9:00:00 PM 16.44 61.592 0.031 6.4 22.66 9.32
9/23/2021 9:15:00 PM 16.39 61.502 0.031 6.38 21.87 9.33
9/23/2021 9:30:00 PM 16.33 61.394 0.031 6.4 22.09 9.35
9/23/2021 9:45:00 PM 16.28 61.304 0.031 6.38 20.36 9.35
9/23/2021 10:00:00 PM 16.23 61.214 0.031 6.36 19.98 9.36
9/23/2021 10:15:00 PM 16.17 61.106 0.031 6.39 19.84 9.37
9/23/2021 10:30:00 PM 16.11 60.998 0.031 6.39 19.56 9.39
9/23/2021 10:45:00 PM 16.05 60.89 0.031 6.37 19.04 9.39
9/23/2021 11:00:00 PM 15.99 60.782 0.031 6.36 18.2 9.4
9/23/2021 11:15:00 PM 15.93 60.674 0.031 6.36 17.57 9.42
9/23/2021 11:30:00 PM 15.86 60.548 0.031 6.34 17.14 9.43
9/23/2021 11:45:00 PM 15.8 60.44 0.031 6.36 16.84 9.44
9/24/2021 12:00:00 AM 15.74 60.332 0.031 6.33 16.59 9.45
9/24/2021 12:15:00 AM 15.67 60.206 0.031 6.33 15.73 9.46
9/24/2021 12:30:00 AM 15.6 60.08 0.03 6.32 15.86 9.47
9/24/2021 12:45:00 AM 15.53 59.954 0.03 6.33 15.26 9.48
9/24/2021 1:00:00 AM 15.47 59.846 0.03 6.32 14.91 9.5
9/24/2021 1:15:00 AM 15.4 59.72 0.03 6.31 13.76 9.51
9/24/2021 1:30:00 AM 15.33 59.594 0.03 6.3 13.7 9.52
9/24/2021 1:45:00 AM 15.26 59.468 0.03 6.29 13.92 9.53
9/24/2021 2:00:00 AM 15.19 59.342 0.03 6.3 13.66 9.55
9/24/2021 2:15:00 AM 15.12 59.216 0.03 6.3 13.26 9.56
9/24/2021 2:30:00 AM 15.05 59.09 0.03 6.29 12.61 9.58
9/24/2021 2:45:00 AM 14.99 58.982 0.03 6.29 12.74 9.59
9/24/2021 3:00:00 AM 14.92 58.856 0.03 6.31 11.72 9.6
9/24/2021 3:15:00 AM 14.86 58.748 0.03 6.29 12.44 9.61
9/24/2021 3:30:00 AM 14.8 58.64 0.03 6.3 11.99 9.63
9/24/2021 3:45:00 AM 14.73 58.514 0.03 6.29 11.54 9.64
9/24/2021 4:00:00 AM 14.66 58.388 0.03 6.29 10.59 9.66
9/24/2021 4:15:00 AM 14.6 58.28 0.03 6.28 10.47 9.67
9/24/2021 4:30:00 AM 14.53 58.154 0.03 6.29 10.04 9.68
9/24/2021 4:45:00 AM 14.47 58.046 0.03 6.27 9.95 9.7
9/24/2021 5:00:00 AM 14.4 57.92 0.03 6.3 10.01 9.71
9/24/2021 5:15:00 AM 14.34 57.812 0.03 6.28 9.47 9.72
9/24/2021 5:30:00 AM 14.27 57.686 0.03 6.28 9.7 9.74
9/24/2021 5:45:00 AM 14.21 57.578 0.029 6.26 461.87 9.75
9/24/2021 6:00:00 AM 14.15 57.47 0.029 6.29 8.96 9.76
9/24/2021 6:15:00 AM 14.09 57.362 0.03 6.29 9.07 9.78
9/24/2021 6:30:00 AM 14.03 57.254 0.03 6.29 8.79 9.79
9/24/2021 6:45:00 AM 13.97 57.146 0.029 6.29 8.48 9.8
9/24/2021 7:00:00 AM 13.91 57.038 0.029 6.29 8.68 9.82
9/24/2021 7:15:00 AM 13.85 56.93 0.03 6.29 8.37 9.83
9/24/2021 7:30:00 AM 13.8 56.84 0.029 6.29 8.15 9.85
9/24/2021 7:45:00 AM 13.75 56.75 0.03 6.29 7.98 9.87
9/24/2021 8:00:00 AM 13.7 56.66 0.03 6.3 8.04 9.89
9/24/2021 8:15:00 AM 13.67 56.606 0.029 6.31 10.93 9.9
9/24/2021 8:30:00 AM 13.63 56.534 0.03 6.32 7.53 9.91
9/24/2021 8:45:00 AM 13.6 56.48 0.03 6.34 7.62 9.92
9/24/2021 9:00:00 AM 13.59 56.462 0.03 6.29 7.68 9.94
9/24/2021 9:15:00 AM 13.59 56.462 0.03 6.34 7.11 9.95
9/24/2021 9:30:00 AM 13.61 56.498 0.03 6.37 7.17 9.96
9/24/2021 9:45:00 AM 13.64 56.552 0.03 6.37 11.68 9.97
9/24/2021 10:00:00 AM 13.68 56.624 0.03 6.38 18.4 9.97
9/24/2021 10:15:00 AM 13.74 56.732 0.03 6.4 13.83 9.98
9/24/2021 10:30:00 AM 13.81 56.858 0.03 6.42 26.86 9.98
9/24/2021 10:45:00 AM 13.9 57.02 0.03 6.42 6.67 9.97
9/24/2021 11:00:00 AM 13.99 57.182 0.03 6.43 6.28 9.98
9/24/2021 11:15:00 AM 14.1 57.38 0.03 6.45 6.24 9.99
9/24/2021 11:30:00 AM 14.19 57.542 0.03 6.45 6.18 9.98
9/24/2021 11:45:00 AM 14.25 57.65 0.03 6.48 5.9 9.98
9/24/2021 12:00:00 PM 14.39 57.902 0.03 6.5 5.91 9.97
9/24/2021 12:15:00 PM 14.53 58.154 0.03 6.49 6.05 9.98
9/24/2021 12:30:00 PM 14.58 58.244 0.03 6.48 5.93 9.97
9/24/2021 12:45:00 PM 14.66 58.388 0.03 6.48 5.65 9.96
9/24/2021 1:00:00 PM 14.73 58.514 0.03 6.5 5.54 9.94
9/24/2021 1:15:00 PM 14.81 58.658 0.03 6.5 5.56 9.92
9/24/2021 1:30:00 PM 14.7 58.46 0.03 6.45 5.6 9.9
9/24/2021 1:45:00 PM 14.72 58.496 0.03 6.45 5.44 9.9
9/24/2021 2:00:00 PM 14.7 58.46 0.03 6.43 5.15 9.88
9/24/2021 2:15:00 PM 14.86 58.748 0.03 6.48 5.28 9.92
9/24/2021 2:30:00 PM 14.97 58.946 0.03 6.5 5.01 9.9
9/24/2021 2:45:00 PM 15.05 59.09 0.03 6.51 5.25 9.88
9/24/2021 3:00:00 PM 15.15 59.27 0.03 6.51 5.04 9.85
9/24/2021 3:15:00 PM 15.19 59.342 0.03 6.49 4.93 9.81
9/24/2021 3:30:00 PM 15.22 59.396 0.03 6.48 5 9.81
9/24/2021 3:45:00 PM 15.21 59.378 0.03 6.45 5.04 9.79
9/24/2021 4:00:00 PM 15.22 59.396 0.03 6.45 4.97 9.76
9/24/2021 4:15:00 PM 15.25 59.45 0.03 6.47 5.05 9.73
9/24/2021 4:30:00 PM 15.28 59.504 0.03 6.45 5.21 9.72
9/24/2021 4:45:00 PM 15.27 59.486 0.03 6.47 4.73 9.68
9/24/2021 5:00:00 PM 15.28 59.504 0.03 6.43 4.58 9.64
9/24/2021 5:15:00 PM 15.3 59.54 0.03 6.42 4.63 9.62
9/24/2021 5:30:00 PM 15.31 59.558 0.03 6.42 4.78 9.6
9/24/2021 5:45:00 PM 15.31 59.558 0.031 6.44 4.6 9.57
9/24/2021 6:00:00 PM 15.29 59.522 0.031 6.42 4.57 9.56
9/24/2021 6:15:00 PM 15.25 59.45 0.031 6.41 4.74 9.55
9/24/2021 6:30:00 PM 15.19 59.342 0.031 6.37 4.61 9.55
9/24/2021 6:45:00 PM 15.14 59.252 0.031 6.37 4.52 9.54
9/24/2021 7:00:00 PM 15.09 59.162 0.031 6.35 4.39 9.54
9/24/2021 7:15:00 PM 15.04 59.072 0.031 6.36 4.74 9.53
9/24/2021 7:30:00 PM 14.99 58.982 0.031 6.35 4.42 9.54
9/24/2021 7:45:00 PM 14.94 58.892 0.031 6.34 4.38 9.54
9/24/2021 8:00:00 PM 14.88 58.784 0.031 6.35 4.42 9.55
9/24/2021 8:15:00 PM 14.82 58.676 0.031 6.35 4.31 9.56
9/24/2021 8:30:00 PM 14.76 58.568 0.031 6.34 4.43 9.57
9/24/2021 8:45:00 PM 14.71 58.478 0.031 6.34 4.24 9.59
9/24/2021 9:00:00 PM 14.64 58.352 0.031 6.34 4.3 9.61
9/24/2021 9:15:00 PM 14.58 58.244 0.031 6.35 4.34 9.61
9/24/2021 9:30:00 PM 14.52 58.136 0.031 6.34 4.31 9.62
9/24/2021 9:45:00 PM 14.46 58.028 0.032 6.33 4.28 9.63
9/24/2021 10:00:00 PM 14.4 57.92 0.032 6.37 4.21 9.65
9/24/2021 10:15:00 PM 14.35 57.83 0.032 6.35 4.1 9.66
9/24/2021 10:30:00 PM 14.29 57.722 0.032 6.36 3.98 9.68
9/24/2021 10:45:00 PM 14.23 57.614 0.032 6.33 4.27 9.69
9/24/2021 11:00:00 PM 14.17 57.506 0.032 6.36 4.16 9.7
9/24/2021 11:15:00 PM 14.12 57.416 0.032 6.36 4.17 9.71
9/24/2021 11:30:00 PM 14.08 57.344 0.032 6.34 4.61 9.72
9/24/2021 11:45:00 PM 14.03 57.254 0.032 6.36 3.89 9.73
9/25/2021 12:00:00 AM 13.99 57.182 0.032 6.35 3.89 9.74
9/25/2021 12:15:00 AM 13.95 57.11 0.032 6.36 4 9.75
9/25/2021 12:30:00 AM 13.91 57.038 0.032 6.38 3.85 9.75
9/25/2021 12:45:00 AM 13.87 56.966 0.032 6.37 3.99 9.76
9/25/2021 1:00:00 AM 13.83 56.894 0.032 6.38 3.91 9.77
9/25/2021 1:15:00 AM 13.79 56.822 0.032 6.38 3.83 9.78
9/25/2021 1:30:00 AM 13.76 56.768 0.033 6.38 3.85 9.78
9/25/2021 1:45:00 AM 13.72 56.696 0.033 6.37 3.7 9.79
9/25/2021 2:00:00 AM 13.69 56.642 0.033 6.39 3.82 9.8
9/25/2021 2:15:00 AM 13.65 56.57 0.033 6.38 3.83 9.81
9/25/2021 2:30:00 AM 13.62 56.516 0.033 6.4 3.88 9.81
9/25/2021 2:45:00 AM 13.59 56.462 0.033 6.38 3.68 9.82
9/25/2021 3:00:00 AM 13.55 56.39 0.033 6.38 3.7 9.83
9/25/2021 3:15:00 AM 13.52 56.336 0.033 6.41 3.72 9.84
9/25/2021 3:30:00 AM 13.48 56.264 0.033 6.38 3.58 9.85
9/25/2021 3:45:00 AM 13.45 56.21 0.033 6.37 3.54 9.85
9/25/2021 4:00:00 AM 13.41 56.138 0.033 6.38 3.71 9.86
9/25/2021 4:15:00 AM 13.38 56.084 0.033 6.38 3.78 9.86
9/25/2021 4:30:00 AM 13.34 56.012 0.033 6.4 3.58 9.87
9/25/2021 4:45:00 AM 13.3 55.94 0.033 6.39 3.51 9.88
9/25/2021 5:00:00 AM 13.27 55.886 0.033 6.38 3.57 9.89
9/25/2021 5:15:00 AM 13.23 55.814 0.033 6.38 3.69 9.9
9/25/2021 5:30:00 AM 13.19 55.742 0.033 6.38 3.47 9.9
9/25/2021 5:45:00 AM 13.15 55.67 0.033 6.39 3.47 9.92
9/25/2021 6:00:00 AM 13.12 55.616 0.033 6.39 3.39 9.92
9/25/2021 6:15:00 AM 13.08 55.544 0.033 6.4 3.33 9.93
9/25/2021 6:30:00 AM 13.04 55.472 0.033 6.38 3.42 9.94
9/25/2021 6:45:00 AM 13 55.4 0.033 6.39 3.22 9.95
9/25/2021 7:00:00 AM 12.96 55.328 0.033 6.37 3.34 9.97
9/25/2021 7:15:00 AM 12.92 55.256 0.033 6.37 3.38 9.98
9/25/2021 7:30:00 AM 12.89 55.202 0.033 6.37 3.5 10
9/25/2021 7:45:00 AM 12.86 55.148 0.033 6.39 3.12 10.03
9/25/2021 8:00:00 AM 12.84 55.112 0.033 6.39 3.16 10.05
9/25/2021 8:15:00 AM 12.81 55.058 0.033 6.38 3.07 10.07
9/25/2021 8:30:00 AM 12.8 55.04 0.033 6.41 3.14 10.09
9/25/2021 8:45:00 AM 12.8 55.04 0.033 6.42 3.08 10.1
9/25/2021 9:00:00 AM 12.81 55.058 0.033 6.46 3.1 10.12
9/25/2021 9:15:00 AM 12.83 55.094 0.033 6.44 3.02 10.14
9/25/2021 9:30:00 AM 12.87 55.166 0.033 6.47 2.97 10.15
9/25/2021 9:45:00 AM 12.93 55.274 0.033 6.49 3.11 10.19
9/25/2021 10:00:00 AM 13 55.4 0.033 6.51 2.98 10.21
9/25/2021 10:15:00 AM 13.07 55.526 0.033 6.51 2.93 10.19
9/25/2021 10:30:00 AM 13.14 55.652 0.033 6.52 2.96 10.18
9/25/2021 10:45:00 AM 13.26 55.868 0.033 6.56 2.81 10.16
9/25/2021 11:00:00 AM 13.39 56.102 0.033 6.55 3.02 10.15
9/25/2021 11:15:00 AM 13.52 56.336 0.033 6.55 3 10.14
9/25/2021 11:30:00 AM 13.68 56.624 0.033 6.56 2.78 10.13
9/25/2021 11:45:00 AM 13.85 56.93 0.033 6.57 2.85 10.12
9/25/2021 12:00:00 PM 14 57.2 0.033 6.6 2.81 10.12
9/25/2021 12:15:00 PM 14.14 57.452 0.033 6.61 2.76 10.13
9/25/2021 12:30:00 PM 14.28 57.704 0.033 6.62 2.83 10.11
9/25/2021 12:45:00 PM 14.45 58.01 0.033 6.62 2.76 10.11
9/25/2021 1:00:00 PM 14.55 58.19 0.033 6.59 2.77 10.08
9/25/2021 1:15:00 PM 14.61 58.298 0.033 6.6 2.8 10.07
9/25/2021 1:30:00 PM 14.65 58.37 0.033 6.6 2.71 10.06
9/25/2021 1:45:00 PM 14.73 58.514 0.033 6.62 2.6 10.05
9/25/2021 2:00:00 PM 14.8 58.64 0.033 6.62 2.58 10.03
9/25/2021 2:15:00 PM 14.83 58.694 0.033 6.59 2.75 10.02
9/25/2021 2:30:00 PM 14.87 58.766 0.033 6.6 2.64 10
9/25/2021 2:45:00 PM 14.91 58.838 0.033 6.59 2.52 9.99
9/25/2021 3:00:00 PM 14.97 58.946 0.033 6.58 2.56 9.96
9/25/2021 3:15:00 PM 15.06 59.108 0.033 6.61 2.53 9.94
9/25/2021 3:30:00 PM 15.07 59.126 0.033 6.59 2.57 9.91
9/25/2021 3:45:00 PM 15.09 59.162 0.033 6.56 2.54 9.88
9/25/2021 4:00:00 PM 15.12 59.216 0.033 6.57 2.55 9.85
9/25/2021 4:15:00 PM 15.14 59.252 0.033 6.55 2.53 9.81
9/25/2021 4:30:00 PM 15.15 59.27 0.033 6.55 2.52 9.77
9/25/2021 4:45:00 PM 15.16 59.288 0.033 6.54 2.5 9.73
9/25/2021 5:00:00 PM 15.14 59.252 0.033 6.52 2.56 9.69
9/25/2021 5:15:00 PM 15.1 59.18 0.033 6.52 2.47 9.65
9/25/2021 5:30:00 PM 15.06 59.108 0.033 6.49 2.55 9.63
9/25/2021 5:45:00 PM 15.04 59.072 0.034 6.49 2.42 9.62
9/25/2021 6:00:00 PM 15.03 59.054 0.034 6.47 2.43 9.6
9/25/2021 6:15:00 PM 15.01 59.018 0.034 6.47 2.57 9.59
9/25/2021 6:30:00 PM 14.99 58.982 0.034 6.48 2.53 9.56
9/25/2021 6:45:00 PM 14.98 58.964 0.034 6.46 2.5 9.53
9/25/2021 7:00:00 PM 14.97 58.946 0.034 6.45 2.58 9.5
9/25/2021 7:15:00 PM 14.96 58.928 0.034 6.48 2.53 9.49
9/25/2021 7:30:00 PM 14.93 58.874 0.035 6.45 2.55 9.47
9/25/2021 7:45:00 PM 14.9 58.82 0.035 6.44 2.54 9.47
9/25/2021 8:00:00 PM 14.87 58.766 0.035 6.46 2.62 9.46
9/25/2021 8:15:00 PM 14.82 58.676 0.035 6.44 2.52 9.47
9/25/2021 8:30:00 PM 14.78 58.604 0.035 6.44 2.44 9.48
9/25/2021 8:45:00 PM 14.74 58.532 0.035 6.43 2.55 9.49
9/25/2021 9:00:00 PM 14.69 58.442 0.035 6.43 2.52 9.5
9/25/2021 9:15:00 PM 14.65 58.37 0.035 6.46 2.47 9.51
9/25/2021 9:30:00 PM 14.6 58.28 0.035 6.44 2.59 9.52
9/25/2021 9:45:00 PM 14.55 58.19 0.035 6.44 2.49 9.53
9/25/2021 10:00:00 PM 14.5 58.1 0.035 6.43 2.54 9.53
9/25/2021 10:15:00 PM 14.45 58.01 0.035 6.41 2.52 9.54
9/25/2021 10:30:00 PM 14.39 57.902 0.036 6.43 2.47 9.55
9/25/2021 10:45:00 PM 14.34 57.812 0.036 6.42 2.57 9.57
9/25/2021 11:00:00 PM 14.3 57.74 0.036 6.44 2.5 9.58
9/25/2021 11:15:00 PM 14.26 57.668 0.036 6.42 2.45 9.59
9/25/2021 11:30:00 PM 14.23 57.614 0.036 6.45 2.57 9.59
9/25/2021 11:45:00 PM 14.19 57.542 0.036 6.42 2.5 9.6
9/26/2021 12:00:00 AM 14.16 57.488 0.036 6.44 2.43 9.61
9/26/2021 12:15:00 AM 14.13 57.434 0.036 6.44 2.46 9.61
9/26/2021 12:30:00 AM 14.1 57.38 0.036 6.44 2.5 9.62
9/26/2021 12:45:00 AM 14.08 57.344 0.036 6.44 2.48 9.62
9/26/2021 1:00:00 AM 14.05 57.29 0.036 6.45 2.48 9.63
9/26/2021 1:15:00 AM 14.03 57.254 0.036 6.44 2.55 9.64
9/26/2021 1:30:00 AM 14.01 57.218 0.036 6.43 2.53 9.64
9/26/2021 1:45:00 AM 14 57.2 0.036 6.46 2.44 9.65
9/26/2021 2:00:00 AM 13.98 57.164 0.036 6.46 2.44 9.65
9/26/2021 2:15:00 AM 13.96 57.128 0.036 6.47 2.52 9.65
9/26/2021 2:30:00 AM 13.95 57.11 0.036 6.46 2.44 9.65
9/26/2021 2:45:00 AM 13.94 57.092 0.036 6.44 2.51 9.66
9/26/2021 3:00:00 AM 13.93 57.074 0.036 6.46 2.52 9.66
9/26/2021 3:15:00 AM 13.93 57.074 0.036 6.46 2.34 9.66
9/26/2021 3:30:00 AM 13.92 57.056 0.036 6.48 2.41 9.67
9/26/2021 3:45:00 AM 13.9 57.02 0.036 6.47 2.49 9.67
9/26/2021 4:00:00 AM 13.88 56.984 0.036 6.48 2.45 9.67
9/26/2021 4:15:00 AM 13.86 56.948 0.036 6.46 2.41 9.67
9/26/2021 4:30:00 AM 13.85 56.93 0.036 6.47 2.36 9.67
9/26/2021 4:45:00 AM 13.84 56.912 0.036 6.48 2.43 9.68
9/26/2021 5:00:00 AM 13.83 56.894 0.036 6.47 2.39 9.68
9/26/2021 5:15:00 AM 13.82 56.876 0.036 6.48 2.39 9.68
9/26/2021 5:30:00 AM 13.81 56.858 0.036 6.46 2.43 9.68
9/26/2021 5:45:00 AM 13.8 56.84 0.036 6.47 2.41 9.69
9/26/2021 6:00:00 AM 13.78 56.804 0.036 6.47 2.42 9.69
9/26/2021 6:15:00 AM 13.75 56.75 0.036 6.46 2.47 9.7
9/26/2021 6:30:00 AM 13.73 56.714 0.036 6.47 2.41 9.7
9/26/2021 6:45:00 AM 13.7 56.66 0.036 6.48 2.36 9.71
9/26/2021 7:00:00 AM 13.65 56.57 0.036 6.46 2.39 9.72
9/26/2021 7:15:00 AM 13.61 56.498 0.036 6.47 2.32 9.74
9/26/2021 7:30:00 AM 13.57 56.426 0.036 6.45 2.27 9.77
9/26/2021 7:45:00 AM 13.53 56.354 0.036 6.46 2.48 9.8
9/26/2021 8:00:00 AM 13.49 56.282 0.036 6.47 2.38 9.83
9/26/2021 8:15:00 AM 13.46 56.228 0.036 6.46 2.24 9.85
9/26/2021 8:30:00 AM 13.43 56.174 0.036 6.48 2.44 9.87
9/26/2021 8:45:00 AM 13.42 56.156 0.036 6.5 2.22 9.89
9/26/2021 9:00:00 AM 13.42 56.156 0.036 6.51 2.25 9.92
9/26/2021 9:15:00 AM 13.42 56.156 0.036 6.5 2.28 9.94
9/26/2021 9:30:00 AM 13.43 56.174 0.036 6.53 2.24 9.97
9/26/2021 9:45:00 AM 13.46 56.228 0.036 6.53 2.24 9.98
9/26/2021 10:00:00 AM 13.5 56.3 0.036 6.54 2.2 10
9/26/2021 10:15:00 AM 13.55 56.39 0.036 6.56 2.23 10.01
9/26/2021 10:30:00 AM 13.62 56.516 0.036 6.58 2.33 10.02
9/26/2021 10:45:00 AM 13.71 56.678 0.035 6.6 2.18 10.04
9/26/2021 11:00:00 AM 13.82 56.876 0.035 6.62 2.19 10.05
9/26/2021 11:15:00 AM 13.94 57.092 0.035 6.61 2.26 10.05
9/26/2021 11:30:00 AM 14.09 57.362 0.035 6.63 2.28 10.04
9/26/2021 11:45:00 AM 14.23 57.614 0.035 6.66 2.08 10.04
9/26/2021 12:00:00 PM 14.4 57.92 0.035 6.65 2.19 10.03
9/26/2021 12:15:00 PM 14.54 58.172 0.035 6.65 2.16 10.02
9/26/2021 12:30:00 PM 14.66 58.388 0.035 6.65 2.09 10.02
9/26/2021 12:45:00 PM 14.84 58.712 0.035 6.7 2.14 10.02
9/26/2021 1:00:00 PM 14.93 58.874 0.035 6.66 2.11 9.99
9/26/2021 1:15:00 PM 14.98 58.964 0.035 6.67 2.07 9.97
9/26/2021 1:30:00 PM 14.86 58.748 0.036 6.62 2.13 9.9
9/26/2021 1:45:00 PM 14.83 58.694 0.036 6.63 2.03 9.93
9/26/2021 2:00:00 PM 14.99 58.982 0.036 6.65 2.03 9.97
9/26/2021 2:15:00 PM 14.99 58.982 0.035 6.64 2.07 9.95
9/26/2021 2:30:00 PM 15.06 59.108 0.035 6.64 2.09 9.96
9/26/2021 2:45:00 PM 14.9 58.82 0.036 6.63 2.03 9.9
9/26/2021 3:00:00 PM 14.88 58.784 0.035 6.58 2.06 9.93
9/26/2021 3:15:00 PM 14.78 58.604 0.036 6.59 2.08 9.89
9/26/2021 3:30:00 PM 14.78 58.604 0.036 6.58 2.06 9.87
9/26/2021 3:45:00 PM 14.79 58.622 0.036 6.58 2.11 9.89
9/26/2021 4:00:00 PM 14.76 58.568 0.036 6.6 2.03 9.88
9/26/2021 4:15:00 PM 14.83 58.694 0.036 6.6 2.07 9.91
9/26/2021 4:30:00 PM 14.87 58.766 0.036 6.61 2.05 9.88
9/26/2021 4:45:00 PM 14.94 58.892 0.036 6.64 2.01 9.81
9/26/2021 5:00:00 PM 14.97 58.946 0.036 6.6 2 9.76
9/26/2021 5:15:00 PM 14.95 58.91 0.036 6.6 1.89 9.71
9/26/2021 5:30:00 PM 14.95 58.91 0.036 6.56 2.03 9.68
9/26/2021 5:45:00 PM 14.93 58.874 0.036 6.58 1.96 9.64
9/26/2021 6:00:00 PM 14.88 58.784 0.036 6.54 2.04 9.62
9/26/2021 6:15:00 PM 14.8 58.64 0.036 6.55 2.02 9.6
9/26/2021 6:30:00 PM 14.74 58.532 0.036 6.5 1.94 9.58
9/26/2021 6:45:00 PM 14.7 58.46 0.036 6.48 2.08 9.55
9/26/2021 7:00:00 PM 14.66 58.388 0.036 6.51 2.04 9.53
9/26/2021 7:15:00 PM 14.63 58.334 0.037 6.49 1.99 9.51
9/26/2021 7:30:00 PM 14.61 58.298 0.037 6.48 2.11 9.49
9/26/2021 7:45:00 PM 14.58 58.244 0.037 6.48 2.02 9.49
9/26/2021 8:00:00 PM 14.56 58.208 0.037 6.47 2 9.49
9/26/2021 8:15:00 PM 14.53 58.154 0.037 6.47 1.95 9.49
9/26/2021 8:30:00 PM 14.49 58.082 0.037 6.5 2.11 9.5
9/26/2021 8:45:00 PM 14.44 57.992 0.037 6.48 2.02 9.5
9/26/2021 9:00:00 PM 14.38 57.884 0.037 6.46 2.14 9.52
9/26/2021 9:15:00 PM 14.31 57.758 0.037 6.46 2.06 9.53
9/26/2021 9:30:00 PM 14.25 57.65 0.037 6.46 1.99 9.55
9/26/2021 9:45:00 PM 14.19 57.542 0.037 6.46 1.98 9.57
9/26/2021 10:00:00 PM 14.13 57.434 0.037 6.45 2.03 9.58
9/26/2021 10:15:00 PM 14.07 57.326 0.037 6.45 2.11 9.59
9/26/2021 10:30:00 PM 14.02 57.236 0.037 6.45 2.03 9.61
9/26/2021 10:45:00 PM 13.97 57.146 0.037 6.48 2.03 9.62
9/26/2021 11:00:00 PM 13.92 57.056 0.037 6.46 2.06 9.63
9/26/2021 11:15:00 PM 13.89 57.002 0.037 6.47 2.01 9.64
9/26/2021 11:30:00 PM 13.85 56.93 0.037 6.49 2.06 9.65
9/26/2021 11:45:00 PM 13.81 56.858 0.037 6.48 2.01 9.66
9/27/2021 12:00:00 AM 13.78 56.804 0.038 6.47 2.09 9.66
9/27/2021 12:15:00 AM 13.74 56.732 0.038 6.47 1.99 9.67
9/27/2021 12:30:00 AM 13.71 56.678 0.038 6.48 2.02 9.68
9/27/2021 12:45:00 AM 13.68 56.624 0.038 6.51 2.06 9.69
9/27/2021 1:00:00 AM 13.64 56.552 0.038 6.49 2.13 9.7
9/27/2021 1:15:00 AM 13.61 56.498 0.038 6.48 2.07 9.71
9/27/2021 1:30:00 AM 13.58 56.444 0.038 6.5 1.95 9.71
9/27/2021 1:45:00 AM 13.55 56.39 0.038 6.48 2.04 9.72
9/27/2021 2:00:00 AM 13.53 56.354 0.038 6.5 1.93 9.73
9/27/2021 2:15:00 AM 13.5 56.3 0.038 6.49 1.96 9.74
9/27/2021 2:30:00 AM 13.47 56.246 0.038 6.47 2.02 9.74
9/27/2021 2:45:00 AM 13.45 56.21 0.038 6.51 1.96 9.75
9/27/2021 3:00:00 AM 13.42 56.156 0.038 6.49 2.04 9.75
9/27/2021 3:15:00 AM 13.4 56.12 0.038 6.49 2.05 9.76
9/27/2021 3:30:00 AM 13.37 56.066 0.038 6.48 2.01 9.76
9/27/2021 3:45:00 AM 13.35 56.03 0.038 6.48 1.99 9.77
9/27/2021 4:00:00 AM 13.33 55.994 0.038 6.49 2.01 9.77
9/27/2021 4:15:00 AM 13.31 55.958 0.038 6.49 1.99 9.78
9/27/2021 4:30:00 AM 13.29 55.922 0.038 6.49 1.86 9.78
9/27/2021 4:45:00 AM 13.29 55.922 0.038 6.5 1.96 9.78
9/27/2021 5:00:00 AM 13.29 55.922 0.038 6.52 1.92 9.78
9/27/2021 5:15:00 AM 13.28 55.904 0.038 6.5 2.07 9.79
9/27/2021 5:30:00 AM 13.28 55.904 0.038 6.52 1.98 9.79
9/27/2021 5:45:00 AM 13.29 55.922 0.038 6.51 1.98 9.79
9/27/2021 6:00:00 AM 13.29 55.922 0.038 6.52 1.99 9.79
9/27/2021 6:15:00 AM 13.29 55.922 0.038 6.51 1.91 9.79
9/27/2021 6:30:00 AM 13.3 55.94 0.038 6.52 1.98 9.8
9/27/2021 6:45:00 AM 13.3 55.94 0.038 6.51 1.92 9.79
9/27/2021 7:00:00 AM 13.3 55.94 0.038 6.51 1.98 9.79
9/27/2021 7:15:00 AM 13.31 55.958 0.038 6.52 1.91 9.8
9/27/2021 7:30:00 AM 13.31 55.958 0.038 6.53 1.95 9.8
9/27/2021 7:45:00 AM 13.32 55.976 0.038 6.54 1.96 9.82
9/27/2021 8:00:00 AM 13.33 55.994 0.038 6.54 2.19 9.84
9/27/2021 8:15:00 AM 13.34 56.012 0.038 6.54 1.91 9.87
9/27/2021 8:30:00 AM 13.36 56.048 0.038 6.55 1.81 9.92
9/27/2021 8:45:00 AM 13.4 56.12 0.038 6.57 2.03 10
9/27/2021 9:00:00 AM 13.44 56.192 0.038 6.58 1.92 10.06
9/27/2021 9:15:00 AM 13.48 56.264 0.038 6.62 1.89 10.1
9/27/2021 9:30:00 AM 13.52 56.336 0.038 6.62 1.91 10.11
9/27/2021 9:45:00 AM 13.54 56.372 0.038 6.62 1.9 10.1
9/27/2021 10:00:00 AM 13.58 56.444 0.038 6.62 1.86 10.11
9/27/2021 10:15:00 AM 13.66 56.588 0.038 6.63 1.91 10.11
9/27/2021 10:30:00 AM 13.73 56.714 0.038 6.65 1.78 10.11
9/27/2021 10:45:00 AM 13.81 56.858 0.038 6.68 1.84 10.12
9/27/2021 11:00:00 AM 13.94 57.092 0.038 6.68 1.85 10.15
9/27/2021 11:15:00 AM 14.1 57.38 0.037 6.7 1.93 10.16
9/27/2021 11:30:00 AM 14.25 57.65 0.038 6.71 1.89 10.15
9/27/2021 11:45:00 AM 14.44 57.992 0.037 6.74 1.85 10.13
9/27/2021 12:00:00 PM 14.65 58.37 0.037 6.75 1.84 10.1
9/27/2021 12:15:00 PM 14.88 58.784 0.037 6.75 1.74 10.08
9/27/2021 12:30:00 PM 15.04 59.072 0.037 6.75 1.95 10.05
9/27/2021 12:45:00 PM 15.18 59.324 0.037 6.78 1.74 10.02
9/27/2021 1:00:00 PM 15.33 59.594 0.037 6.76 1.77 10.01
9/27/2021 1:15:00 PM 15.38 59.684 0.037 6.76 1.78 9.97
9/27/2021 1:30:00 PM 15.38 59.684 0.037 6.73 1.76 9.94
9/27/2021 1:45:00 PM 15.4 59.72 0.037 6.72 1.72 9.93
9/27/2021 2:00:00 PM 15.57 60.026 0.037 6.74 1.77 9.94
9/27/2021 2:15:00 PM 15.74 60.332 0.037 6.77 1.71 9.91
9/27/2021 2:30:00 PM 15.8 60.44 0.037 6.73 1.73 9.89
9/27/2021 2:45:00 PM 15.72 60.296 0.037 6.72 1.74 9.84
9/27/2021 3:00:00 PM 15.67 60.206 0.037 6.7 1.79 9.83
9/27/2021 3:15:00 PM 15.68 60.224 0.037 6.69 1.68 9.85
9/27/2021 3:30:00 PM 15.66 60.188 0.037 6.68 1.77 9.83
9/27/2021 3:45:00 PM 15.74 60.332 0.038 6.69 1.82 9.82
9/27/2021 4:00:00 PM 15.75 60.35 0.037 6.69 1.7 9.78
9/27/2021 4:15:00 PM 15.76 60.368 0.038 6.68 1.75 9.76
9/27/2021 4:30:00 PM 15.75 60.35 0.038 6.67 1.76 9.73
9/27/2021 4:45:00 PM 15.74 60.332 0.038 6.65 1.71 9.7
9/27/2021 5:00:00 PM 15.73 60.314 0.038 6.65 1.68 9.68
9/27/2021 5:15:00 PM 15.72 60.296 0.038 6.65 1.7 9.65
9/27/2021 5:30:00 PM 15.71 60.278 0.038 6.64 1.76 9.6
9/27/2021 5:45:00 PM 15.71 60.278 0.038 6.61 1.8 9.57
9/27/2021 6:00:00 PM 15.7 60.26 0.038 6.62 1.79 9.53
9/27/2021 6:15:00 PM 15.68 60.224 0.038 6.59 1.69 9.47
9/27/2021 6:30:00 PM 15.67 60.206 0.038 6.57 1.72 9.41
9/27/2021 6:45:00 PM 15.65 60.17 0.038 6.57 1.7 9.35
9/27/2021 7:00:00 PM 15.63 60.134 0.038 6.54 1.7 9.3
9/27/2021 7:15:00 PM 15.62 60.116 0.038 6.54 1.67 9.27
9/27/2021 7:30:00 PM 15.6 60.08 0.039 6.53 1.71 9.25
9/27/2021 7:45:00 PM 15.58 60.044 0.039 6.51 1.74 9.22
9/27/2021 8:00:00 PM 15.56 60.008 0.039 6.53 1.73 9.22
9/27/2021 8:15:00 PM 15.53 59.954 0.039 6.49 1.72 9.22
9/27/2021 8:30:00 PM 15.5 59.9 0.039 6.52 1.75 9.23
9/27/2021 8:45:00 PM 15.47 59.846 0.039 6.49 1.74 9.23
9/27/2021 9:00:00 PM 15.43 59.774 0.039 6.5 1.8 9.24
9/27/2021 9:15:00 PM 15.39 59.702 0.039 6.5 1.77 9.25
9/27/2021 9:30:00 PM 15.35 59.63 0.039 6.49 1.7 9.25
9/27/2021 9:45:00 PM 15.31 59.558 0.039 6.48 1.81 9.26
9/27/2021 10:00:00 PM 15.27 59.486 0.039 6.48 1.79 9.27
9/27/2021 10:15:00 PM 15.23 59.414 0.039 6.47 1.75 9.28
9/27/2021 10:30:00 PM 15.19 59.342 0.039 6.46 1.76 9.28
9/27/2021 10:45:00 PM 15.15 59.27 0.039 6.47 1.72 9.29
9/27/2021 11:00:00 PM 15.11 59.198 0.039 6.49 1.82 9.3
9/27/2021 11:15:00 PM 15.07 59.126 0.039 6.48 1.74 9.31
9/27/2021 11:30:00 PM 15.02 59.036 0.039 6.49 1.74 9.32
9/27/2021 11:45:00 PM 14.98 58.964 0.039 6.48 1.81 9.33
9/28/2021 12:00:00 AM 14.93 58.874 0.039 6.48 1.76 9.34
9/28/2021 12:15:00 AM 14.89 58.802 0.039 6.47 1.78 9.35
9/28/2021 12:30:00 AM 14.84 58.712 0.039 6.49 1.7 9.36
9/28/2021 12:45:00 AM 14.8 58.64 0.04 6.48 1.77 9.37
9/28/2021 1:00:00 AM 14.76 58.568 0.04 6.49 1.78 9.38
9/28/2021 1:15:00 AM 14.71 58.478 0.04 6.48 1.81 9.39
9/28/2021 1:30:00 AM 14.67 58.406 0.04 6.47 1.7 9.4
9/28/2021 1:45:00 AM 14.63 58.334 0.04 6.48 1.74 9.4
9/28/2021 2:00:00 AM 14.6 58.28 0.04 6.48 1.72 9.41
9/28/2021 2:15:00 AM 14.57 58.226 0.04 6.49 1.79 9.42
9/28/2021 2:30:00 AM 14.54 58.172 0.04 6.51 1.72 9.43
9/28/2021 2:45:00 AM 14.52 58.136 0.04 6.5 1.73 9.43
9/28/2021 3:00:00 AM 14.49 58.082 0.04 6.51 1.76 9.44
9/28/2021 3:15:00 AM 14.47 58.046 0.04 6.51 1.72 9.45
9/28/2021 3:30:00 AM 14.45 58.01 0.04 6.51 1.76 9.45
9/28/2021 3:45:00 AM 14.43 57.974 0.04 6.51 1.68 9.45
9/28/2021 4:00:00 AM 14.42 57.956 0.04 6.51 1.74 9.46
9/28/2021 4:15:00 AM 14.4 57.92 0.04 6.5 1.77 9.46
9/28/2021 4:30:00 AM 14.39 57.902 0.04 6.5 1.75 9.45
9/28/2021 4:45:00 AM 14.37 57.866 0.04 6.52 1.71 9.46
9/28/2021 5:00:00 AM 14.35 57.83 0.04 6.51 1.75 9.46
9/28/2021 5:15:00 AM 14.33 57.794 0.04 6.52 1.68 9.47
9/28/2021 5:30:00 AM 14.32 57.776 0.04 6.51 1.75 9.47
9/28/2021 5:45:00 AM 14.31 57.758 0.04 6.51 1.85 9.47
9/28/2021 6:00:00 AM 14.31 57.758 0.04 6.5 1.72 9.47
9/28/2021 6:15:00 AM 14.3 57.74 0.04 6.51 6.94 9.48
9/28/2021 6:30:00 AM 14.28 57.704 0.04 6.52 1.74 9.49
9/28/2021 6:45:00 AM 14.28 57.704 0.04 6.51 1.68 9.48
9/28/2021 7:00:00 AM 14.27 57.686 0.04 6.51 1.73 9.49
9/28/2021 7:15:00 AM 14.27 57.686 0.04 6.52 1.69 9.5
9/28/2021 7:30:00 AM 14.27 57.686 0.04 6.51 1.64 9.51
9/28/2021 7:45:00 AM 14.28 57.704 0.04 6.51 1.71 9.53
9/28/2021 8:00:00 AM 14.28 57.704 0.04 6.52 1.71 9.57
9/28/2021 8:15:00 AM 14.29 57.722 0.04 6.56 1.67 9.59
9/28/2021 8:30:00 AM 14.3 57.74 0.04 6.53 1.65 9.57
9/28/2021 8:45:00 AM 14.31 57.758 0.04 6.53 1.69 9.56
9/28/2021 9:00:00 AM 14.32 57.776 0.04 6.54 1.67 9.59
9/28/2021 9:15:00 AM 14.34 57.812 0.04 6.53 1.73 9.57
9/28/2021 9:30:00 AM 14.37 57.866 0.04 6.54 2.01 9.56
9/28/2021 9:45:00 AM 14.4 57.92 0.04 6.55 1.83 9.58
9/28/2021 10:00:00 AM 14.41 57.938 0.04 6.56 1.77 9.63
9/28/2021 10:15:00 AM 14.43 57.974 0.04 6.56 1.75 9.65
9/28/2021 10:30:00 AM 14.46 58.028 0.04 6.58 1.72 9.67
9/28/2021 10:45:00 AM 14.5 58.1 0.04 6.59 1.77 9.69
9/28/2021 11:00:00 AM 14.53 58.154 0.04 6.62 1.75 9.7
9/28/2021 11:15:00 AM 14.56 58.208 0.04 6.6 1.77 9.73
9/28/2021 11:30:00 AM 14.59 58.262 0.04 6.61 1.7 9.77
9/28/2021 11:45:00 AM 14.63 58.334 0.04 6.65 1.75 9.81
9/28/2021 12:00:00 PM 14.68 58.424 0.04 6.66 1.82 9.85
9/28/2021 12:15:00 PM 14.72 58.496 0.04 6.66 1.92 9.88
9/28/2021 12:30:00 PM 14.75 58.55 0.04 6.63 2.14 9.81
9/28/2021 12:45:00 PM 14.78 58.604 0.04 6.64 2.34 9.75
9/28/2021 1:00:00 PM 14.82 58.676 0.04 6.65 2.57 9.8
9/28/2021 1:15:00 PM 14.85 58.73 0.04 6.67 2.4 9.79
9/28/2021 1:30:00 PM 14.86 58.748 0.04 6.65 2.21 9.71
9/28/2021 1:45:00 PM 14.89 58.802 0.04 6.63 2.05 9.66
9/28/2021 2:00:00 PM 14.9 58.82 0.04 6.63 1.93 9.7
9/28/2021 2:15:00 PM 14.93 58.874 0.04 6.67 2.01 9.74
9/28/2021 2:30:00 PM 14.96 58.928 0.04 6.67 2.02 9.77
9/28/2021 2:45:00 PM 15.01 59.018 0.04 6.68 1.92 9.83
9/28/2021 3:00:00 PM 15.06 59.108 0.04 6.72 1.97 9.87
9/28/2021 3:15:00 PM 15.09 59.162 0.04 6.7 1.92 9.88
9/28/2021 3:30:00 PM 15.11 59.198 0.04 6.71 1.85 9.89
9/28/2021 3:45:00 PM 15.14 59.252 0.04 6.72 1.95 9.89
9/28/2021 4:00:00 PM 15.18 59.324 0.04 6.72 1.82 9.89
9/28/2021 4:15:00 PM 15.18 59.324 0.04 6.71 1.76 9.84
9/28/2021 4:30:00 PM 15.21 59.378 0.04 6.7 1.75 9.76
9/28/2021 4:45:00 PM 15.24 59.432 0.04 6.69 1.73 9.76
9/28/2021 5:00:00 PM 15.25 59.45 0.04 6.71 1.73 9.73
9/28/2021 5:15:00 PM 15.24 59.432 0.04 6.66 1.66 9.64
9/28/2021 5:30:00 PM 15.27 59.486 0.04 6.67 1.72 9.65
9/28/2021 5:45:00 PM 15.26 59.468 0.04 6.66 1.69 9.66
9/28/2021 6:00:00 PM 15.23 59.414 0.04 6.66 1.72 9.61
9/28/2021 6:15:00 PM 15.2 59.36 0.04 6.64 1.74 9.55
9/28/2021 6:30:00 PM 15.16 59.288 0.04 6.63 1.73 9.51
9/28/2021 6:45:00 PM 15.12 59.216 0.04 6.6 1.67 9.46
9/28/2021 7:00:00 PM 15.09 59.162 0.04 6.58 1.66 9.43
9/28/2021 7:15:00 PM 15.04 59.072 0.04 6.57 1.71 9.41
9/28/2021 7:30:00 PM 14.99 58.982 0.041 6.56 1.71 9.39
9/28/2021 7:45:00 PM 14.93 58.874 0.041 6.54 1.72 9.39
9/28/2021 8:00:00 PM 14.88 58.784 0.041 6.54 1.7 9.39
9/28/2021 8:15:00 PM 14.82 58.676 0.041 6.54 1.77 9.4
9/28/2021 8:30:00 PM 14.77 58.586 0.041 6.55 1.75 9.41
9/28/2021 8:45:00 PM 14.71 58.478 0.041 6.53 1.72 9.43
9/28/2021 9:00:00 PM 14.66 58.388 0.041 6.52 1.76 9.43
9/28/2021 9:15:00 PM 14.6 58.28 0.041 6.53 1.7 9.45
9/28/2021 9:30:00 PM 14.54 58.172 0.041 6.55 1.71 9.47
9/28/2021 9:45:00 PM 14.49 58.082 0.041 6.53 1.72 9.49
9/28/2021 10:00:00 PM 14.45 58.01 0.041 6.53 1.69 9.49
9/28/2021 10:15:00 PM 14.4 57.92 0.041 6.54 1.71 9.51
9/28/2021 10:30:00 PM 14.36 57.848 0.041 6.54 1.75 9.52
9/28/2021 10:45:00 PM 14.31 57.758 0.041 6.55 1.72 9.53
9/28/2021 11:00:00 PM 14.26 57.668 0.041 6.55 1.64 9.54
9/28/2021 11:15:00 PM 14.21 57.578 0.041 6.56 1.7 9.56
9/28/2021 11:30:00 PM 14.16 57.488 0.041 6.55 1.69 9.57
9/28/2021 11:45:00 PM 14.11 57.398 0.041 6.54 1.78 9.58
9/29/2021 12:00:00 AM 14.06 57.308 0.041 6.55 2.08 9.59
9/29/2021 12:15:00 AM 14.02 57.236 0.041 6.55 1.77 9.6
9/29/2021 12:30:00 AM 13.98 57.164 0.041 6.57 1.65 9.6
9/29/2021 12:45:00 AM 13.94 57.092 0.041 6.55 1.71 9.61
9/29/2021 1:00:00 AM 13.9 57.02 0.041 6.55 1.68 9.62
9/29/2021 1:15:00 AM 13.85 56.93 0.041 6.55 1.72 9.63
9/29/2021 1:30:00 AM 13.81 56.858 0.041 6.55 1.73 9.64
9/29/2021 1:45:00 AM 13.76 56.768 0.041 6.56 1.71 9.65
9/29/2021 2:00:00 AM 13.71 56.678 0.041 6.56 1.75 9.67
9/29/2021 2:15:00 AM 13.66 56.588 0.041 6.55 1.73 9.68
9/29/2021 2:30:00 AM 13.62 56.516 0.041 6.55 1.75 9.68
9/29/2021 2:45:00 AM 13.57 56.426 0.041 6.57 1.7 9.69
9/29/2021 3:00:00 AM 13.51 56.318 0.041 6.56 1.81 9.71
9/29/2021 3:15:00 AM 13.46 56.228 0.041 6.55 1.73 9.72
9/29/2021 3:30:00 AM 13.4 56.12 0.041 6.55 1.66 9.73
9/29/2021 3:45:00 AM 13.34 56.012 0.041 6.55 1.76 9.74
9/29/2021 4:00:00 AM 13.29 55.922 0.041 6.57 1.67 9.75
9/29/2021 4:15:00 AM 13.23 55.814 0.041 6.54 1.79 9.76
9/29/2021 4:30:00 AM 13.18 55.724 0.041 6.55 1.72 9.78
9/29/2021 4:45:00 AM 13.13 55.634 0.041 6.55 1.74 9.79
9/29/2021 5:00:00 AM 13.07 55.526 0.042 6.55 1.73 9.8
9/29/2021 5:15:00 AM 13.02 55.436 0.042 6.56 1.69 9.81
9/29/2021 5:30:00 AM 12.96 55.328 0.042 6.54 1.7 9.83
9/29/2021 5:45:00 AM 12.91 55.238 0.042 6.54 1.75 9.84
9/29/2021 6:00:00 AM 12.86 55.148 0.042 6.55 1.66 9.85
9/29/2021 6:15:00 AM 12.81 55.058 0.042 6.56 1.73 9.86
9/29/2021 6:30:00 AM 12.76 54.968 0.042 6.55 1.69 9.88
9/29/2021 6:45:00 AM 12.71 54.878 0.042 6.55 1.76 9.89
9/29/2021 7:00:00 AM 12.65 54.77 0.042 6.55 1.7 9.91
9/29/2021 7:15:00 AM 12.6 54.68 0.042 6.55 1.74 9.94
9/29/2021 7:30:00 AM 12.55 54.59 0.041 6.56 1.67 9.98
9/29/2021 7:45:00 AM 12.51 54.518 0.042 6.56 1.68 10
9/29/2021 8:00:00 AM 12.47 54.446 0.041 6.58 1.69 10.05
9/29/2021 8:15:00 AM 12.44 54.392 0.041 6.59 1.67 10.09
9/29/2021 8:30:00 AM 12.41 54.338 0.041 6.58 1.75 10.12
9/29/2021 8:45:00 AM 12.39 54.302 0.041 6.59 1.67 10.16
9/29/2021 9:00:00 AM 12.38 54.284 0.041 6.61 1.69 10.19
9/29/2021 9:15:00 AM 12.39 54.302 0.041 6.62 1.63 10.23
9/29/2021 9:30:00 AM 12.42 54.356 0.041 6.65 1.67 10.27
9/29/2021 9:45:00 AM 12.47 54.446 0.041 6.66 1.64 10.33
9/29/2021 10:00:00 AM 12.53 54.554 0.041 6.68 1.63 10.37
9/29/2021 10:15:00 AM 12.6 54.68 0.041 6.7 1.63 10.36
9/29/2021 10:30:00 AM 12.67 54.806 0.041 6.72 1.65 10.36
9/29/2021 10:45:00 AM 12.76 54.968 0.041 6.72 1.66 10.37
9/29/2021 11:00:00 AM 12.89 55.202 0.041 6.77 1.61 10.38
9/29/2021 11:15:00 AM 12.99 55.382 0.041 6.77 1.55 10.4
9/29/2021 11:30:00 AM 13.1 55.58 0.041 6.77 1.6 10.39
9/29/2021 11:45:00 AM 13.26 55.868 0.041 6.78 1.58 10.39
9/29/2021 12:00:00 PM 13.44 56.192 0.041 6.81 1.56 10.39
9/29/2021 12:15:00 PM 13.61 56.498 0.041 6.81 1.55 10.36
9/29/2021 12:30:00 PM 13.75 56.75 0.041 6.82 1.54 10.34
9/29/2021 12:45:00 PM 13.85 56.93 0.041 6.79 1.57 10.32
9/29/2021 1:00:00 PM 13.99 57.182 0.041 6.8 1.62 10.29
9/29/2021 1:15:00 PM 14.15 57.47 0.041 6.81 1.57 10.29
9/29/2021 1:30:00 PM 14.09 57.362 0.041 6.8 1.51 10.26
9/29/2021 1:45:00 PM 14.22 57.596 0.04 6.79 1.53 10.26
9/29/2021 2:00:00 PM 14.41 57.938 0.04 6.81 1.53 10.26
9/29/2021 2:15:00 PM 14.25 57.65 0.04 6.77 1.62 10.15
9/29/2021 2:30:00 PM 14.26 57.668 0.04 6.74 1.59 10.15
9/29/2021 2:45:00 PM 14.16 57.488 0.04 6.71 1.56 10.13
9/29/2021 3:00:00 PM 14.15 57.47 0.04 6.73 1.53 10.15
9/29/2021 3:15:00 PM 14.13 57.434 0.04 6.72 1.57 10.14
9/29/2021 3:30:00 PM 14.1 57.38 0.04 6.7 1.51 10.15
9/29/2021 3:45:00 PM 14.11 57.398 0.04 6.72 1.6 10.19
9/29/2021 4:00:00 PM 14.11 57.398 0.04 6.73 1.52 10.17
9/29/2021 4:15:00 PM 14.05 57.29 0.04 6.72 1.51 10.15
9/29/2021 4:30:00 PM 14.07 57.326 0.04 6.71 1.56 10.09
9/29/2021 4:45:00 PM 14.07 57.326 0.04 6.7 1.5 10.07
9/29/2021 5:00:00 PM 14.06 57.308 0.041 6.7 1.51 10.02
9/29/2021 5:15:00 PM 14.07 57.326 0.041 6.68 1.5 9.98
9/29/2021 5:30:00 PM 14.09 57.362 0.041 6.68 1.54 9.95
9/29/2021 5:45:00 PM 14.11 57.398 0.041 6.68 1.53 9.89
9/29/2021 6:00:00 PM 14.12 57.416 0.041 6.66 1.61 9.84
9/29/2021 6:15:00 PM 14.13 57.434 0.041 6.66 1.74 9.81
9/29/2021 6:30:00 PM 14.12 57.416 0.041 6.63 1.83 9.76
9/29/2021 6:45:00 PM 14.1 57.38 0.041 6.62 2.05 9.72
9/29/2021 7:00:00 PM 14.08 57.344 0.041 6.63 2.19 9.68
9/29/2021 7:15:00 PM 14.06 57.308 0.041 6.61 2.13 9.65
9/29/2021 7:30:00 PM 14.03 57.254 0.041 6.6 1.95 9.63
9/29/2021 7:45:00 PM 14.01 57.218 0.041 6.58 1.75 9.61
9/29/2021 8:00:00 PM 13.98 57.164 0.042 6.57 1.76 9.61
9/29/2021 8:15:00 PM 13.96 57.128 0.041 6.57 1.63 9.62
9/29/2021 8:30:00 PM 13.93 57.074 0.042 6.56 1.63 9.61
9/29/2021 8:45:00 PM 13.91 57.038 0.042 6.56 1.63 9.61
9/29/2021 9:00:00 PM 13.88 56.984 0.042 6.56 1.63 9.62
9/29/2021 9:15:00 PM 13.86 56.948 0.042 6.56 1.59 9.62
9/29/2021 9:30:00 PM 13.84 56.912 0.042 6.55 1.58 9.63
9/29/2021 9:45:00 PM 13.82 56.876 0.042 6.56 1.53 9.64
9/29/2021 10:00:00 PM 13.8 56.84 0.042 6.58 1.58 9.64
9/29/2021 10:15:00 PM 13.78 56.804 0.042 6.56 1.63 9.64
9/29/2021 10:30:00 PM 13.76 56.768 0.042 6.57 1.61 9.64
9/29/2021 10:45:00 PM 13.74 56.732 0.042 6.57 1.63 9.65
9/29/2021 11:00:00 PM 13.71 56.678 0.042 6.55 1.6 9.66
9/29/2021 11:15:00 PM 13.68 56.624 0.042 6.56 1.62 9.66
9/29/2021 11:30:00 PM 13.66 56.588 0.042 6.58 1.59 9.66
9/29/2021 11:45:00 PM 13.63 56.534 0.042 6.56 1.61 9.68
9/30/2021 12:00:00 AM 13.6 56.48 0.042 6.55 1.58 9.68
9/30/2021 12:15:00 AM 13.58 56.444 0.042 6.55 1.62 9.68
9/30/2021 12:30:00 AM 13.55 56.39 0.042 6.56 1.59 9.7
9/30/2021 12:45:00 AM 13.52 56.336 0.042 6.55 1.57 9.71
9/30/2021 1:00:00 AM 13.5 56.3 0.042 6.55 1.65 9.71
9/30/2021 1:15:00 AM 13.48 56.264 0.042 6.55 1.55 9.72
9/30/2021 1:30:00 AM 13.45 56.21 0.042 6.56 1.62 9.72
9/30/2021 1:45:00 AM 13.43 56.174 0.042 6.59 1.54 9.73
9/30/2021 2:00:00 AM 13.41 56.138 0.042 6.57 1.53 9.73
9/30/2021 2:15:00 AM 13.37 56.066 0.042 6.57 1.57 9.74
9/30/2021 2:30:00 AM 13.33 55.994 0.042 6.56 1.63 9.75
9/30/2021 2:45:00 AM 13.28 55.904 0.042 6.55 1.59 9.75
9/30/2021 3:00:00 AM 13.24 55.832 0.043 6.58 1.58 9.77
9/30/2021 3:15:00 AM 13.2 55.76 0.042 6.55 1.63 9.77
9/30/2021 3:30:00 AM 13.15 55.67 0.042 6.55 1.61 9.79
9/30/2021 3:45:00 AM 13.11 55.598 0.043 6.57 1.54 9.79
9/30/2021 4:00:00 AM 13.06 55.508 0.043 6.55 1.64 9.8
9/30/2021 4:15:00 AM 13.01 55.418 0.043 6.55 1.61 9.81
9/30/2021 4:30:00 AM 12.96 55.328 0.043 6.55 1.64 9.83
9/30/2021 4:45:00 AM 12.91 55.238 0.043 6.55 1.56 9.84
9/30/2021 5:00:00 AM 12.87 55.166 0.043 6.55 1.61 9.85
9/30/2021 5:15:00 AM 12.84 55.112 0.042 6.55 1.51 9.86
9/30/2021 5:30:00 AM 12.81 55.058 0.043 6.56 1.57 9.87
9/30/2021 5:45:00 AM 12.78 55.004 0.043 6.58 1.6 9.88
9/30/2021 6:00:00 AM 12.75 54.95 0.043 6.56 1.6 9.89
9/30/2021 6:15:00 AM 12.73 54.914 0.043 6.56 1.62 9.9
9/30/2021 6:30:00 AM 12.71 54.878 0.043 6.56 1.56 9.91
9/30/2021 6:45:00 AM 12.69 54.842 0.043 6.56 1.56 9.91
9/30/2021 7:00:00 AM 12.67 54.806 0.043 6.56 1.61 9.91
9/30/2021 7:15:00 AM 12.66 54.788 0.043 6.57 1.56 9.93
9/30/2021 7:30:00 AM 12.65 54.77 0.043 6.59 1.59 9.95
9/30/2021 7:45:00 AM 12.64 54.752 0.043 6.58 1.54 10
9/30/2021 8:00:00 AM 12.64 54.752 0.043 6.59 1.57 10.06
9/30/2021 8:15:00 AM 12.63 54.734 0.043 6.61 1.57 10.1
9/30/2021 8:30:00 AM 12.62 54.716 0.043 6.61 1.59 10.13
9/30/2021 8:45:00 AM 12.61 54.698 0.042 6.63 1.52 10.17
9/30/2021 9:00:00 AM 12.6 54.68 0.042 6.63 1.52 10.21
9/30/2021 9:15:00 AM 12.61 54.698 0.042 6.66 1.52 10.28
9/30/2021 9:30:00 AM 12.64 54.752 0.042 6.7 1.58 10.36
9/30/2021 9:45:00 AM 12.69 54.842 0.042 6.71 1.51 10.45
9/30/2021 10:00:00 AM 12.73 54.914 0.042 6.76 1.49 10.5
9/30/2021 10:15:00 AM 12.77 54.986 0.042 6.75 1.55 10.52
9/30/2021 10:30:00 AM 12.82 55.076 0.042